<?xml version="1.0" encoding="UTF-8" standalone="no" ?>
<gpx xmlns="http://www.topografix.com/GPX/1/1" xmlns:xsi="http://www.w3.org/2001/XMLSchema-instance" xsi:schemaLocation="http://www.topografix.com/GPX/1/1 http://www.topografix.com/GPX/1/1/gpx.xsd" version="1.1" creator="VisuGPX - https://www.visugpx.com">
  <metadata>
    <name>VTT XC / AM Grabels cotes</name>
    <desc><![CDATA[Sortie typée XC / AM sur Grabels - Parcours IDEM celui du 28/09/2017 (Grabels cotes).]]></desc>
  </metadata>
  <trk>
    <name><![CDATA[VTT XC / AM Grabels cotes_1]]></name>
    <trkseg>
      <trkpt lat="43.63782" lon="3.8286">
        <ele>117.6</ele>
        <time>2017-10-12T10:15:45Z</time>
      </trkpt>
      <trkpt lat="43.63782" lon="3.8286">
        <ele>117.6</ele>
        <time>2017-10-12T10:17:27Z</time>
      </trkpt>
      <trkpt lat="43.63774" lon="3.82857">
        <ele>115.3</ele>
        <time>2017-10-12T10:17:32Z</time>
      </trkpt>
      <trkpt lat="43.63768" lon="3.82865">
        <ele>118.2</ele>
        <time>2017-10-12T10:17:52Z</time>
      </trkpt>
      <trkpt lat="43.63765" lon="3.82854">
        <ele>118.2</ele>
        <time>2017-10-12T10:17:55Z</time>
      </trkpt>
      <trkpt lat="43.63759" lon="3.82864">
        <ele>118.1</ele>
        <time>2017-10-12T10:18:00Z</time>
      </trkpt>
      <trkpt lat="43.63759" lon="3.82866">
        <ele>117.8</ele>
        <time>2017-10-12T10:18:07Z</time>
      </trkpt>
      <trkpt lat="43.63752" lon="3.8287">
        <ele>113.7</ele>
        <time>2017-10-12T10:18:28Z</time>
      </trkpt>
      <trkpt lat="43.63748" lon="3.8287">
        <ele>112.9</ele>
        <time>2017-10-12T10:18:35Z</time>
      </trkpt>
      <trkpt lat="43.63744" lon="3.82871">
        <ele>112.1</ele>
        <time>2017-10-12T10:18:42Z</time>
      </trkpt>
      <trkpt lat="43.63743" lon="3.8287">
        <ele>111.6</ele>
        <time>2017-10-12T10:18:49Z</time>
      </trkpt>
      <trkpt lat="43.63746" lon="3.82867">
        <ele>111</ele>
        <time>2017-10-12T10:18:56Z</time>
      </trkpt>
      <trkpt lat="43.63746" lon="3.82874">
        <ele>110.2</ele>
        <time>2017-10-12T10:19:03Z</time>
      </trkpt>
      <trkpt lat="43.63749" lon="3.82876">
        <ele>109</ele>
        <time>2017-10-12T10:19:10Z</time>
      </trkpt>
      <trkpt lat="43.63752" lon="3.82873">
        <ele>108</ele>
        <time>2017-10-12T10:19:17Z</time>
      </trkpt>
      <trkpt lat="43.63756" lon="3.82868">
        <ele>107.5</ele>
        <time>2017-10-12T10:19:24Z</time>
      </trkpt>
      <trkpt lat="43.63758" lon="3.82856">
        <ele>107.1</ele>
        <time>2017-10-12T10:19:29Z</time>
      </trkpt>
      <trkpt lat="43.63763" lon="3.82855">
        <ele>107.4</ele>
        <time>2017-10-12T10:19:36Z</time>
      </trkpt>
      <trkpt lat="43.63759" lon="3.82863">
        <ele>107.5</ele>
        <time>2017-10-12T10:19:43Z</time>
      </trkpt>
      <trkpt lat="43.63759" lon="3.82863">
        <ele>108.3</ele>
        <time>2017-10-12T10:19:57Z</time>
      </trkpt>
      <trkpt lat="43.63757" lon="3.82873">
        <ele>109.2</ele>
        <time>2017-10-12T10:20:03Z</time>
      </trkpt>
      <trkpt lat="43.63753" lon="3.82873">
        <ele>110.5</ele>
        <time>2017-10-12T10:20:17Z</time>
      </trkpt>
      <trkpt lat="43.63752" lon="3.82877">
        <ele>110.4</ele>
        <time>2017-10-12T10:20:24Z</time>
      </trkpt>
      <trkpt lat="43.63756" lon="3.82872">
        <ele>110.2</ele>
        <time>2017-10-12T10:20:31Z</time>
      </trkpt>
      <trkpt lat="43.6376" lon="3.82867">
        <ele>110.4</ele>
        <time>2017-10-12T10:20:38Z</time>
      </trkpt>
      <trkpt lat="43.63763" lon="3.8286">
        <ele>111.4</ele>
        <time>2017-10-12T10:20:52Z</time>
      </trkpt>
      <trkpt lat="43.63766" lon="3.82853">
        <ele>113.4</ele>
        <time>2017-10-12T10:21:13Z</time>
      </trkpt>
      <trkpt lat="43.63772" lon="3.82848">
        <ele>114.5</ele>
        <time>2017-10-12T10:21:17Z</time>
      </trkpt>
      <trkpt lat="43.6377" lon="3.82837">
        <ele>115.5</ele>
        <time>2017-10-12T10:21:22Z</time>
      </trkpt>
      <trkpt lat="43.63773" lon="3.82825">
        <ele>115.9</ele>
        <time>2017-10-12T10:21:25Z</time>
      </trkpt>
      <trkpt lat="43.63778" lon="3.82818">
        <ele>116.1</ele>
        <time>2017-10-12T10:21:27Z</time>
      </trkpt>
      <trkpt lat="43.63787" lon="3.82814">
        <ele>116.2</ele>
        <time>2017-10-12T10:21:30Z</time>
      </trkpt>
      <trkpt lat="43.63797" lon="3.8281">
        <ele>116.4</ele>
        <time>2017-10-12T10:21:33Z</time>
      </trkpt>
      <trkpt lat="43.63805" lon="3.82806">
        <ele>116.6</ele>
        <time>2017-10-12T10:21:36Z</time>
      </trkpt>
      <trkpt lat="43.63812" lon="3.82803">
        <ele>116.7</ele>
        <time>2017-10-12T10:21:38Z</time>
      </trkpt>
      <trkpt lat="43.63819" lon="3.828">
        <ele>116.9</ele>
        <time>2017-10-12T10:21:40Z</time>
      </trkpt>
      <trkpt lat="43.63827" lon="3.82797">
        <ele>116.9</ele>
        <time>2017-10-12T10:21:42Z</time>
      </trkpt>
      <trkpt lat="43.63834" lon="3.82796">
        <ele>117</ele>
        <time>2017-10-12T10:21:44Z</time>
      </trkpt>
      <trkpt lat="43.63842" lon="3.82795">
        <ele>118.5</ele>
        <time>2017-10-12T10:21:46Z</time>
      </trkpt>
      <trkpt lat="43.63851" lon="3.82791">
        <ele>119.4</ele>
        <time>2017-10-12T10:21:48Z</time>
      </trkpt>
      <trkpt lat="43.63857" lon="3.82786">
        <ele>119.5</ele>
        <time>2017-10-12T10:21:50Z</time>
      </trkpt>
      <trkpt lat="43.63866" lon="3.82779">
        <ele>119.7</ele>
        <time>2017-10-12T10:21:53Z</time>
      </trkpt>
      <trkpt lat="43.63875" lon="3.82773">
        <ele>119.7</ele>
        <time>2017-10-12T10:21:56Z</time>
      </trkpt>
      <trkpt lat="43.63882" lon="3.82779">
        <ele>119.9</ele>
        <time>2017-10-12T10:21:59Z</time>
      </trkpt>
      <trkpt lat="43.63887" lon="3.82788">
        <ele>120</ele>
        <time>2017-10-12T10:22:01Z</time>
      </trkpt>
      <trkpt lat="43.63894" lon="3.82798">
        <ele>120</ele>
        <time>2017-10-12T10:22:04Z</time>
      </trkpt>
      <trkpt lat="43.63903" lon="3.82799">
        <ele>120.1</ele>
        <time>2017-10-12T10:22:07Z</time>
      </trkpt>
      <trkpt lat="43.63914" lon="3.82802">
        <ele>120.2</ele>
        <time>2017-10-12T10:22:10Z</time>
      </trkpt>
      <trkpt lat="43.63921" lon="3.82811">
        <ele>120.3</ele>
        <time>2017-10-12T10:22:12Z</time>
      </trkpt>
      <trkpt lat="43.63929" lon="3.82816">
        <ele>120.6</ele>
        <time>2017-10-12T10:22:16Z</time>
      </trkpt>
      <trkpt lat="43.63939" lon="3.82816">
        <ele>120.8</ele>
        <time>2017-10-12T10:22:19Z</time>
      </trkpt>
      <trkpt lat="43.63947" lon="3.82815">
        <ele>121.1</ele>
        <time>2017-10-12T10:22:22Z</time>
      </trkpt>
      <trkpt lat="43.63954" lon="3.82811">
        <ele>121.3</ele>
        <time>2017-10-12T10:22:25Z</time>
      </trkpt>
      <trkpt lat="43.63961" lon="3.82804">
        <ele>121.3</ele>
        <time>2017-10-12T10:22:27Z</time>
      </trkpt>
      <trkpt lat="43.63968" lon="3.82801">
        <ele>121.4</ele>
        <time>2017-10-12T10:22:29Z</time>
      </trkpt>
      <trkpt lat="43.63978" lon="3.82794">
        <ele>121.5</ele>
        <time>2017-10-12T10:22:32Z</time>
      </trkpt>
      <trkpt lat="43.63986" lon="3.82789">
        <ele>121.6</ele>
        <time>2017-10-12T10:22:34Z</time>
      </trkpt>
      <trkpt lat="43.63995" lon="3.82786">
        <ele>121.8</ele>
        <time>2017-10-12T10:22:36Z</time>
      </trkpt>
      <trkpt lat="43.64003" lon="3.82785">
        <ele>122.1</ele>
        <time>2017-10-12T10:22:38Z</time>
      </trkpt>
      <trkpt lat="43.64012" lon="3.82782">
        <ele>122.3</ele>
        <time>2017-10-12T10:22:40Z</time>
      </trkpt>
      <trkpt lat="43.64017" lon="3.82772">
        <ele>122.7</ele>
        <time>2017-10-12T10:22:43Z</time>
      </trkpt>
      <trkpt lat="43.64024" lon="3.82763">
        <ele>123.1</ele>
        <time>2017-10-12T10:22:46Z</time>
      </trkpt>
      <trkpt lat="43.64034" lon="3.82758">
        <ele>123.6</ele>
        <time>2017-10-12T10:22:49Z</time>
      </trkpt>
      <trkpt lat="43.64043" lon="3.82751">
        <ele>123.9</ele>
        <time>2017-10-12T10:22:52Z</time>
      </trkpt>
      <trkpt lat="43.6405" lon="3.82745">
        <ele>124.1</ele>
        <time>2017-10-12T10:22:54Z</time>
      </trkpt>
      <trkpt lat="43.64057" lon="3.82737">
        <ele>124.5</ele>
        <time>2017-10-12T10:22:57Z</time>
      </trkpt>
      <trkpt lat="43.64066" lon="3.8273">
        <ele>124.9</ele>
        <time>2017-10-12T10:23:00Z</time>
      </trkpt>
      <trkpt lat="43.64074" lon="3.82722">
        <ele>125.5</ele>
        <time>2017-10-12T10:23:03Z</time>
      </trkpt>
      <trkpt lat="43.64083" lon="3.82714">
        <ele>126.2</ele>
        <time>2017-10-12T10:23:06Z</time>
      </trkpt>
      <trkpt lat="43.64092" lon="3.82708">
        <ele>126.8</ele>
        <time>2017-10-12T10:23:09Z</time>
      </trkpt>
      <trkpt lat="43.641" lon="3.827">
        <ele>127.5</ele>
        <time>2017-10-12T10:23:12Z</time>
      </trkpt>
      <trkpt lat="43.64106" lon="3.82694">
        <ele>127.8</ele>
        <time>2017-10-12T10:23:14Z</time>
      </trkpt>
      <trkpt lat="43.64113" lon="3.82686">
        <ele>128.2</ele>
        <time>2017-10-12T10:23:17Z</time>
      </trkpt>
      <trkpt lat="43.6412" lon="3.82677">
        <ele>128.7</ele>
        <time>2017-10-12T10:23:20Z</time>
      </trkpt>
      <trkpt lat="43.64126" lon="3.8267">
        <ele>129.2</ele>
        <time>2017-10-12T10:23:23Z</time>
      </trkpt>
      <trkpt lat="43.64135" lon="3.8266">
        <ele>129.8</ele>
        <time>2017-10-12T10:23:26Z</time>
      </trkpt>
      <trkpt lat="43.64141" lon="3.82655">
        <ele>130.1</ele>
        <time>2017-10-12T10:23:28Z</time>
      </trkpt>
      <trkpt lat="43.64149" lon="3.82646">
        <ele>130.6</ele>
        <time>2017-10-12T10:23:31Z</time>
      </trkpt>
      <trkpt lat="43.64156" lon="3.82639">
        <ele>130.9</ele>
        <time>2017-10-12T10:23:33Z</time>
      </trkpt>
      <trkpt lat="43.64162" lon="3.82631">
        <ele>131.4</ele>
        <time>2017-10-12T10:23:36Z</time>
      </trkpt>
      <trkpt lat="43.64168" lon="3.82624">
        <ele>131.8</ele>
        <time>2017-10-12T10:23:39Z</time>
      </trkpt>
      <trkpt lat="43.64175" lon="3.82614">
        <ele>132.2</ele>
        <time>2017-10-12T10:23:42Z</time>
      </trkpt>
      <trkpt lat="43.64182" lon="3.82608">
        <ele>132.5</ele>
        <time>2017-10-12T10:23:44Z</time>
      </trkpt>
      <trkpt lat="43.64188" lon="3.826">
        <ele>132.8</ele>
        <time>2017-10-12T10:23:46Z</time>
      </trkpt>
      <trkpt lat="43.64195" lon="3.82591">
        <ele>133.2</ele>
        <time>2017-10-12T10:23:49Z</time>
      </trkpt>
      <trkpt lat="43.642" lon="3.82582">
        <ele>133.6</ele>
        <time>2017-10-12T10:23:51Z</time>
      </trkpt>
      <trkpt lat="43.64206" lon="3.82575">
        <ele>133.9</ele>
        <time>2017-10-12T10:23:53Z</time>
      </trkpt>
      <trkpt lat="43.64211" lon="3.82568">
        <ele>134.2</ele>
        <time>2017-10-12T10:23:55Z</time>
      </trkpt>
      <trkpt lat="43.64216" lon="3.82557">
        <ele>134.7</ele>
        <time>2017-10-12T10:23:58Z</time>
      </trkpt>
      <trkpt lat="43.64221" lon="3.82544">
        <ele>135.1</ele>
        <time>2017-10-12T10:24:01Z</time>
      </trkpt>
      <trkpt lat="43.64226" lon="3.82532">
        <ele>135.4</ele>
        <time>2017-10-12T10:24:04Z</time>
      </trkpt>
      <trkpt lat="43.64229" lon="3.82522">
        <ele>135.6</ele>
        <time>2017-10-12T10:24:06Z</time>
      </trkpt>
      <trkpt lat="43.64233" lon="3.82514">
        <ele>135.7</ele>
        <time>2017-10-12T10:24:09Z</time>
      </trkpt>
      <trkpt lat="43.6424" lon="3.82502">
        <ele>136</ele>
        <time>2017-10-12T10:24:12Z</time>
      </trkpt>
      <trkpt lat="43.64244" lon="3.82494">
        <ele>136.1</ele>
        <time>2017-10-12T10:24:14Z</time>
      </trkpt>
      <trkpt lat="43.64248" lon="3.82485">
        <ele>136.4</ele>
        <time>2017-10-12T10:24:16Z</time>
      </trkpt>
      <trkpt lat="43.64252" lon="3.82476">
        <ele>136.7</ele>
        <time>2017-10-12T10:24:18Z</time>
      </trkpt>
      <trkpt lat="43.64256" lon="3.82464">
        <ele>137</ele>
        <time>2017-10-12T10:24:20Z</time>
      </trkpt>
      <trkpt lat="43.6426" lon="3.82455">
        <ele>137.3</ele>
        <time>2017-10-12T10:24:22Z</time>
      </trkpt>
      <trkpt lat="43.64264" lon="3.82447">
        <ele>137.6</ele>
        <time>2017-10-12T10:24:24Z</time>
      </trkpt>
      <trkpt lat="43.6427" lon="3.82434">
        <ele>137.9</ele>
        <time>2017-10-12T10:24:27Z</time>
      </trkpt>
      <trkpt lat="43.64274" lon="3.82421">
        <ele>138.3</ele>
        <time>2017-10-12T10:24:30Z</time>
      </trkpt>
      <trkpt lat="43.64279" lon="3.82412">
        <ele>138.5</ele>
        <time>2017-10-12T10:24:32Z</time>
      </trkpt>
      <trkpt lat="43.64285" lon="3.82399">
        <ele>138.7</ele>
        <time>2017-10-12T10:24:35Z</time>
      </trkpt>
      <trkpt lat="43.64296" lon="3.82389">
        <ele>139</ele>
        <time>2017-10-12T10:24:38Z</time>
      </trkpt>
      <trkpt lat="43.64303" lon="3.82383">
        <ele>139.2</ele>
        <time>2017-10-12T10:24:41Z</time>
      </trkpt>
      <trkpt lat="43.64308" lon="3.82372">
        <ele>139.4</ele>
        <time>2017-10-12T10:24:45Z</time>
      </trkpt>
      <trkpt lat="43.64311" lon="3.82361">
        <ele>139.4</ele>
        <time>2017-10-12T10:24:47Z</time>
      </trkpt>
      <trkpt lat="43.64314" lon="3.8235">
        <ele>139.4</ele>
        <time>2017-10-12T10:24:49Z</time>
      </trkpt>
      <trkpt lat="43.64321" lon="3.8234">
        <ele>139.5</ele>
        <time>2017-10-12T10:24:51Z</time>
      </trkpt>
      <trkpt lat="43.64326" lon="3.82331">
        <ele>139.5</ele>
        <time>2017-10-12T10:24:54Z</time>
      </trkpt>
      <trkpt lat="43.6433" lon="3.82319">
        <ele>139.5</ele>
        <time>2017-10-12T10:24:57Z</time>
      </trkpt>
      <trkpt lat="43.64332" lon="3.8231">
        <ele>139.5</ele>
        <time>2017-10-12T10:24:59Z</time>
      </trkpt>
      <trkpt lat="43.64336" lon="3.82298">
        <ele>139.7</ele>
        <time>2017-10-12T10:25:02Z</time>
      </trkpt>
      <trkpt lat="43.64339" lon="3.82287">
        <ele>139.8</ele>
        <time>2017-10-12T10:25:05Z</time>
      </trkpt>
      <trkpt lat="43.64344" lon="3.82279">
        <ele>139.9</ele>
        <time>2017-10-12T10:25:07Z</time>
      </trkpt>
      <trkpt lat="43.64352" lon="3.82271">
        <ele>139.8</ele>
        <time>2017-10-12T10:25:10Z</time>
      </trkpt>
      <trkpt lat="43.64359" lon="3.82264">
        <ele>139.8</ele>
        <time>2017-10-12T10:25:12Z</time>
      </trkpt>
      <trkpt lat="43.64367" lon="3.82262">
        <ele>139.8</ele>
        <time>2017-10-12T10:25:14Z</time>
      </trkpt>
      <trkpt lat="43.64373" lon="3.82256">
        <ele>139.9</ele>
        <time>2017-10-12T10:25:18Z</time>
      </trkpt>
      <trkpt lat="43.64368" lon="3.82245">
        <ele>140</ele>
        <time>2017-10-12T10:25:22Z</time>
      </trkpt>
      <trkpt lat="43.64368" lon="3.82234">
        <ele>140.1</ele>
        <time>2017-10-12T10:25:25Z</time>
      </trkpt>
      <trkpt lat="43.64366" lon="3.82223">
        <ele>140.2</ele>
        <time>2017-10-12T10:25:28Z</time>
      </trkpt>
      <trkpt lat="43.6436" lon="3.82215">
        <ele>140.3</ele>
        <time>2017-10-12T10:25:31Z</time>
      </trkpt>
      <trkpt lat="43.64353" lon="3.82208">
        <ele>140.4</ele>
        <time>2017-10-12T10:25:35Z</time>
      </trkpt>
      <trkpt lat="43.6435" lon="3.82198">
        <ele>140.5</ele>
        <time>2017-10-12T10:25:38Z</time>
      </trkpt>
      <trkpt lat="43.64346" lon="3.82184">
        <ele>140.6</ele>
        <time>2017-10-12T10:25:41Z</time>
      </trkpt>
      <trkpt lat="43.64343" lon="3.82175">
        <ele>140.7</ele>
        <time>2017-10-12T10:25:44Z</time>
      </trkpt>
      <trkpt lat="43.64339" lon="3.82166">
        <ele>140.7</ele>
        <time>2017-10-12T10:25:47Z</time>
      </trkpt>
      <trkpt lat="43.64335" lon="3.82149">
        <ele>140.9</ele>
        <time>2017-10-12T10:25:50Z</time>
      </trkpt>
      <trkpt lat="43.64334" lon="3.82139">
        <ele>141</ele>
        <time>2017-10-12T10:25:52Z</time>
      </trkpt>
      <trkpt lat="43.64335" lon="3.82127">
        <ele>141.4</ele>
        <time>2017-10-12T10:25:55Z</time>
      </trkpt>
      <trkpt lat="43.64335" lon="3.82112">
        <ele>141.9</ele>
        <time>2017-10-12T10:25:58Z</time>
      </trkpt>
      <trkpt lat="43.64336" lon="3.82102">
        <ele>142.2</ele>
        <time>2017-10-12T10:26:00Z</time>
      </trkpt>
      <trkpt lat="43.64337" lon="3.82091">
        <ele>142.4</ele>
        <time>2017-10-12T10:26:02Z</time>
      </trkpt>
      <trkpt lat="43.6434" lon="3.82081">
        <ele>142.7</ele>
        <time>2017-10-12T10:26:05Z</time>
      </trkpt>
      <trkpt lat="43.64345" lon="3.82073">
        <ele>143</ele>
        <time>2017-10-12T10:26:08Z</time>
      </trkpt>
      <trkpt lat="43.6435" lon="3.8206">
        <ele>143.5</ele>
        <time>2017-10-12T10:26:12Z</time>
      </trkpt>
      <trkpt lat="43.64356" lon="3.82049">
        <ele>143.8</ele>
        <time>2017-10-12T10:26:15Z</time>
      </trkpt>
      <trkpt lat="43.6436" lon="3.82037">
        <ele>144.3</ele>
        <time>2017-10-12T10:26:18Z</time>
      </trkpt>
      <trkpt lat="43.64365" lon="3.82029">
        <ele>144.6</ele>
        <time>2017-10-12T10:26:21Z</time>
      </trkpt>
      <trkpt lat="43.6437" lon="3.82018">
        <ele>145.4</ele>
        <time>2017-10-12T10:26:26Z</time>
      </trkpt>
      <trkpt lat="43.64374" lon="3.82005">
        <ele>145.8</ele>
        <time>2017-10-12T10:26:28Z</time>
      </trkpt>
      <trkpt lat="43.64379" lon="3.81993">
        <ele>146.3</ele>
        <time>2017-10-12T10:26:30Z</time>
      </trkpt>
      <trkpt lat="43.64383" lon="3.8198">
        <ele>147</ele>
        <time>2017-10-12T10:26:33Z</time>
      </trkpt>
      <trkpt lat="43.64386" lon="3.81971">
        <ele>147.5</ele>
        <time>2017-10-12T10:26:35Z</time>
      </trkpt>
      <trkpt lat="43.64391" lon="3.8196">
        <ele>148</ele>
        <time>2017-10-12T10:26:37Z</time>
      </trkpt>
      <trkpt lat="43.64396" lon="3.81949">
        <ele>151.2</ele>
        <time>2017-10-12T10:26:39Z</time>
      </trkpt>
      <trkpt lat="43.64398" lon="3.81939">
        <ele>151.8</ele>
        <time>2017-10-12T10:26:43Z</time>
      </trkpt>
      <trkpt lat="43.64402" lon="3.81929">
        <ele>152.4</ele>
        <time>2017-10-12T10:26:47Z</time>
      </trkpt>
      <trkpt lat="43.64406" lon="3.8192">
        <ele>152.8</ele>
        <time>2017-10-12T10:26:50Z</time>
      </trkpt>
      <trkpt lat="43.64409" lon="3.8191">
        <ele>153</ele>
        <time>2017-10-12T10:26:52Z</time>
      </trkpt>
      <trkpt lat="43.64411" lon="3.81897">
        <ele>153.1</ele>
        <time>2017-10-12T10:26:55Z</time>
      </trkpt>
      <trkpt lat="43.64411" lon="3.81886">
        <ele>153.3</ele>
        <time>2017-10-12T10:26:58Z</time>
      </trkpt>
      <trkpt lat="43.6441" lon="3.81875">
        <ele>153.7</ele>
        <time>2017-10-12T10:27:01Z</time>
      </trkpt>
      <trkpt lat="43.64411" lon="3.81865">
        <ele>153.9</ele>
        <time>2017-10-12T10:27:04Z</time>
      </trkpt>
      <trkpt lat="43.6441" lon="3.81853">
        <ele>154.1</ele>
        <time>2017-10-12T10:27:07Z</time>
      </trkpt>
      <trkpt lat="43.64411" lon="3.81841">
        <ele>154.4</ele>
        <time>2017-10-12T10:27:11Z</time>
      </trkpt>
      <trkpt lat="43.64412" lon="3.81827">
        <ele>154.7</ele>
        <time>2017-10-12T10:27:14Z</time>
      </trkpt>
      <trkpt lat="43.64419" lon="3.81816">
        <ele>155</ele>
        <time>2017-10-12T10:27:16Z</time>
      </trkpt>
      <trkpt lat="43.64423" lon="3.81808">
        <ele>155</ele>
        <time>2017-10-12T10:27:19Z</time>
      </trkpt>
      <trkpt lat="43.64419" lon="3.81797">
        <ele>155.1</ele>
        <time>2017-10-12T10:27:22Z</time>
      </trkpt>
      <trkpt lat="43.64413" lon="3.81787">
        <ele>155.3</ele>
        <time>2017-10-12T10:27:25Z</time>
      </trkpt>
      <trkpt lat="43.64406" lon="3.81776">
        <ele>155.7</ele>
        <time>2017-10-12T10:27:28Z</time>
      </trkpt>
      <trkpt lat="43.64399" lon="3.81767">
        <ele>156.2</ele>
        <time>2017-10-12T10:27:31Z</time>
      </trkpt>
      <trkpt lat="43.64394" lon="3.81755">
        <ele>159.3</ele>
        <time>2017-10-12T10:27:34Z</time>
      </trkpt>
      <trkpt lat="43.64389" lon="3.81745">
        <ele>161.3</ele>
        <time>2017-10-12T10:27:36Z</time>
      </trkpt>
      <trkpt lat="43.64382" lon="3.81734">
        <ele>161.5</ele>
        <time>2017-10-12T10:27:38Z</time>
      </trkpt>
      <trkpt lat="43.64376" lon="3.81725">
        <ele>162.3</ele>
        <time>2017-10-12T10:27:41Z</time>
      </trkpt>
      <trkpt lat="43.64372" lon="3.81712">
        <ele>162.4</ele>
        <time>2017-10-12T10:27:44Z</time>
      </trkpt>
      <trkpt lat="43.64368" lon="3.81701">
        <ele>162.3</ele>
        <time>2017-10-12T10:27:47Z</time>
      </trkpt>
      <trkpt lat="43.64365" lon="3.81689">
        <ele>162.5</ele>
        <time>2017-10-12T10:27:49Z</time>
      </trkpt>
      <trkpt lat="43.64363" lon="3.8168">
        <ele>162.5</ele>
        <time>2017-10-12T10:27:51Z</time>
      </trkpt>
      <trkpt lat="43.64359" lon="3.81666">
        <ele>162.5</ele>
        <time>2017-10-12T10:27:54Z</time>
      </trkpt>
      <trkpt lat="43.64355" lon="3.81656">
        <ele>162.7</ele>
        <time>2017-10-12T10:27:56Z</time>
      </trkpt>
      <trkpt lat="43.64353" lon="3.81646">
        <ele>163.4</ele>
        <time>2017-10-12T10:27:58Z</time>
      </trkpt>
      <trkpt lat="43.64349" lon="3.81636">
        <ele>163.9</ele>
        <time>2017-10-12T10:28:00Z</time>
      </trkpt>
      <trkpt lat="43.64346" lon="3.81626">
        <ele>164</ele>
        <time>2017-10-12T10:28:02Z</time>
      </trkpt>
      <trkpt lat="43.64343" lon="3.81616">
        <ele>164.1</ele>
        <time>2017-10-12T10:28:04Z</time>
      </trkpt>
      <trkpt lat="43.64338" lon="3.81603">
        <ele>164.4</ele>
        <time>2017-10-12T10:28:07Z</time>
      </trkpt>
      <trkpt lat="43.64335" lon="3.81591">
        <ele>164.5</ele>
        <time>2017-10-12T10:28:09Z</time>
      </trkpt>
      <trkpt lat="43.64332" lon="3.81582">
        <ele>164.1</ele>
        <time>2017-10-12T10:28:11Z</time>
      </trkpt>
      <trkpt lat="43.64328" lon="3.81568">
        <ele>164</ele>
        <time>2017-10-12T10:28:13Z</time>
      </trkpt>
      <trkpt lat="43.64326" lon="3.81556">
        <ele>163.9</ele>
        <time>2017-10-12T10:28:15Z</time>
      </trkpt>
      <trkpt lat="43.64324" lon="3.81544">
        <ele>163.8</ele>
        <time>2017-10-12T10:28:17Z</time>
      </trkpt>
      <trkpt lat="43.64321" lon="3.8153">
        <ele>165.3</ele>
        <time>2017-10-12T10:28:19Z</time>
      </trkpt>
      <trkpt lat="43.64318" lon="3.81516">
        <ele>167</ele>
        <time>2017-10-12T10:28:21Z</time>
      </trkpt>
      <trkpt lat="43.64314" lon="3.815">
        <ele>168.6</ele>
        <time>2017-10-12T10:28:23Z</time>
      </trkpt>
      <trkpt lat="43.64311" lon="3.81485">
        <ele>170.3</ele>
        <time>2017-10-12T10:28:25Z</time>
      </trkpt>
      <trkpt lat="43.64307" lon="3.81472">
        <ele>171.4</ele>
        <time>2017-10-12T10:28:27Z</time>
      </trkpt>
      <trkpt lat="43.64302" lon="3.81456">
        <ele>171.9</ele>
        <time>2017-10-12T10:28:29Z</time>
      </trkpt>
      <trkpt lat="43.64298" lon="3.8144">
        <ele>172.1</ele>
        <time>2017-10-12T10:28:31Z</time>
      </trkpt>
      <trkpt lat="43.64294" lon="3.81428">
        <ele>171.8</ele>
        <time>2017-10-12T10:28:33Z</time>
      </trkpt>
      <trkpt lat="43.64288" lon="3.81414">
        <ele>170.9</ele>
        <time>2017-10-12T10:28:35Z</time>
      </trkpt>
      <trkpt lat="43.64283" lon="3.81401">
        <ele>169.6</ele>
        <time>2017-10-12T10:28:37Z</time>
      </trkpt>
      <trkpt lat="43.64277" lon="3.81384">
        <ele>167.6</ele>
        <time>2017-10-12T10:28:39Z</time>
      </trkpt>
      <trkpt lat="43.64271" lon="3.81369">
        <ele>165.6</ele>
        <time>2017-10-12T10:28:41Z</time>
      </trkpt>
      <trkpt lat="43.64264" lon="3.81352">
        <ele>163.7</ele>
        <time>2017-10-12T10:28:43Z</time>
      </trkpt>
      <trkpt lat="43.64256" lon="3.81337">
        <ele>161.7</ele>
        <time>2017-10-12T10:28:45Z</time>
      </trkpt>
      <trkpt lat="43.64247" lon="3.81324">
        <ele>160.2</ele>
        <time>2017-10-12T10:28:47Z</time>
      </trkpt>
      <trkpt lat="43.64239" lon="3.81313">
        <ele>159.2</ele>
        <time>2017-10-12T10:28:49Z</time>
      </trkpt>
      <trkpt lat="43.64232" lon="3.81302">
        <ele>158.5</ele>
        <time>2017-10-12T10:28:51Z</time>
      </trkpt>
      <trkpt lat="43.64224" lon="3.81291">
        <ele>157.8</ele>
        <time>2017-10-12T10:28:53Z</time>
      </trkpt>
      <trkpt lat="43.64217" lon="3.81279">
        <ele>157.2</ele>
        <time>2017-10-12T10:28:55Z</time>
      </trkpt>
      <trkpt lat="43.64211" lon="3.81267">
        <ele>156.8</ele>
        <time>2017-10-12T10:28:57Z</time>
      </trkpt>
      <trkpt lat="43.64205" lon="3.81257">
        <ele>156.5</ele>
        <time>2017-10-12T10:28:59Z</time>
      </trkpt>
      <trkpt lat="43.64199" lon="3.81247">
        <ele>156.3</ele>
        <time>2017-10-12T10:29:01Z</time>
      </trkpt>
      <trkpt lat="43.64193" lon="3.81235">
        <ele>156.4</ele>
        <time>2017-10-12T10:29:03Z</time>
      </trkpt>
      <trkpt lat="43.64187" lon="3.81224">
        <ele>156.2</ele>
        <time>2017-10-12T10:29:05Z</time>
      </trkpt>
      <trkpt lat="43.64181" lon="3.81215">
        <ele>155.8</ele>
        <time>2017-10-12T10:29:07Z</time>
      </trkpt>
      <trkpt lat="43.64175" lon="3.81207">
        <ele>155.6</ele>
        <time>2017-10-12T10:29:09Z</time>
      </trkpt>
      <trkpt lat="43.64166" lon="3.81197">
        <ele>155.6</ele>
        <time>2017-10-12T10:29:11Z</time>
      </trkpt>
      <trkpt lat="43.64157" lon="3.81186">
        <ele>156.3</ele>
        <time>2017-10-12T10:29:13Z</time>
      </trkpt>
      <trkpt lat="43.64149" lon="3.81176">
        <ele>157.1</ele>
        <time>2017-10-12T10:29:15Z</time>
      </trkpt>
      <trkpt lat="43.6414" lon="3.81166">
        <ele>158</ele>
        <time>2017-10-12T10:29:17Z</time>
      </trkpt>
      <trkpt lat="43.6413" lon="3.81154">
        <ele>158.8</ele>
        <time>2017-10-12T10:29:19Z</time>
      </trkpt>
      <trkpt lat="43.6412" lon="3.81143">
        <ele>159.6</ele>
        <time>2017-10-12T10:29:21Z</time>
      </trkpt>
      <trkpt lat="43.64112" lon="3.81133">
        <ele>160.1</ele>
        <time>2017-10-12T10:29:23Z</time>
      </trkpt>
      <trkpt lat="43.64105" lon="3.81122">
        <ele>160.4</ele>
        <time>2017-10-12T10:29:25Z</time>
      </trkpt>
      <trkpt lat="43.64098" lon="3.81113">
        <ele>160.6</ele>
        <time>2017-10-12T10:29:27Z</time>
      </trkpt>
      <trkpt lat="43.6409" lon="3.81104">
        <ele>160.6</ele>
        <time>2017-10-12T10:29:29Z</time>
      </trkpt>
      <trkpt lat="43.64085" lon="3.81096">
        <ele>160.3</ele>
        <time>2017-10-12T10:29:31Z</time>
      </trkpt>
      <trkpt lat="43.64086" lon="3.81079">
        <ele>158.4</ele>
        <time>2017-10-12T10:29:34Z</time>
      </trkpt>
      <trkpt lat="43.64095" lon="3.81065">
        <ele>157.1</ele>
        <time>2017-10-12T10:29:36Z</time>
      </trkpt>
      <trkpt lat="43.64101" lon="3.81053">
        <ele>156.3</ele>
        <time>2017-10-12T10:29:37Z</time>
      </trkpt>
      <trkpt lat="43.64106" lon="3.81041">
        <ele>155.6</ele>
        <time>2017-10-12T10:29:38Z</time>
      </trkpt>
      <trkpt lat="43.64111" lon="3.81028">
        <ele>154.8</ele>
        <time>2017-10-12T10:29:39Z</time>
      </trkpt>
      <trkpt lat="43.64114" lon="3.81016">
        <ele>154.2</ele>
        <time>2017-10-12T10:29:40Z</time>
      </trkpt>
      <trkpt lat="43.64117" lon="3.81004">
        <ele>153.6</ele>
        <time>2017-10-12T10:29:41Z</time>
      </trkpt>
      <trkpt lat="43.64123" lon="3.80993">
        <ele>152.8</ele>
        <time>2017-10-12T10:29:42Z</time>
      </trkpt>
      <trkpt lat="43.64131" lon="3.80985">
        <ele>152.6</ele>
        <time>2017-10-12T10:29:43Z</time>
      </trkpt>
      <trkpt lat="43.64137" lon="3.80976">
        <ele>152.5</ele>
        <time>2017-10-12T10:29:44Z</time>
      </trkpt>
      <trkpt lat="43.64142" lon="3.80967">
        <ele>152.5</ele>
        <time>2017-10-12T10:29:45Z</time>
      </trkpt>
      <trkpt lat="43.64148" lon="3.80952">
        <ele>152.2</ele>
        <time>2017-10-12T10:29:47Z</time>
      </trkpt>
      <trkpt lat="43.64151" lon="3.80942">
        <ele>152</ele>
        <time>2017-10-12T10:29:49Z</time>
      </trkpt>
      <trkpt lat="43.64157" lon="3.80934">
        <ele>151.9</ele>
        <time>2017-10-12T10:29:52Z</time>
      </trkpt>
      <trkpt lat="43.64165" lon="3.80925">
        <ele>151.9</ele>
        <time>2017-10-12T10:29:55Z</time>
      </trkpt>
      <trkpt lat="43.64171" lon="3.80915">
        <ele>151.3</ele>
        <time>2017-10-12T10:29:57Z</time>
      </trkpt>
      <trkpt lat="43.64176" lon="3.80904">
        <ele>150.7</ele>
        <time>2017-10-12T10:29:59Z</time>
      </trkpt>
      <trkpt lat="43.64178" lon="3.80895">
        <ele>150.7</ele>
        <time>2017-10-12T10:30:01Z</time>
      </trkpt>
      <trkpt lat="43.64177" lon="3.80883">
        <ele>150.3</ele>
        <time>2017-10-12T10:30:03Z</time>
      </trkpt>
      <trkpt lat="43.64171" lon="3.8087">
        <ele>149.8</ele>
        <time>2017-10-12T10:30:05Z</time>
      </trkpt>
      <trkpt lat="43.64168" lon="3.80853">
        <ele>149.3</ele>
        <time>2017-10-12T10:30:07Z</time>
      </trkpt>
      <trkpt lat="43.64166" lon="3.80844">
        <ele>149</ele>
        <time>2017-10-12T10:30:08Z</time>
      </trkpt>
      <trkpt lat="43.64161" lon="3.80826">
        <ele>148.9</ele>
        <time>2017-10-12T10:30:10Z</time>
      </trkpt>
      <trkpt lat="43.64161" lon="3.80808">
        <ele>148.5</ele>
        <time>2017-10-12T10:30:12Z</time>
      </trkpt>
      <trkpt lat="43.64161" lon="3.80791">
        <ele>147.6</ele>
        <time>2017-10-12T10:30:14Z</time>
      </trkpt>
      <trkpt lat="43.6416" lon="3.80772">
        <ele>146.1</ele>
        <time>2017-10-12T10:30:16Z</time>
      </trkpt>
      <trkpt lat="43.6416" lon="3.80761">
        <ele>145.2</ele>
        <time>2017-10-12T10:30:17Z</time>
      </trkpt>
      <trkpt lat="43.64159" lon="3.80749">
        <ele>144.2</ele>
        <time>2017-10-12T10:30:18Z</time>
      </trkpt>
      <trkpt lat="43.64159" lon="3.80735">
        <ele>143.1</ele>
        <time>2017-10-12T10:30:19Z</time>
      </trkpt>
      <trkpt lat="43.64159" lon="3.80721">
        <ele>142.1</ele>
        <time>2017-10-12T10:30:20Z</time>
      </trkpt>
      <trkpt lat="43.64159" lon="3.80707">
        <ele>141.1</ele>
        <time>2017-10-12T10:30:21Z</time>
      </trkpt>
      <trkpt lat="43.64157" lon="3.80694">
        <ele>140.2</ele>
        <time>2017-10-12T10:30:22Z</time>
      </trkpt>
      <trkpt lat="43.64155" lon="3.8068">
        <ele>139.3</ele>
        <time>2017-10-12T10:30:23Z</time>
      </trkpt>
      <trkpt lat="43.64153" lon="3.80667">
        <ele>138.4</ele>
        <time>2017-10-12T10:30:24Z</time>
      </trkpt>
      <trkpt lat="43.64152" lon="3.80653">
        <ele>137.5</ele>
        <time>2017-10-12T10:30:25Z</time>
      </trkpt>
      <trkpt lat="43.64151" lon="3.80642">
        <ele>136.7</ele>
        <time>2017-10-12T10:30:26Z</time>
      </trkpt>
      <trkpt lat="43.64143" lon="3.80632">
        <ele>135.1</ele>
        <time>2017-10-12T10:30:28Z</time>
      </trkpt>
      <trkpt lat="43.64133" lon="3.80624">
        <ele>133.3</ele>
        <time>2017-10-12T10:30:30Z</time>
      </trkpt>
      <trkpt lat="43.64127" lon="3.80619">
        <ele>130.9</ele>
        <time>2017-10-12T10:30:32Z</time>
      </trkpt>
      <trkpt lat="43.6412" lon="3.80613">
        <ele>130.8</ele>
        <time>2017-10-12T10:30:34Z</time>
      </trkpt>
      <trkpt lat="43.64113" lon="3.80614">
        <ele>130.6</ele>
        <time>2017-10-12T10:30:37Z</time>
      </trkpt>
      <trkpt lat="43.64102" lon="3.80617">
        <ele>127.4</ele>
        <time>2017-10-12T10:30:40Z</time>
      </trkpt>
      <trkpt lat="43.6409" lon="3.80622">
        <ele>126.8</ele>
        <time>2017-10-12T10:30:42Z</time>
      </trkpt>
      <trkpt lat="43.6408" lon="3.80625">
        <ele>125.7</ele>
        <time>2017-10-12T10:30:45Z</time>
      </trkpt>
      <trkpt lat="43.64071" lon="3.80622">
        <ele>123.9</ele>
        <time>2017-10-12T10:30:47Z</time>
      </trkpt>
      <trkpt lat="43.64061" lon="3.80627">
        <ele>122.4</ele>
        <time>2017-10-12T10:30:49Z</time>
      </trkpt>
      <trkpt lat="43.64052" lon="3.80629">
        <ele>121.3</ele>
        <time>2017-10-12T10:30:51Z</time>
      </trkpt>
      <trkpt lat="43.64043" lon="3.80625">
        <ele>120.1</ele>
        <time>2017-10-12T10:30:53Z</time>
      </trkpt>
      <trkpt lat="43.64034" lon="3.80633">
        <ele>117.9</ele>
        <time>2017-10-12T10:30:55Z</time>
      </trkpt>
      <trkpt lat="43.64026" lon="3.80639">
        <ele>115.9</ele>
        <time>2017-10-12T10:30:57Z</time>
      </trkpt>
      <trkpt lat="43.64016" lon="3.80644">
        <ele>114.4</ele>
        <time>2017-10-12T10:30:59Z</time>
      </trkpt>
      <trkpt lat="43.64005" lon="3.80649">
        <ele>112.5</ele>
        <time>2017-10-12T10:31:01Z</time>
      </trkpt>
      <trkpt lat="43.63994" lon="3.80655">
        <ele>110.7</ele>
        <time>2017-10-12T10:31:03Z</time>
      </trkpt>
      <trkpt lat="43.63987" lon="3.80657">
        <ele>109.8</ele>
        <time>2017-10-12T10:31:04Z</time>
      </trkpt>
      <trkpt lat="43.63973" lon="3.8066">
        <ele>107.3</ele>
        <time>2017-10-12T10:31:06Z</time>
      </trkpt>
      <trkpt lat="43.63965" lon="3.80662">
        <ele>106.5</ele>
        <time>2017-10-12T10:31:07Z</time>
      </trkpt>
      <trkpt lat="43.63956" lon="3.80665">
        <ele>106</ele>
        <time>2017-10-12T10:31:09Z</time>
      </trkpt>
      <trkpt lat="43.63947" lon="3.80669">
        <ele>104.5</ele>
        <time>2017-10-12T10:31:12Z</time>
      </trkpt>
      <trkpt lat="43.63938" lon="3.80668">
        <ele>103.5</ele>
        <time>2017-10-12T10:31:14Z</time>
      </trkpt>
      <trkpt lat="43.63927" lon="3.80671">
        <ele>101.7</ele>
        <time>2017-10-12T10:31:16Z</time>
      </trkpt>
      <trkpt lat="43.63916" lon="3.80671">
        <ele>99.8</ele>
        <time>2017-10-12T10:31:18Z</time>
      </trkpt>
      <trkpt lat="43.63909" lon="3.80682">
        <ele>99.2</ele>
        <time>2017-10-12T10:31:20Z</time>
      </trkpt>
      <trkpt lat="43.63909" lon="3.80694">
        <ele>98.4</ele>
        <time>2017-10-12T10:31:22Z</time>
      </trkpt>
      <trkpt lat="43.63909" lon="3.80705">
        <ele>98.3</ele>
        <time>2017-10-12T10:31:24Z</time>
      </trkpt>
      <trkpt lat="43.63903" lon="3.80712">
        <ele>98.2</ele>
        <time>2017-10-12T10:31:28Z</time>
      </trkpt>
      <trkpt lat="43.63896" lon="3.80715">
        <ele>98.2</ele>
        <time>2017-10-12T10:31:31Z</time>
      </trkpt>
      <trkpt lat="43.63886" lon="3.80717">
        <ele>98</ele>
        <time>2017-10-12T10:31:38Z</time>
      </trkpt>
      <trkpt lat="43.63884" lon="3.80721">
        <ele>96.6</ele>
        <time>2017-10-12T10:31:45Z</time>
      </trkpt>
      <trkpt lat="43.63882" lon="3.80722">
        <ele>95.3</ele>
        <time>2017-10-12T10:31:52Z</time>
      </trkpt>
      <trkpt lat="43.63877" lon="3.80731">
        <ele>94.2</ele>
        <time>2017-10-12T10:31:59Z</time>
      </trkpt>
      <trkpt lat="43.63872" lon="3.80738">
        <ele>93.2</ele>
        <time>2017-10-12T10:32:04Z</time>
      </trkpt>
      <trkpt lat="43.63864" lon="3.80737">
        <ele>91.7</ele>
        <time>2017-10-12T10:32:11Z</time>
      </trkpt>
      <trkpt lat="43.63855" lon="3.80736">
        <ele>90.6</ele>
        <time>2017-10-12T10:32:17Z</time>
      </trkpt>
      <trkpt lat="43.63852" lon="3.80734">
        <ele>89.8</ele>
        <time>2017-10-12T10:32:24Z</time>
      </trkpt>
      <trkpt lat="43.63845" lon="3.8073">
        <ele>89.4</ele>
        <time>2017-10-12T10:32:27Z</time>
      </trkpt>
      <trkpt lat="43.63836" lon="3.80732">
        <ele>88.8</ele>
        <time>2017-10-12T10:32:31Z</time>
      </trkpt>
      <trkpt lat="43.63827" lon="3.80732">
        <ele>88.3</ele>
        <time>2017-10-12T10:32:35Z</time>
      </trkpt>
      <trkpt lat="43.63819" lon="3.80734">
        <ele>87.9</ele>
        <time>2017-10-12T10:32:38Z</time>
      </trkpt>
      <trkpt lat="43.63809" lon="3.80736">
        <ele>87.7</ele>
        <time>2017-10-12T10:32:41Z</time>
      </trkpt>
      <trkpt lat="43.63801" lon="3.80738">
        <ele>87.5</ele>
        <time>2017-10-12T10:32:44Z</time>
      </trkpt>
      <trkpt lat="43.63794" lon="3.80735">
        <ele>87.3</ele>
        <time>2017-10-12T10:32:47Z</time>
      </trkpt>
      <trkpt lat="43.63789" lon="3.80725">
        <ele>87.3</ele>
        <time>2017-10-12T10:32:52Z</time>
      </trkpt>
      <trkpt lat="43.63786" lon="3.80714">
        <ele>87.4</ele>
        <time>2017-10-12T10:32:56Z</time>
      </trkpt>
      <trkpt lat="43.63784" lon="3.80703">
        <ele>87.6</ele>
        <time>2017-10-12T10:33:01Z</time>
      </trkpt>
      <trkpt lat="43.63781" lon="3.80693">
        <ele>88.1</ele>
        <time>2017-10-12T10:33:07Z</time>
      </trkpt>
      <trkpt lat="43.63776" lon="3.80684">
        <ele>88.6</ele>
        <time>2017-10-12T10:33:11Z</time>
      </trkpt>
      <trkpt lat="43.6377" lon="3.80677">
        <ele>89.5</ele>
        <time>2017-10-12T10:33:17Z</time>
      </trkpt>
      <trkpt lat="43.63765" lon="3.80668">
        <ele>90.2</ele>
        <time>2017-10-12T10:33:22Z</time>
      </trkpt>
      <trkpt lat="43.6376" lon="3.8066">
        <ele>90.8</ele>
        <time>2017-10-12T10:33:26Z</time>
      </trkpt>
      <trkpt lat="43.63754" lon="3.8065">
        <ele>91.4</ele>
        <time>2017-10-12T10:33:30Z</time>
      </trkpt>
      <trkpt lat="43.6375" lon="3.80641">
        <ele>92.2</ele>
        <time>2017-10-12T10:33:35Z</time>
      </trkpt>
      <trkpt lat="43.63745" lon="3.80632">
        <ele>92.9</ele>
        <time>2017-10-12T10:33:40Z</time>
      </trkpt>
      <trkpt lat="43.63742" lon="3.80622">
        <ele>93.5</ele>
        <time>2017-10-12T10:33:44Z</time>
      </trkpt>
      <trkpt lat="43.63739" lon="3.80611">
        <ele>94.3</ele>
        <time>2017-10-12T10:33:49Z</time>
      </trkpt>
      <trkpt lat="43.63735" lon="3.80602">
        <ele>95.1</ele>
        <time>2017-10-12T10:33:54Z</time>
      </trkpt>
      <trkpt lat="43.63731" lon="3.80592">
        <ele>95.9</ele>
        <time>2017-10-12T10:33:58Z</time>
      </trkpt>
      <trkpt lat="43.63726" lon="3.80583">
        <ele>97.6</ele>
        <time>2017-10-12T10:34:05Z</time>
      </trkpt>
      <trkpt lat="43.63723" lon="3.80573">
        <ele>99.4</ele>
        <time>2017-10-12T10:34:12Z</time>
      </trkpt>
      <trkpt lat="43.63719" lon="3.80563">
        <ele>100.7</ele>
        <time>2017-10-12T10:34:17Z</time>
      </trkpt>
      <trkpt lat="43.63715" lon="3.80554">
        <ele>102.3</ele>
        <time>2017-10-12T10:34:23Z</time>
      </trkpt>
      <trkpt lat="43.63711" lon="3.80544">
        <ele>103.9</ele>
        <time>2017-10-12T10:34:29Z</time>
      </trkpt>
      <trkpt lat="43.63708" lon="3.80535">
        <ele>105.5</ele>
        <time>2017-10-12T10:34:35Z</time>
      </trkpt>
      <trkpt lat="43.63704" lon="3.80529">
        <ele>107.2</ele>
        <time>2017-10-12T10:34:42Z</time>
      </trkpt>
      <trkpt lat="43.63704" lon="3.80526">
        <ele>108.8</ele>
        <time>2017-10-12T10:34:51Z</time>
      </trkpt>
      <trkpt lat="43.63703" lon="3.80523">
        <ele>110.7</ele>
        <time>2017-10-12T10:34:58Z</time>
      </trkpt>
      <trkpt lat="43.63701" lon="3.80516">
        <ele>113.1</ele>
        <time>2017-10-12T10:35:05Z</time>
      </trkpt>
      <trkpt lat="43.63698" lon="3.8051">
        <ele>117.2</ele>
        <time>2017-10-12T10:35:17Z</time>
      </trkpt>
      <trkpt lat="43.63695" lon="3.80505">
        <ele>118.6</ele>
        <time>2017-10-12T10:35:26Z</time>
      </trkpt>
      <trkpt lat="43.63693" lon="3.80498">
        <ele>120.1</ele>
        <time>2017-10-12T10:35:37Z</time>
      </trkpt>
      <trkpt lat="43.63689" lon="3.80489">
        <ele>121.6</ele>
        <time>2017-10-12T10:35:42Z</time>
      </trkpt>
      <trkpt lat="43.63684" lon="3.8048">
        <ele>123.3</ele>
        <time>2017-10-12T10:35:48Z</time>
      </trkpt>
      <trkpt lat="43.6368" lon="3.80471">
        <ele>124.7</ele>
        <time>2017-10-12T10:35:53Z</time>
      </trkpt>
      <trkpt lat="43.63675" lon="3.80464">
        <ele>125.9</ele>
        <time>2017-10-12T10:35:58Z</time>
      </trkpt>
      <trkpt lat="43.63671" lon="3.80455">
        <ele>127</ele>
        <time>2017-10-12T10:36:03Z</time>
      </trkpt>
      <trkpt lat="43.63667" lon="3.80447">
        <ele>128.6</ele>
        <time>2017-10-12T10:36:09Z</time>
      </trkpt>
      <trkpt lat="43.63662" lon="3.80437">
        <ele>131.1</ele>
        <time>2017-10-12T10:36:16Z</time>
      </trkpt>
      <trkpt lat="43.63658" lon="3.80428">
        <ele>133.4</ele>
        <time>2017-10-12T10:36:22Z</time>
      </trkpt>
      <trkpt lat="43.63654" lon="3.80419">
        <ele>135.6</ele>
        <time>2017-10-12T10:36:28Z</time>
      </trkpt>
      <trkpt lat="43.63649" lon="3.80411">
        <ele>136.8</ele>
        <time>2017-10-12T10:36:32Z</time>
      </trkpt>
      <trkpt lat="43.63644" lon="3.80402">
        <ele>138.4</ele>
        <time>2017-10-12T10:36:37Z</time>
      </trkpt>
      <trkpt lat="43.63639" lon="3.80393">
        <ele>140.1</ele>
        <time>2017-10-12T10:36:42Z</time>
      </trkpt>
      <trkpt lat="43.63633" lon="3.80386">
        <ele>142.3</ele>
        <time>2017-10-12T10:36:48Z</time>
      </trkpt>
      <trkpt lat="43.63627" lon="3.80379">
        <ele>144.2</ele>
        <time>2017-10-12T10:36:54Z</time>
      </trkpt>
      <trkpt lat="43.63622" lon="3.80371">
        <ele>145.6</ele>
        <time>2017-10-12T10:36:59Z</time>
      </trkpt>
      <trkpt lat="43.63618" lon="3.80363">
        <ele>146.9</ele>
        <time>2017-10-12T10:37:04Z</time>
      </trkpt>
      <trkpt lat="43.63611" lon="3.80356">
        <ele>147.7</ele>
        <time>2017-10-12T10:37:09Z</time>
      </trkpt>
      <trkpt lat="43.63604" lon="3.8035">
        <ele>148.1</ele>
        <time>2017-10-12T10:37:14Z</time>
      </trkpt>
      <trkpt lat="43.63599" lon="3.80339">
        <ele>148.2</ele>
        <time>2017-10-12T10:37:18Z</time>
      </trkpt>
      <trkpt lat="43.63595" lon="3.80328">
        <ele>148.4</ele>
        <time>2017-10-12T10:37:21Z</time>
      </trkpt>
      <trkpt lat="43.63597" lon="3.80318">
        <ele>148.6</ele>
        <time>2017-10-12T10:37:24Z</time>
      </trkpt>
      <trkpt lat="43.63598" lon="3.80307">
        <ele>149.1</ele>
        <time>2017-10-12T10:37:27Z</time>
      </trkpt>
      <trkpt lat="43.63599" lon="3.80294">
        <ele>149.7</ele>
        <time>2017-10-12T10:37:31Z</time>
      </trkpt>
      <trkpt lat="43.636" lon="3.80282">
        <ele>150.2</ele>
        <time>2017-10-12T10:37:34Z</time>
      </trkpt>
      <trkpt lat="43.63601" lon="3.80269">
        <ele>150.7</ele>
        <time>2017-10-12T10:37:37Z</time>
      </trkpt>
      <trkpt lat="43.63603" lon="3.80256">
        <ele>151.3</ele>
        <time>2017-10-12T10:37:40Z</time>
      </trkpt>
      <trkpt lat="43.63603" lon="3.80245">
        <ele>151.7</ele>
        <time>2017-10-12T10:37:42Z</time>
      </trkpt>
      <trkpt lat="43.63603" lon="3.80234">
        <ele>153.8</ele>
        <time>2017-10-12T10:37:44Z</time>
      </trkpt>
      <trkpt lat="43.63601" lon="3.80221">
        <ele>155.6</ele>
        <time>2017-10-12T10:37:46Z</time>
      </trkpt>
      <trkpt lat="43.63597" lon="3.80212">
        <ele>158.9</ele>
        <time>2017-10-12T10:37:48Z</time>
      </trkpt>
      <trkpt lat="43.6359" lon="3.80202">
        <ele>161.3</ele>
        <time>2017-10-12T10:37:50Z</time>
      </trkpt>
      <trkpt lat="43.63583" lon="3.80192">
        <ele>162.8</ele>
        <time>2017-10-12T10:37:52Z</time>
      </trkpt>
      <trkpt lat="43.63576" lon="3.80184">
        <ele>163.6</ele>
        <time>2017-10-12T10:37:54Z</time>
      </trkpt>
      <trkpt lat="43.6357" lon="3.80176">
        <ele>163.7</ele>
        <time>2017-10-12T10:37:56Z</time>
      </trkpt>
      <trkpt lat="43.63565" lon="3.80166">
        <ele>163.9</ele>
        <time>2017-10-12T10:37:59Z</time>
      </trkpt>
      <trkpt lat="43.63562" lon="3.80152">
        <ele>163.6</ele>
        <time>2017-10-12T10:38:02Z</time>
      </trkpt>
      <trkpt lat="43.63558" lon="3.80142">
        <ele>163.1</ele>
        <time>2017-10-12T10:38:04Z</time>
      </trkpt>
      <trkpt lat="43.63555" lon="3.8013">
        <ele>162.4</ele>
        <time>2017-10-12T10:38:06Z</time>
      </trkpt>
      <trkpt lat="43.6355" lon="3.80117">
        <ele>162</ele>
        <time>2017-10-12T10:38:08Z</time>
      </trkpt>
      <trkpt lat="43.63548" lon="3.80101">
        <ele>161.4</ele>
        <time>2017-10-12T10:38:10Z</time>
      </trkpt>
      <trkpt lat="43.63552" lon="3.80084">
        <ele>160.8</ele>
        <time>2017-10-12T10:38:12Z</time>
      </trkpt>
      <trkpt lat="43.63562" lon="3.80073">
        <ele>160.4</ele>
        <time>2017-10-12T10:38:14Z</time>
      </trkpt>
      <trkpt lat="43.63571" lon="3.80058">
        <ele>160.5</ele>
        <time>2017-10-12T10:38:16Z</time>
      </trkpt>
      <trkpt lat="43.63577" lon="3.80045">
        <ele>160.7</ele>
        <time>2017-10-12T10:38:18Z</time>
      </trkpt>
      <trkpt lat="43.63581" lon="3.80031">
        <ele>160.9</ele>
        <time>2017-10-12T10:38:20Z</time>
      </trkpt>
      <trkpt lat="43.63587" lon="3.8002">
        <ele>161.3</ele>
        <time>2017-10-12T10:38:22Z</time>
      </trkpt>
      <trkpt lat="43.63592" lon="3.80008">
        <ele>162</ele>
        <time>2017-10-12T10:38:24Z</time>
      </trkpt>
      <trkpt lat="43.63594" lon="3.79999">
        <ele>162.1</ele>
        <time>2017-10-12T10:38:26Z</time>
      </trkpt>
      <trkpt lat="43.63598" lon="3.79989">
        <ele>162.3</ele>
        <time>2017-10-12T10:38:28Z</time>
      </trkpt>
      <trkpt lat="43.63603" lon="3.79979">
        <ele>162.4</ele>
        <time>2017-10-12T10:38:30Z</time>
      </trkpt>
      <trkpt lat="43.63608" lon="3.79971">
        <ele>162.4</ele>
        <time>2017-10-12T10:38:32Z</time>
      </trkpt>
      <trkpt lat="43.63614" lon="3.79964">
        <ele>162.5</ele>
        <time>2017-10-12T10:38:34Z</time>
      </trkpt>
      <trkpt lat="43.63618" lon="3.79951">
        <ele>162.5</ele>
        <time>2017-10-12T10:38:37Z</time>
      </trkpt>
      <trkpt lat="43.63624" lon="3.79942">
        <ele>162.5</ele>
        <time>2017-10-12T10:38:39Z</time>
      </trkpt>
      <trkpt lat="43.63632" lon="3.79932">
        <ele>162.4</ele>
        <time>2017-10-12T10:38:42Z</time>
      </trkpt>
      <trkpt lat="43.63637" lon="3.79924">
        <ele>162.2</ele>
        <time>2017-10-12T10:38:44Z</time>
      </trkpt>
      <trkpt lat="43.63645" lon="3.79913">
        <ele>161.1</ele>
        <time>2017-10-12T10:38:47Z</time>
      </trkpt>
      <trkpt lat="43.63652" lon="3.79903">
        <ele>160.9</ele>
        <time>2017-10-12T10:38:50Z</time>
      </trkpt>
      <trkpt lat="43.63658" lon="3.79893">
        <ele>160.9</ele>
        <time>2017-10-12T10:38:53Z</time>
      </trkpt>
      <trkpt lat="43.63664" lon="3.79886">
        <ele>161</ele>
        <time>2017-10-12T10:38:56Z</time>
      </trkpt>
      <trkpt lat="43.63671" lon="3.79875">
        <ele>161.2</ele>
        <time>2017-10-12T10:38:59Z</time>
      </trkpt>
      <trkpt lat="43.63673" lon="3.79865">
        <ele>161.4</ele>
        <time>2017-10-12T10:39:01Z</time>
      </trkpt>
      <trkpt lat="43.63678" lon="3.79857">
        <ele>161.6</ele>
        <time>2017-10-12T10:39:03Z</time>
      </trkpt>
      <trkpt lat="43.63684" lon="3.79849">
        <ele>161.8</ele>
        <time>2017-10-12T10:39:05Z</time>
      </trkpt>
      <trkpt lat="43.63689" lon="3.79841">
        <ele>162</ele>
        <time>2017-10-12T10:39:07Z</time>
      </trkpt>
      <trkpt lat="43.63696" lon="3.79832">
        <ele>162.2</ele>
        <time>2017-10-12T10:39:09Z</time>
      </trkpt>
      <trkpt lat="43.63702" lon="3.79824">
        <ele>162.4</ele>
        <time>2017-10-12T10:39:11Z</time>
      </trkpt>
      <trkpt lat="43.63709" lon="3.79813">
        <ele>163.5</ele>
        <time>2017-10-12T10:39:14Z</time>
      </trkpt>
      <trkpt lat="43.63712" lon="3.79804">
        <ele>163.5</ele>
        <time>2017-10-12T10:39:16Z</time>
      </trkpt>
      <trkpt lat="43.63716" lon="3.79792">
        <ele>163.7</ele>
        <time>2017-10-12T10:39:19Z</time>
      </trkpt>
      <trkpt lat="43.63721" lon="3.79782">
        <ele>163.9</ele>
        <time>2017-10-12T10:39:22Z</time>
      </trkpt>
      <trkpt lat="43.63726" lon="3.79775">
        <ele>164</ele>
        <time>2017-10-12T10:39:24Z</time>
      </trkpt>
      <trkpt lat="43.63731" lon="3.79768">
        <ele>164.2</ele>
        <time>2017-10-12T10:39:26Z</time>
      </trkpt>
      <trkpt lat="43.63739" lon="3.79757">
        <ele>164.6</ele>
        <time>2017-10-12T10:39:29Z</time>
      </trkpt>
      <trkpt lat="43.63746" lon="3.79751">
        <ele>164.7</ele>
        <time>2017-10-12T10:39:31Z</time>
      </trkpt>
      <trkpt lat="43.63753" lon="3.79743">
        <ele>164.7</ele>
        <time>2017-10-12T10:39:33Z</time>
      </trkpt>
      <trkpt lat="43.63759" lon="3.79735">
        <ele>164.7</ele>
        <time>2017-10-12T10:39:36Z</time>
      </trkpt>
      <trkpt lat="43.63766" lon="3.79728">
        <ele>165.5</ele>
        <time>2017-10-12T10:39:39Z</time>
      </trkpt>
      <trkpt lat="43.63774" lon="3.79721">
        <ele>165.7</ele>
        <time>2017-10-12T10:39:42Z</time>
      </trkpt>
      <trkpt lat="43.63782" lon="3.79715">
        <ele>166.3</ele>
        <time>2017-10-12T10:39:44Z</time>
      </trkpt>
      <trkpt lat="43.63792" lon="3.7971">
        <ele>167.1</ele>
        <time>2017-10-12T10:39:46Z</time>
      </trkpt>
      <trkpt lat="43.63801" lon="3.79705">
        <ele>167.3</ele>
        <time>2017-10-12T10:39:48Z</time>
      </trkpt>
      <trkpt lat="43.63808" lon="3.79695">
        <ele>167.2</ele>
        <time>2017-10-12T10:39:50Z</time>
      </trkpt>
      <trkpt lat="43.63816" lon="3.7969">
        <ele>167.2</ele>
        <time>2017-10-12T10:39:52Z</time>
      </trkpt>
      <trkpt lat="43.63822" lon="3.79683">
        <ele>166.6</ele>
        <time>2017-10-12T10:39:54Z</time>
      </trkpt>
      <trkpt lat="43.63832" lon="3.79673">
        <ele>164.7</ele>
        <time>2017-10-12T10:39:56Z</time>
      </trkpt>
      <trkpt lat="43.63839" lon="3.79668">
        <ele>163.8</ele>
        <time>2017-10-12T10:39:58Z</time>
      </trkpt>
      <trkpt lat="43.63846" lon="3.79665">
        <ele>163.7</ele>
        <time>2017-10-12T10:40:00Z</time>
      </trkpt>
      <trkpt lat="43.63854" lon="3.7967">
        <ele>163.6</ele>
        <time>2017-10-12T10:40:02Z</time>
      </trkpt>
      <trkpt lat="43.63863" lon="3.79667">
        <ele>163.5</ele>
        <time>2017-10-12T10:40:05Z</time>
      </trkpt>
      <trkpt lat="43.63871" lon="3.79661">
        <ele>163.8</ele>
        <time>2017-10-12T10:40:10Z</time>
      </trkpt>
      <trkpt lat="43.63879" lon="3.79657">
        <ele>164.2</ele>
        <time>2017-10-12T10:40:13Z</time>
      </trkpt>
      <trkpt lat="43.63886" lon="3.79669">
        <ele>165.5</ele>
        <time>2017-10-12T10:40:16Z</time>
      </trkpt>
      <trkpt lat="43.63892" lon="3.79675">
        <ele>165.6</ele>
        <time>2017-10-12T10:40:18Z</time>
      </trkpt>
      <trkpt lat="43.63902" lon="3.79681">
        <ele>165.7</ele>
        <time>2017-10-12T10:40:21Z</time>
      </trkpt>
      <trkpt lat="43.6391" lon="3.79682">
        <ele>165.8</ele>
        <time>2017-10-12T10:40:23Z</time>
      </trkpt>
      <trkpt lat="43.63919" lon="3.79686">
        <ele>167.1</ele>
        <time>2017-10-12T10:40:25Z</time>
      </trkpt>
      <trkpt lat="43.63928" lon="3.79691">
        <ele>168.3</ele>
        <time>2017-10-12T10:40:27Z</time>
      </trkpt>
      <trkpt lat="43.63936" lon="3.79699">
        <ele>169.3</ele>
        <time>2017-10-12T10:40:29Z</time>
      </trkpt>
      <trkpt lat="43.63946" lon="3.79709">
        <ele>169.9</ele>
        <time>2017-10-12T10:40:31Z</time>
      </trkpt>
      <trkpt lat="43.63954" lon="3.79718">
        <ele>169.8</ele>
        <time>2017-10-12T10:40:33Z</time>
      </trkpt>
      <trkpt lat="43.63961" lon="3.79725">
        <ele>169.3</ele>
        <time>2017-10-12T10:40:35Z</time>
      </trkpt>
      <trkpt lat="43.6397" lon="3.79734">
        <ele>168.2</ele>
        <time>2017-10-12T10:40:37Z</time>
      </trkpt>
      <trkpt lat="43.63981" lon="3.79743">
        <ele>166.4</ele>
        <time>2017-10-12T10:40:39Z</time>
      </trkpt>
      <trkpt lat="43.63993" lon="3.79751">
        <ele>165</ele>
        <time>2017-10-12T10:40:41Z</time>
      </trkpt>
      <trkpt lat="43.64004" lon="3.79758">
        <ele>164.4</ele>
        <time>2017-10-12T10:40:43Z</time>
      </trkpt>
      <trkpt lat="43.64009" lon="3.79771">
        <ele>163.4</ele>
        <time>2017-10-12T10:40:45Z</time>
      </trkpt>
      <trkpt lat="43.6401" lon="3.79782">
        <ele>163</ele>
        <time>2017-10-12T10:40:46Z</time>
      </trkpt>
      <trkpt lat="43.64009" lon="3.79794">
        <ele>162.7</ele>
        <time>2017-10-12T10:40:47Z</time>
      </trkpt>
      <trkpt lat="43.64009" lon="3.79805">
        <ele>162.1</ele>
        <time>2017-10-12T10:40:49Z</time>
      </trkpt>
      <trkpt lat="43.64019" lon="3.79813">
        <ele>161.8</ele>
        <time>2017-10-12T10:40:52Z</time>
      </trkpt>
      <trkpt lat="43.64027" lon="3.79809">
        <ele>161.5</ele>
        <time>2017-10-12T10:40:54Z</time>
      </trkpt>
      <trkpt lat="43.64034" lon="3.798">
        <ele>160.6</ele>
        <time>2017-10-12T10:40:58Z</time>
      </trkpt>
      <trkpt lat="43.64042" lon="3.798">
        <ele>160.1</ele>
        <time>2017-10-12T10:41:00Z</time>
      </trkpt>
      <trkpt lat="43.64049" lon="3.79799">
        <ele>159.5</ele>
        <time>2017-10-12T10:41:02Z</time>
      </trkpt>
      <trkpt lat="43.64057" lon="3.79805">
        <ele>158.6</ele>
        <time>2017-10-12T10:41:05Z</time>
      </trkpt>
      <trkpt lat="43.64064" lon="3.79812">
        <ele>157.7</ele>
        <time>2017-10-12T10:41:08Z</time>
      </trkpt>
      <trkpt lat="43.64072" lon="3.79815">
        <ele>156.7</ele>
        <time>2017-10-12T10:41:11Z</time>
      </trkpt>
      <trkpt lat="43.64079" lon="3.79807">
        <ele>152.3</ele>
        <time>2017-10-12T10:41:13Z</time>
      </trkpt>
      <trkpt lat="43.64086" lon="3.79802">
        <ele>145.6</ele>
        <time>2017-10-12T10:41:15Z</time>
      </trkpt>
      <trkpt lat="43.64095" lon="3.79795">
        <ele>140.9</ele>
        <time>2017-10-12T10:41:17Z</time>
      </trkpt>
      <trkpt lat="43.64102" lon="3.79791">
        <ele>140.5</ele>
        <time>2017-10-12T10:41:19Z</time>
      </trkpt>
      <trkpt lat="43.6411" lon="3.79785">
        <ele>137.5</ele>
        <time>2017-10-12T10:41:21Z</time>
      </trkpt>
      <trkpt lat="43.64117" lon="3.79775">
        <ele>136.4</ele>
        <time>2017-10-12T10:41:23Z</time>
      </trkpt>
      <trkpt lat="43.64111" lon="3.79787">
        <ele>136</ele>
        <time>2017-10-12T10:41:30Z</time>
      </trkpt>
      <trkpt lat="43.6412" lon="3.79787">
        <ele>134.4</ele>
        <time>2017-10-12T10:41:37Z</time>
      </trkpt>
      <trkpt lat="43.6413" lon="3.79787">
        <ele>133.3</ele>
        <time>2017-10-12T10:41:40Z</time>
      </trkpt>
      <trkpt lat="43.64137" lon="3.79782">
        <ele>131.6</ele>
        <time>2017-10-12T10:41:44Z</time>
      </trkpt>
      <trkpt lat="43.64144" lon="3.79774">
        <ele>126.4</ele>
        <time>2017-10-12T10:41:46Z</time>
      </trkpt>
      <trkpt lat="43.64151" lon="3.7977">
        <ele>123</ele>
        <time>2017-10-12T10:41:47Z</time>
      </trkpt>
      <trkpt lat="43.64157" lon="3.79762">
        <ele>118.4</ele>
        <time>2017-10-12T10:41:49Z</time>
      </trkpt>
      <trkpt lat="43.64164" lon="3.79753">
        <ele>118</ele>
        <time>2017-10-12T10:41:51Z</time>
      </trkpt>
      <trkpt lat="43.64172" lon="3.79753">
        <ele>117.6</ele>
        <time>2017-10-12T10:41:53Z</time>
      </trkpt>
      <trkpt lat="43.64181" lon="3.79756">
        <ele>117.3</ele>
        <time>2017-10-12T10:41:55Z</time>
      </trkpt>
      <trkpt lat="43.6419" lon="3.79756">
        <ele>116.8</ele>
        <time>2017-10-12T10:41:58Z</time>
      </trkpt>
      <trkpt lat="43.64195" lon="3.79747">
        <ele>116.3</ele>
        <time>2017-10-12T10:42:02Z</time>
      </trkpt>
      <trkpt lat="43.64196" lon="3.79735">
        <ele>115.7</ele>
        <time>2017-10-12T10:42:06Z</time>
      </trkpt>
      <trkpt lat="43.642" lon="3.79726">
        <ele>115.3</ele>
        <time>2017-10-12T10:42:08Z</time>
      </trkpt>
      <trkpt lat="43.64201" lon="3.79716">
        <ele>114.8</ele>
        <time>2017-10-12T10:42:12Z</time>
      </trkpt>
      <trkpt lat="43.64203" lon="3.79705">
        <ele>114.4</ele>
        <time>2017-10-12T10:42:16Z</time>
      </trkpt>
      <trkpt lat="43.64207" lon="3.79697">
        <ele>114</ele>
        <time>2017-10-12T10:42:19Z</time>
      </trkpt>
      <trkpt lat="43.64208" lon="3.79687">
        <ele>113.6</ele>
        <time>2017-10-12T10:42:24Z</time>
      </trkpt>
      <trkpt lat="43.64209" lon="3.79675">
        <ele>113.3</ele>
        <time>2017-10-12T10:42:29Z</time>
      </trkpt>
      <trkpt lat="43.64211" lon="3.79663">
        <ele>113.2</ele>
        <time>2017-10-12T10:42:32Z</time>
      </trkpt>
      <trkpt lat="43.64211" lon="3.79652">
        <ele>113.1</ele>
        <time>2017-10-12T10:42:35Z</time>
      </trkpt>
      <trkpt lat="43.64216" lon="3.79644">
        <ele>113</ele>
        <time>2017-10-12T10:42:39Z</time>
      </trkpt>
      <trkpt lat="43.64221" lon="3.79633">
        <ele>112.9</ele>
        <time>2017-10-12T10:42:42Z</time>
      </trkpt>
      <trkpt lat="43.64228" lon="3.79626">
        <ele>112.7</ele>
        <time>2017-10-12T10:42:44Z</time>
      </trkpt>
      <trkpt lat="43.64235" lon="3.79615">
        <ele>112.5</ele>
        <time>2017-10-12T10:42:47Z</time>
      </trkpt>
      <trkpt lat="43.64242" lon="3.79607">
        <ele>112.2</ele>
        <time>2017-10-12T10:42:50Z</time>
      </trkpt>
      <trkpt lat="43.64245" lon="3.79598">
        <ele>111.9</ele>
        <time>2017-10-12T10:42:52Z</time>
      </trkpt>
      <trkpt lat="43.64252" lon="3.79593">
        <ele>111.4</ele>
        <time>2017-10-12T10:42:56Z</time>
      </trkpt>
      <trkpt lat="43.6426" lon="3.79594">
        <ele>110.8</ele>
        <time>2017-10-12T10:43:00Z</time>
      </trkpt>
      <trkpt lat="43.64267" lon="3.79596">
        <ele>109.7</ele>
        <time>2017-10-12T10:43:07Z</time>
      </trkpt>
      <trkpt lat="43.64274" lon="3.79589">
        <ele>109.3</ele>
        <time>2017-10-12T10:43:11Z</time>
      </trkpt>
      <trkpt lat="43.64279" lon="3.7958">
        <ele>108.9</ele>
        <time>2017-10-12T10:43:18Z</time>
      </trkpt>
      <trkpt lat="43.64287" lon="3.79581">
        <ele>108.8</ele>
        <time>2017-10-12T10:43:25Z</time>
      </trkpt>
      <trkpt lat="43.64289" lon="3.79569">
        <ele>108</ele>
        <time>2017-10-12T10:43:35Z</time>
      </trkpt>
      <trkpt lat="43.6429" lon="3.79555">
        <ele>107.7</ele>
        <time>2017-10-12T10:43:41Z</time>
      </trkpt>
      <trkpt lat="43.64294" lon="3.79547">
        <ele>107.7</ele>
        <time>2017-10-12T10:43:48Z</time>
      </trkpt>
      <trkpt lat="43.64296" lon="3.79536">
        <ele>108</ele>
        <time>2017-10-12T10:43:54Z</time>
      </trkpt>
      <trkpt lat="43.64303" lon="3.79528">
        <ele>108.1</ele>
        <time>2017-10-12T10:43:57Z</time>
      </trkpt>
      <trkpt lat="43.64309" lon="3.79519">
        <ele>108.1</ele>
        <time>2017-10-12T10:44:03Z</time>
      </trkpt>
      <trkpt lat="43.64317" lon="3.79515">
        <ele>108.1</ele>
        <time>2017-10-12T10:44:08Z</time>
      </trkpt>
      <trkpt lat="43.64328" lon="3.79517">
        <ele>108.1</ele>
        <time>2017-10-12T10:44:13Z</time>
      </trkpt>
      <trkpt lat="43.64336" lon="3.7952">
        <ele>108.2</ele>
        <time>2017-10-12T10:44:16Z</time>
      </trkpt>
      <trkpt lat="43.64347" lon="3.7952">
        <ele>108.4</ele>
        <time>2017-10-12T10:44:19Z</time>
      </trkpt>
      <trkpt lat="43.64353" lon="3.79532">
        <ele>108.7</ele>
        <time>2017-10-12T10:44:23Z</time>
      </trkpt>
      <trkpt lat="43.64361" lon="3.79537">
        <ele>108.7</ele>
        <time>2017-10-12T10:44:26Z</time>
      </trkpt>
      <trkpt lat="43.64371" lon="3.79538">
        <ele>109.4</ele>
        <time>2017-10-12T10:44:28Z</time>
      </trkpt>
      <trkpt lat="43.64381" lon="3.79537">
        <ele>109.3</ele>
        <time>2017-10-12T10:44:30Z</time>
      </trkpt>
      <trkpt lat="43.6439" lon="3.79529">
        <ele>108.6</ele>
        <time>2017-10-12T10:44:32Z</time>
      </trkpt>
      <trkpt lat="43.64396" lon="3.7952">
        <ele>108.6</ele>
        <time>2017-10-12T10:44:34Z</time>
      </trkpt>
      <trkpt lat="43.64403" lon="3.79513">
        <ele>108.5</ele>
        <time>2017-10-12T10:44:36Z</time>
      </trkpt>
      <trkpt lat="43.64409" lon="3.79506">
        <ele>108.5</ele>
        <time>2017-10-12T10:44:38Z</time>
      </trkpt>
      <trkpt lat="43.64417" lon="3.795">
        <ele>108.4</ele>
        <time>2017-10-12T10:44:41Z</time>
      </trkpt>
      <trkpt lat="43.64425" lon="3.79493">
        <ele>108.3</ele>
        <time>2017-10-12T10:44:45Z</time>
      </trkpt>
      <trkpt lat="43.6443" lon="3.79486">
        <ele>108.1</ele>
        <time>2017-10-12T10:44:49Z</time>
      </trkpt>
      <trkpt lat="43.64439" lon="3.7948">
        <ele>107.9</ele>
        <time>2017-10-12T10:44:52Z</time>
      </trkpt>
      <trkpt lat="43.64446" lon="3.7947">
        <ele>107.6</ele>
        <time>2017-10-12T10:44:56Z</time>
      </trkpt>
      <trkpt lat="43.64452" lon="3.79461">
        <ele>107.3</ele>
        <time>2017-10-12T10:44:59Z</time>
      </trkpt>
      <trkpt lat="43.64458" lon="3.79452">
        <ele>107.1</ele>
        <time>2017-10-12T10:45:02Z</time>
      </trkpt>
      <trkpt lat="43.64464" lon="3.79446">
        <ele>106.9</ele>
        <time>2017-10-12T10:45:05Z</time>
      </trkpt>
      <trkpt lat="43.64472" lon="3.79442">
        <ele>106.8</ele>
        <time>2017-10-12T10:45:09Z</time>
      </trkpt>
      <trkpt lat="43.64484" lon="3.79438">
        <ele>106.7</ele>
        <time>2017-10-12T10:45:12Z</time>
      </trkpt>
      <trkpt lat="43.64495" lon="3.79435">
        <ele>105.8</ele>
        <time>2017-10-12T10:45:14Z</time>
      </trkpt>
      <trkpt lat="43.64505" lon="3.79432">
        <ele>104.4</ele>
        <time>2017-10-12T10:45:16Z</time>
      </trkpt>
      <trkpt lat="43.64513" lon="3.79436">
        <ele>104.3</ele>
        <time>2017-10-12T10:45:18Z</time>
      </trkpt>
      <trkpt lat="43.6452" lon="3.79436">
        <ele>104.2</ele>
        <time>2017-10-12T10:45:21Z</time>
      </trkpt>
      <trkpt lat="43.64531" lon="3.79435">
        <ele>103.3</ele>
        <time>2017-10-12T10:45:23Z</time>
      </trkpt>
      <trkpt lat="43.6454" lon="3.79437">
        <ele>102.5</ele>
        <time>2017-10-12T10:45:25Z</time>
      </trkpt>
      <trkpt lat="43.64549" lon="3.79433">
        <ele>101.9</ele>
        <time>2017-10-12T10:45:27Z</time>
      </trkpt>
      <trkpt lat="43.64561" lon="3.79431">
        <ele>100.9</ele>
        <time>2017-10-12T10:45:29Z</time>
      </trkpt>
      <trkpt lat="43.64568" lon="3.79433">
        <ele>100.3</ele>
        <time>2017-10-12T10:45:30Z</time>
      </trkpt>
      <trkpt lat="43.6458" lon="3.79438">
        <ele>99.9</ele>
        <time>2017-10-12T10:45:32Z</time>
      </trkpt>
      <trkpt lat="43.64588" lon="3.79439">
        <ele>99.8</ele>
        <time>2017-10-12T10:45:34Z</time>
      </trkpt>
      <trkpt lat="43.64594" lon="3.7943">
        <ele>99.5</ele>
        <time>2017-10-12T10:45:40Z</time>
      </trkpt>
      <trkpt lat="43.64601" lon="3.79423">
        <ele>99.3</ele>
        <time>2017-10-12T10:45:43Z</time>
      </trkpt>
      <trkpt lat="43.64606" lon="3.79415">
        <ele>99.2</ele>
        <time>2017-10-12T10:45:46Z</time>
      </trkpt>
      <trkpt lat="43.64613" lon="3.79407">
        <ele>99</ele>
        <time>2017-10-12T10:45:49Z</time>
      </trkpt>
      <trkpt lat="43.6462" lon="3.79397">
        <ele>98.9</ele>
        <time>2017-10-12T10:45:52Z</time>
      </trkpt>
      <trkpt lat="43.64627" lon="3.79389">
        <ele>98.6</ele>
        <time>2017-10-12T10:45:55Z</time>
      </trkpt>
      <trkpt lat="43.64635" lon="3.79381">
        <ele>98.3</ele>
        <time>2017-10-12T10:45:58Z</time>
      </trkpt>
      <trkpt lat="43.64637" lon="3.79369">
        <ele>97.9</ele>
        <time>2017-10-12T10:46:02Z</time>
      </trkpt>
      <trkpt lat="43.64639" lon="3.79358">
        <ele>97.7</ele>
        <time>2017-10-12T10:46:05Z</time>
      </trkpt>
      <trkpt lat="43.64642" lon="3.79347">
        <ele>97.5</ele>
        <time>2017-10-12T10:46:08Z</time>
      </trkpt>
      <trkpt lat="43.64646" lon="3.79332">
        <ele>97.5</ele>
        <time>2017-10-12T10:46:11Z</time>
      </trkpt>
      <trkpt lat="43.64648" lon="3.79318">
        <ele>97.6</ele>
        <time>2017-10-12T10:46:14Z</time>
      </trkpt>
      <trkpt lat="43.64651" lon="3.79306">
        <ele>97.7</ele>
        <time>2017-10-12T10:46:17Z</time>
      </trkpt>
      <trkpt lat="43.64655" lon="3.79295">
        <ele>97.8</ele>
        <time>2017-10-12T10:46:20Z</time>
      </trkpt>
      <trkpt lat="43.64662" lon="3.79287">
        <ele>98</ele>
        <time>2017-10-12T10:46:23Z</time>
      </trkpt>
      <trkpt lat="43.6467" lon="3.79283">
        <ele>98.3</ele>
        <time>2017-10-12T10:46:26Z</time>
      </trkpt>
      <trkpt lat="43.64678" lon="3.79275">
        <ele>98.6</ele>
        <time>2017-10-12T10:46:29Z</time>
      </trkpt>
      <trkpt lat="43.64682" lon="3.79261">
        <ele>100.5</ele>
        <time>2017-10-12T10:46:32Z</time>
      </trkpt>
      <trkpt lat="43.64684" lon="3.79249">
        <ele>100.8</ele>
        <time>2017-10-12T10:46:34Z</time>
      </trkpt>
      <trkpt lat="43.64686" lon="3.79239">
        <ele>101.1</ele>
        <time>2017-10-12T10:46:36Z</time>
      </trkpt>
      <trkpt lat="43.64691" lon="3.79229">
        <ele>101.5</ele>
        <time>2017-10-12T10:46:39Z</time>
      </trkpt>
      <trkpt lat="43.64694" lon="3.79216">
        <ele>101.9</ele>
        <time>2017-10-12T10:46:42Z</time>
      </trkpt>
      <trkpt lat="43.64697" lon="3.79206">
        <ele>102.6</ele>
        <time>2017-10-12T10:46:46Z</time>
      </trkpt>
      <trkpt lat="43.64703" lon="3.79206">
        <ele>103.6</ele>
        <time>2017-10-12T10:46:53Z</time>
      </trkpt>
      <trkpt lat="43.64703" lon="3.79208">
        <ele>105.3</ele>
        <time>2017-10-12T10:47:00Z</time>
      </trkpt>
      <trkpt lat="43.64705" lon="3.79221">
        <ele>109.2</ele>
        <time>2017-10-12T10:47:07Z</time>
      </trkpt>
      <trkpt lat="43.64706" lon="3.79233">
        <ele>110.6</ele>
        <time>2017-10-12T10:47:09Z</time>
      </trkpt>
      <trkpt lat="43.64709" lon="3.79243">
        <ele>110.8</ele>
        <time>2017-10-12T10:47:14Z</time>
      </trkpt>
      <trkpt lat="43.64712" lon="3.79237">
        <ele>111</ele>
        <time>2017-10-12T10:47:21Z</time>
      </trkpt>
      <trkpt lat="43.64712" lon="3.79224">
        <ele>110.8</ele>
        <time>2017-10-12T10:47:26Z</time>
      </trkpt>
      <trkpt lat="43.64712" lon="3.79214">
        <ele>110.6</ele>
        <time>2017-10-12T10:47:29Z</time>
      </trkpt>
      <trkpt lat="43.64713" lon="3.79205">
        <ele>110.4</ele>
        <time>2017-10-12T10:47:36Z</time>
      </trkpt>
      <trkpt lat="43.64716" lon="3.79197">
        <ele>110.4</ele>
        <time>2017-10-12T10:47:40Z</time>
      </trkpt>
      <trkpt lat="43.64724" lon="3.79191">
        <ele>110.5</ele>
        <time>2017-10-12T10:47:43Z</time>
      </trkpt>
      <trkpt lat="43.6473" lon="3.79184">
        <ele>110.5</ele>
        <time>2017-10-12T10:47:46Z</time>
      </trkpt>
      <trkpt lat="43.64737" lon="3.79173">
        <ele>110.6</ele>
        <time>2017-10-12T10:47:49Z</time>
      </trkpt>
      <trkpt lat="43.64742" lon="3.79166">
        <ele>110.7</ele>
        <time>2017-10-12T10:47:52Z</time>
      </trkpt>
      <trkpt lat="43.64749" lon="3.79158">
        <ele>110.8</ele>
        <time>2017-10-12T10:47:56Z</time>
      </trkpt>
      <trkpt lat="43.64755" lon="3.79148">
        <ele>110.9</ele>
        <time>2017-10-12T10:48:00Z</time>
      </trkpt>
      <trkpt lat="43.64761" lon="3.7914">
        <ele>111.1</ele>
        <time>2017-10-12T10:48:04Z</time>
      </trkpt>
      <trkpt lat="43.64765" lon="3.79132">
        <ele>111.5</ele>
        <time>2017-10-12T10:48:08Z</time>
      </trkpt>
      <trkpt lat="43.64771" lon="3.79125">
        <ele>111.9</ele>
        <time>2017-10-12T10:48:12Z</time>
      </trkpt>
      <trkpt lat="43.6478" lon="3.79123">
        <ele>112.1</ele>
        <time>2017-10-12T10:48:16Z</time>
      </trkpt>
      <trkpt lat="43.6479" lon="3.79114">
        <ele>112.2</ele>
        <time>2017-10-12T10:48:19Z</time>
      </trkpt>
      <trkpt lat="43.64796" lon="3.79106">
        <ele>112</ele>
        <time>2017-10-12T10:48:21Z</time>
      </trkpt>
      <trkpt lat="43.64806" lon="3.79098">
        <ele>112.6</ele>
        <time>2017-10-12T10:48:23Z</time>
      </trkpt>
      <trkpt lat="43.64812" lon="3.79088">
        <ele>112.5</ele>
        <time>2017-10-12T10:48:25Z</time>
      </trkpt>
      <trkpt lat="43.64817" lon="3.7908">
        <ele>112.7</ele>
        <time>2017-10-12T10:48:28Z</time>
      </trkpt>
      <trkpt lat="43.64825" lon="3.79074">
        <ele>112.7</ele>
        <time>2017-10-12T10:48:30Z</time>
      </trkpt>
      <trkpt lat="43.64834" lon="3.79069">
        <ele>112.8</ele>
        <time>2017-10-12T10:48:33Z</time>
      </trkpt>
      <trkpt lat="43.64844" lon="3.79065">
        <ele>112.9</ele>
        <time>2017-10-12T10:48:35Z</time>
      </trkpt>
      <trkpt lat="43.64854" lon="3.79059">
        <ele>112.9</ele>
        <time>2017-10-12T10:48:38Z</time>
      </trkpt>
      <trkpt lat="43.64862" lon="3.79052">
        <ele>113</ele>
        <time>2017-10-12T10:48:40Z</time>
      </trkpt>
      <trkpt lat="43.64869" lon="3.79048">
        <ele>113</ele>
        <time>2017-10-12T10:48:42Z</time>
      </trkpt>
      <trkpt lat="43.64878" lon="3.79042">
        <ele>113</ele>
        <time>2017-10-12T10:48:45Z</time>
      </trkpt>
      <trkpt lat="43.64886" lon="3.79036">
        <ele>113</ele>
        <time>2017-10-12T10:48:47Z</time>
      </trkpt>
      <trkpt lat="43.64893" lon="3.79029">
        <ele>113.1</ele>
        <time>2017-10-12T10:48:51Z</time>
      </trkpt>
      <trkpt lat="43.64903" lon="3.79021">
        <ele>113.3</ele>
        <time>2017-10-12T10:48:54Z</time>
      </trkpt>
      <trkpt lat="43.64912" lon="3.79014">
        <ele>113.2</ele>
        <time>2017-10-12T10:48:56Z</time>
      </trkpt>
      <trkpt lat="43.64921" lon="3.79007">
        <ele>110.8</ele>
        <time>2017-10-12T10:48:58Z</time>
      </trkpt>
      <trkpt lat="43.64933" lon="3.79">
        <ele>109</ele>
        <time>2017-10-12T10:49:00Z</time>
      </trkpt>
      <trkpt lat="43.64942" lon="3.78994">
        <ele>107.5</ele>
        <time>2017-10-12T10:49:02Z</time>
      </trkpt>
      <trkpt lat="43.64953" lon="3.78988">
        <ele>105.9</ele>
        <time>2017-10-12T10:49:04Z</time>
      </trkpt>
      <trkpt lat="43.64962" lon="3.78983">
        <ele>104.8</ele>
        <time>2017-10-12T10:49:06Z</time>
      </trkpt>
      <trkpt lat="43.64969" lon="3.78977">
        <ele>104.8</ele>
        <time>2017-10-12T10:49:08Z</time>
      </trkpt>
      <trkpt lat="43.64975" lon="3.78972">
        <ele>104.6</ele>
        <time>2017-10-12T10:49:10Z</time>
      </trkpt>
      <trkpt lat="43.64982" lon="3.78966">
        <ele>104.6</ele>
        <time>2017-10-12T10:49:12Z</time>
      </trkpt>
      <trkpt lat="43.6499" lon="3.78962">
        <ele>104.7</ele>
        <time>2017-10-12T10:49:15Z</time>
      </trkpt>
      <trkpt lat="43.64997" lon="3.78958">
        <ele>105.6</ele>
        <time>2017-10-12T10:49:17Z</time>
      </trkpt>
      <trkpt lat="43.65005" lon="3.78953">
        <ele>105.9</ele>
        <time>2017-10-12T10:49:19Z</time>
      </trkpt>
      <trkpt lat="43.65011" lon="3.78946">
        <ele>106.1</ele>
        <time>2017-10-12T10:49:21Z</time>
      </trkpt>
      <trkpt lat="43.65017" lon="3.78938">
        <ele>106.2</ele>
        <time>2017-10-12T10:49:24Z</time>
      </trkpt>
      <trkpt lat="43.65024" lon="3.78931">
        <ele>106.3</ele>
        <time>2017-10-12T10:49:26Z</time>
      </trkpt>
      <trkpt lat="43.65029" lon="3.78919">
        <ele>106.5</ele>
        <time>2017-10-12T10:49:30Z</time>
      </trkpt>
      <trkpt lat="43.65039" lon="3.78913">
        <ele>106.4</ele>
        <time>2017-10-12T10:49:33Z</time>
      </trkpt>
      <trkpt lat="43.65049" lon="3.78907">
        <ele>106.2</ele>
        <time>2017-10-12T10:49:36Z</time>
      </trkpt>
      <trkpt lat="43.65055" lon="3.78901">
        <ele>106.1</ele>
        <time>2017-10-12T10:49:38Z</time>
      </trkpt>
      <trkpt lat="43.65062" lon="3.78895">
        <ele>105.9</ele>
        <time>2017-10-12T10:49:40Z</time>
      </trkpt>
      <trkpt lat="43.65069" lon="3.78895">
        <ele>105.4</ele>
        <time>2017-10-12T10:49:47Z</time>
      </trkpt>
      <trkpt lat="43.65071" lon="3.78908">
        <ele>104.8</ele>
        <time>2017-10-12T10:49:52Z</time>
      </trkpt>
      <trkpt lat="43.65075" lon="3.7892">
        <ele>104.6</ele>
        <time>2017-10-12T10:49:54Z</time>
      </trkpt>
      <trkpt lat="43.65078" lon="3.78933">
        <ele>104.1</ele>
        <time>2017-10-12T10:49:56Z</time>
      </trkpt>
      <trkpt lat="43.65083" lon="3.78947">
        <ele>103.8</ele>
        <time>2017-10-12T10:49:58Z</time>
      </trkpt>
      <trkpt lat="43.65087" lon="3.78961">
        <ele>103.7</ele>
        <time>2017-10-12T10:50:00Z</time>
      </trkpt>
      <trkpt lat="43.65091" lon="3.78976">
        <ele>104.2</ele>
        <time>2017-10-12T10:50:02Z</time>
      </trkpt>
      <trkpt lat="43.65093" lon="3.78991">
        <ele>104.7</ele>
        <time>2017-10-12T10:50:04Z</time>
      </trkpt>
      <trkpt lat="43.65094" lon="3.7901">
        <ele>105.2</ele>
        <time>2017-10-12T10:50:06Z</time>
      </trkpt>
      <trkpt lat="43.65092" lon="3.79021">
        <ele>105.3</ele>
        <time>2017-10-12T10:50:08Z</time>
      </trkpt>
      <trkpt lat="43.65087" lon="3.79036">
        <ele>105.4</ele>
        <time>2017-10-12T10:50:11Z</time>
      </trkpt>
      <trkpt lat="43.6508" lon="3.79049">
        <ele>105.5</ele>
        <time>2017-10-12T10:50:13Z</time>
      </trkpt>
      <trkpt lat="43.65073" lon="3.79056">
        <ele>105.6</ele>
        <time>2017-10-12T10:50:15Z</time>
      </trkpt>
      <trkpt lat="43.65069" lon="3.79068">
        <ele>105.7</ele>
        <time>2017-10-12T10:50:18Z</time>
      </trkpt>
      <trkpt lat="43.65067" lon="3.79078">
        <ele>105.8</ele>
        <time>2017-10-12T10:50:21Z</time>
      </trkpt>
      <trkpt lat="43.65075" lon="3.79076">
        <ele>106.2</ele>
        <time>2017-10-12T10:50:28Z</time>
      </trkpt>
      <trkpt lat="43.65083" lon="3.79074">
        <ele>106.4</ele>
        <time>2017-10-12T10:50:30Z</time>
      </trkpt>
      <trkpt lat="43.65093" lon="3.7907">
        <ele>106.8</ele>
        <time>2017-10-12T10:50:33Z</time>
      </trkpt>
      <trkpt lat="43.65102" lon="3.79067">
        <ele>107.1</ele>
        <time>2017-10-12T10:50:36Z</time>
      </trkpt>
      <trkpt lat="43.65111" lon="3.79061">
        <ele>108.6</ele>
        <time>2017-10-12T10:50:39Z</time>
      </trkpt>
      <trkpt lat="43.6512" lon="3.79054">
        <ele>108.7</ele>
        <time>2017-10-12T10:50:43Z</time>
      </trkpt>
      <trkpt lat="43.65126" lon="3.79049">
        <ele>108.7</ele>
        <time>2017-10-12T10:50:45Z</time>
      </trkpt>
      <trkpt lat="43.65134" lon="3.79047">
        <ele>108.5</ele>
        <time>2017-10-12T10:50:47Z</time>
      </trkpt>
      <trkpt lat="43.65142" lon="3.79045">
        <ele>108.4</ele>
        <time>2017-10-12T10:50:49Z</time>
      </trkpt>
      <trkpt lat="43.65151" lon="3.79043">
        <ele>107.5</ele>
        <time>2017-10-12T10:50:51Z</time>
      </trkpt>
      <trkpt lat="43.65161" lon="3.79043">
        <ele>106.9</ele>
        <time>2017-10-12T10:50:53Z</time>
      </trkpt>
      <trkpt lat="43.65168" lon="3.79044">
        <ele>106.8</ele>
        <time>2017-10-12T10:50:55Z</time>
      </trkpt>
      <trkpt lat="43.65177" lon="3.79045">
        <ele>105.9</ele>
        <time>2017-10-12T10:50:57Z</time>
      </trkpt>
      <trkpt lat="43.65185" lon="3.79046">
        <ele>105.8</ele>
        <time>2017-10-12T10:50:59Z</time>
      </trkpt>
      <trkpt lat="43.65193" lon="3.79045">
        <ele>105.9</ele>
        <time>2017-10-12T10:51:01Z</time>
      </trkpt>
      <trkpt lat="43.65197" lon="3.79054">
        <ele>107</ele>
        <time>2017-10-12T10:51:03Z</time>
      </trkpt>
      <trkpt lat="43.65203" lon="3.79063">
        <ele>107.1</ele>
        <time>2017-10-12T10:51:05Z</time>
      </trkpt>
      <trkpt lat="43.65212" lon="3.79065">
        <ele>107.3</ele>
        <time>2017-10-12T10:51:10Z</time>
      </trkpt>
      <trkpt lat="43.65222" lon="3.79069">
        <ele>107.5</ele>
        <time>2017-10-12T10:51:15Z</time>
      </trkpt>
      <trkpt lat="43.6523" lon="3.79072">
        <ele>107.7</ele>
        <time>2017-10-12T10:51:18Z</time>
      </trkpt>
      <trkpt lat="43.65239" lon="3.79076">
        <ele>107.9</ele>
        <time>2017-10-12T10:51:21Z</time>
      </trkpt>
      <trkpt lat="43.65245" lon="3.79081">
        <ele>108.2</ele>
        <time>2017-10-12T10:51:25Z</time>
      </trkpt>
      <trkpt lat="43.65252" lon="3.79088">
        <ele>108.3</ele>
        <time>2017-10-12T10:51:29Z</time>
      </trkpt>
      <trkpt lat="43.65256" lon="3.79096">
        <ele>108.7</ele>
        <time>2017-10-12T10:51:36Z</time>
      </trkpt>
      <trkpt lat="43.65252" lon="3.79105">
        <ele>108.8</ele>
        <time>2017-10-12T10:51:38Z</time>
      </trkpt>
      <trkpt lat="43.65247" lon="3.79111">
        <ele>108.8</ele>
        <time>2017-10-12T10:51:41Z</time>
      </trkpt>
      <trkpt lat="43.65239" lon="3.79114">
        <ele>108.9</ele>
        <time>2017-10-12T10:51:46Z</time>
      </trkpt>
      <trkpt lat="43.65232" lon="3.79116">
        <ele>109.1</ele>
        <time>2017-10-12T10:51:51Z</time>
      </trkpt>
      <trkpt lat="43.65223" lon="3.79122">
        <ele>109.6</ele>
        <time>2017-10-12T10:51:56Z</time>
      </trkpt>
      <trkpt lat="43.65215" lon="3.79124">
        <ele>110</ele>
        <time>2017-10-12T10:51:59Z</time>
      </trkpt>
      <trkpt lat="43.65207" lon="3.79128">
        <ele>110.9</ele>
        <time>2017-10-12T10:52:04Z</time>
      </trkpt>
      <trkpt lat="43.65199" lon="3.79132">
        <ele>111.5</ele>
        <time>2017-10-12T10:52:08Z</time>
      </trkpt>
      <trkpt lat="43.65191" lon="3.79137">
        <ele>112.5</ele>
        <time>2017-10-12T10:52:13Z</time>
      </trkpt>
      <trkpt lat="43.65183" lon="3.79141">
        <ele>113.6</ele>
        <time>2017-10-12T10:52:18Z</time>
      </trkpt>
      <trkpt lat="43.65176" lon="3.79145">
        <ele>114.3</ele>
        <time>2017-10-12T10:52:22Z</time>
      </trkpt>
      <trkpt lat="43.6517" lon="3.79153">
        <ele>115.8</ele>
        <time>2017-10-12T10:52:29Z</time>
      </trkpt>
      <trkpt lat="43.65164" lon="3.79161">
        <ele>116.7</ele>
        <time>2017-10-12T10:52:34Z</time>
      </trkpt>
      <trkpt lat="43.65158" lon="3.79168">
        <ele>117.5</ele>
        <time>2017-10-12T10:52:38Z</time>
      </trkpt>
      <trkpt lat="43.65151" lon="3.79175">
        <ele>119</ele>
        <time>2017-10-12T10:52:44Z</time>
      </trkpt>
      <trkpt lat="43.65144" lon="3.79182">
        <ele>120</ele>
        <time>2017-10-12T10:52:48Z</time>
      </trkpt>
      <trkpt lat="43.65138" lon="3.79189">
        <ele>120.8</ele>
        <time>2017-10-12T10:52:52Z</time>
      </trkpt>
      <trkpt lat="43.65132" lon="3.79197">
        <ele>121.8</ele>
        <time>2017-10-12T10:52:58Z</time>
      </trkpt>
      <trkpt lat="43.65126" lon="3.79203">
        <ele>122.2</ele>
        <time>2017-10-12T10:53:02Z</time>
      </trkpt>
      <trkpt lat="43.65121" lon="3.79211">
        <ele>122.7</ele>
        <time>2017-10-12T10:53:06Z</time>
      </trkpt>
      <trkpt lat="43.65116" lon="3.7922">
        <ele>123.6</ele>
        <time>2017-10-12T10:53:11Z</time>
      </trkpt>
      <trkpt lat="43.65111" lon="3.79229">
        <ele>124.6</ele>
        <time>2017-10-12T10:53:18Z</time>
      </trkpt>
      <trkpt lat="43.65109" lon="3.79235">
        <ele>125.6</ele>
        <time>2017-10-12T10:53:25Z</time>
      </trkpt>
      <trkpt lat="43.65108" lon="3.79245">
        <ele>126.4</ele>
        <time>2017-10-12T10:53:32Z</time>
      </trkpt>
      <trkpt lat="43.65107" lon="3.79254">
        <ele>127.1</ele>
        <time>2017-10-12T10:53:36Z</time>
      </trkpt>
      <trkpt lat="43.65109" lon="3.79265">
        <ele>128.1</ele>
        <time>2017-10-12T10:53:42Z</time>
      </trkpt>
      <trkpt lat="43.6511" lon="3.79275">
        <ele>128.8</ele>
        <time>2017-10-12T10:53:46Z</time>
      </trkpt>
      <trkpt lat="43.6511" lon="3.79285">
        <ele>129.7</ele>
        <time>2017-10-12T10:53:51Z</time>
      </trkpt>
      <trkpt lat="43.65113" lon="3.79296">
        <ele>131.2</ele>
        <time>2017-10-12T10:53:58Z</time>
      </trkpt>
      <trkpt lat="43.65116" lon="3.79305">
        <ele>132.6</ele>
        <time>2017-10-12T10:54:03Z</time>
      </trkpt>
      <trkpt lat="43.6512" lon="3.79316">
        <ele>135</ele>
        <time>2017-10-12T10:54:10Z</time>
      </trkpt>
      <trkpt lat="43.65124" lon="3.79327">
        <ele>138</ele>
        <time>2017-10-12T10:54:17Z</time>
      </trkpt>
      <trkpt lat="43.65125" lon="3.79338">
        <ele>139.2</ele>
        <time>2017-10-12T10:54:20Z</time>
      </trkpt>
      <trkpt lat="43.65127" lon="3.79347">
        <ele>141.9</ele>
        <time>2017-10-12T10:54:27Z</time>
      </trkpt>
      <trkpt lat="43.6513" lon="3.79354">
        <ele>144.2</ele>
        <time>2017-10-12T10:54:34Z</time>
      </trkpt>
      <trkpt lat="43.65132" lon="3.79363">
        <ele>146.5</ele>
        <time>2017-10-12T10:54:41Z</time>
      </trkpt>
      <trkpt lat="43.65134" lon="3.79371">
        <ele>148.6</ele>
        <time>2017-10-12T10:54:48Z</time>
      </trkpt>
      <trkpt lat="43.65137" lon="3.79382">
        <ele>150.2</ele>
        <time>2017-10-12T10:54:54Z</time>
      </trkpt>
      <trkpt lat="43.65141" lon="3.7939">
        <ele>151.8</ele>
        <time>2017-10-12T10:55:01Z</time>
      </trkpt>
      <trkpt lat="43.65145" lon="3.79396">
        <ele>153.5</ele>
        <time>2017-10-12T10:55:08Z</time>
      </trkpt>
      <trkpt lat="43.65151" lon="3.79404">
        <ele>155.2</ele>
        <time>2017-10-12T10:55:15Z</time>
      </trkpt>
      <trkpt lat="43.65155" lon="3.79413">
        <ele>156</ele>
        <time>2017-10-12T10:55:19Z</time>
      </trkpt>
      <trkpt lat="43.65159" lon="3.79424">
        <ele>156.8</ele>
        <time>2017-10-12T10:55:23Z</time>
      </trkpt>
      <trkpt lat="43.65163" lon="3.79433">
        <ele>157.4</ele>
        <time>2017-10-12T10:55:26Z</time>
      </trkpt>
      <trkpt lat="43.65165" lon="3.79445">
        <ele>158.3</ele>
        <time>2017-10-12T10:55:31Z</time>
      </trkpt>
      <trkpt lat="43.65169" lon="3.79455">
        <ele>158.9</ele>
        <time>2017-10-12T10:55:36Z</time>
      </trkpt>
      <trkpt lat="43.65173" lon="3.79464">
        <ele>159.7</ele>
        <time>2017-10-12T10:55:42Z</time>
      </trkpt>
      <trkpt lat="43.65176" lon="3.79474">
        <ele>160.9</ele>
        <time>2017-10-12T10:55:48Z</time>
      </trkpt>
      <trkpt lat="43.65182" lon="3.79484">
        <ele>161.6</ele>
        <time>2017-10-12T10:55:53Z</time>
      </trkpt>
      <trkpt lat="43.65187" lon="3.7949">
        <ele>162.3</ele>
        <time>2017-10-12T10:55:58Z</time>
      </trkpt>
      <trkpt lat="43.65195" lon="3.79496">
        <ele>163</ele>
        <time>2017-10-12T10:56:04Z</time>
      </trkpt>
      <trkpt lat="43.652" lon="3.79503">
        <ele>163.5</ele>
        <time>2017-10-12T10:56:08Z</time>
      </trkpt>
      <trkpt lat="43.65201" lon="3.79517">
        <ele>164.1</ele>
        <time>2017-10-12T10:56:12Z</time>
      </trkpt>
      <trkpt lat="43.65202" lon="3.79528">
        <ele>164.3</ele>
        <time>2017-10-12T10:56:14Z</time>
      </trkpt>
      <trkpt lat="43.65202" lon="3.79539">
        <ele>164.4</ele>
        <time>2017-10-12T10:56:16Z</time>
      </trkpt>
      <trkpt lat="43.65201" lon="3.79551">
        <ele>165</ele>
        <time>2017-10-12T10:56:18Z</time>
      </trkpt>
      <trkpt lat="43.65202" lon="3.79564">
        <ele>165</ele>
        <time>2017-10-12T10:56:20Z</time>
      </trkpt>
      <trkpt lat="43.65203" lon="3.79575">
        <ele>164.9</ele>
        <time>2017-10-12T10:56:22Z</time>
      </trkpt>
      <trkpt lat="43.65207" lon="3.79586">
        <ele>164.5</ele>
        <time>2017-10-12T10:56:24Z</time>
      </trkpt>
      <trkpt lat="43.65209" lon="3.796">
        <ele>164.5</ele>
        <time>2017-10-12T10:56:27Z</time>
      </trkpt>
      <trkpt lat="43.65211" lon="3.79609">
        <ele>164.5</ele>
        <time>2017-10-12T10:56:30Z</time>
      </trkpt>
      <trkpt lat="43.65215" lon="3.7962">
        <ele>164.6</ele>
        <time>2017-10-12T10:56:33Z</time>
      </trkpt>
      <trkpt lat="43.65217" lon="3.79631">
        <ele>164.7</ele>
        <time>2017-10-12T10:56:37Z</time>
      </trkpt>
      <trkpt lat="43.65217" lon="3.79644">
        <ele>164.9</ele>
        <time>2017-10-12T10:56:42Z</time>
      </trkpt>
      <trkpt lat="43.65219" lon="3.79655">
        <ele>164.9</ele>
        <time>2017-10-12T10:56:45Z</time>
      </trkpt>
      <trkpt lat="43.65221" lon="3.79665">
        <ele>165</ele>
        <time>2017-10-12T10:56:48Z</time>
      </trkpt>
      <trkpt lat="43.65225" lon="3.79674">
        <ele>165.2</ele>
        <time>2017-10-12T10:56:52Z</time>
      </trkpt>
      <trkpt lat="43.65231" lon="3.79682">
        <ele>165.8</ele>
        <time>2017-10-12T10:56:58Z</time>
      </trkpt>
      <trkpt lat="43.65237" lon="3.7969">
        <ele>166.7</ele>
        <time>2017-10-12T10:57:04Z</time>
      </trkpt>
      <trkpt lat="43.65244" lon="3.79696">
        <ele>168.2</ele>
        <time>2017-10-12T10:57:11Z</time>
      </trkpt>
      <trkpt lat="43.6525" lon="3.79703">
        <ele>169.6</ele>
        <time>2017-10-12T10:57:17Z</time>
      </trkpt>
      <trkpt lat="43.65257" lon="3.7971">
        <ele>170.8</ele>
        <time>2017-10-12T10:57:22Z</time>
      </trkpt>
      <trkpt lat="43.65263" lon="3.79716">
        <ele>171.7</ele>
        <time>2017-10-12T10:57:26Z</time>
      </trkpt>
      <trkpt lat="43.65267" lon="3.79726">
        <ele>173</ele>
        <time>2017-10-12T10:57:31Z</time>
      </trkpt>
      <trkpt lat="43.6527" lon="3.79737">
        <ele>173.9</ele>
        <time>2017-10-12T10:57:35Z</time>
      </trkpt>
      <trkpt lat="43.6527" lon="3.79747">
        <ele>174.8</ele>
        <time>2017-10-12T10:57:40Z</time>
      </trkpt>
      <trkpt lat="43.65275" lon="3.79757">
        <ele>175.9</ele>
        <time>2017-10-12T10:57:46Z</time>
      </trkpt>
      <trkpt lat="43.65282" lon="3.79764">
        <ele>177.3</ele>
        <time>2017-10-12T10:57:52Z</time>
      </trkpt>
      <trkpt lat="43.65288" lon="3.79771">
        <ele>178.8</ele>
        <time>2017-10-12T10:57:58Z</time>
      </trkpt>
      <trkpt lat="43.65295" lon="3.79776">
        <ele>180.2</ele>
        <time>2017-10-12T10:58:04Z</time>
      </trkpt>
      <trkpt lat="43.65302" lon="3.7978">
        <ele>181.7</ele>
        <time>2017-10-12T10:58:10Z</time>
      </trkpt>
      <trkpt lat="43.65307" lon="3.79785">
        <ele>183.2</ele>
        <time>2017-10-12T10:58:17Z</time>
      </trkpt>
      <trkpt lat="43.65313" lon="3.79791">
        <ele>184</ele>
        <time>2017-10-12T10:58:21Z</time>
      </trkpt>
      <trkpt lat="43.65319" lon="3.79797">
        <ele>184.6</ele>
        <time>2017-10-12T10:58:25Z</time>
      </trkpt>
      <trkpt lat="43.65326" lon="3.79801">
        <ele>185.5</ele>
        <time>2017-10-12T10:58:30Z</time>
      </trkpt>
      <trkpt lat="43.65332" lon="3.79809">
        <ele>186.4</ele>
        <time>2017-10-12T10:58:35Z</time>
      </trkpt>
      <trkpt lat="43.65339" lon="3.79815">
        <ele>187</ele>
        <time>2017-10-12T10:58:40Z</time>
      </trkpt>
      <trkpt lat="43.65346" lon="3.79822">
        <ele>187.9</ele>
        <time>2017-10-12T10:58:46Z</time>
      </trkpt>
      <trkpt lat="43.65353" lon="3.79826">
        <ele>188.8</ele>
        <time>2017-10-12T10:58:51Z</time>
      </trkpt>
      <trkpt lat="43.65361" lon="3.79831">
        <ele>189.6</ele>
        <time>2017-10-12T10:58:56Z</time>
      </trkpt>
      <trkpt lat="43.65367" lon="3.79837">
        <ele>190.2</ele>
        <time>2017-10-12T10:59:00Z</time>
      </trkpt>
      <trkpt lat="43.65374" lon="3.79844">
        <ele>190.8</ele>
        <time>2017-10-12T10:59:04Z</time>
      </trkpt>
      <trkpt lat="43.65381" lon="3.79849">
        <ele>191.2</ele>
        <time>2017-10-12T10:59:07Z</time>
      </trkpt>
      <trkpt lat="43.6539" lon="3.79856">
        <ele>191.6</ele>
        <time>2017-10-12T10:59:10Z</time>
      </trkpt>
      <trkpt lat="43.65398" lon="3.79864">
        <ele>192</ele>
        <time>2017-10-12T10:59:13Z</time>
      </trkpt>
      <trkpt lat="43.65406" lon="3.79873">
        <ele>192.4</ele>
        <time>2017-10-12T10:59:16Z</time>
      </trkpt>
      <trkpt lat="43.65413" lon="3.79877">
        <ele>192.5</ele>
        <time>2017-10-12T10:59:18Z</time>
      </trkpt>
      <trkpt lat="43.6542" lon="3.79882">
        <ele>193.5</ele>
        <time>2017-10-12T10:59:20Z</time>
      </trkpt>
      <trkpt lat="43.65426" lon="3.79889">
        <ele>195</ele>
        <time>2017-10-12T10:59:22Z</time>
      </trkpt>
      <trkpt lat="43.65433" lon="3.79895">
        <ele>195.3</ele>
        <time>2017-10-12T10:59:24Z</time>
      </trkpt>
      <trkpt lat="43.6544" lon="3.79902">
        <ele>195.4</ele>
        <time>2017-10-12T10:59:26Z</time>
      </trkpt>
      <trkpt lat="43.65446" lon="3.7991">
        <ele>196</ele>
        <time>2017-10-12T10:59:28Z</time>
      </trkpt>
      <trkpt lat="43.65452" lon="3.79916">
        <ele>196.5</ele>
        <time>2017-10-12T10:59:30Z</time>
      </trkpt>
      <trkpt lat="43.65457" lon="3.79923">
        <ele>197</ele>
        <time>2017-10-12T10:59:32Z</time>
      </trkpt>
      <trkpt lat="43.65463" lon="3.79935">
        <ele>197.1</ele>
        <time>2017-10-12T10:59:35Z</time>
      </trkpt>
      <trkpt lat="43.65468" lon="3.79944">
        <ele>197.1</ele>
        <time>2017-10-12T10:59:37Z</time>
      </trkpt>
      <trkpt lat="43.65474" lon="3.79953">
        <ele>197.1</ele>
        <time>2017-10-12T10:59:39Z</time>
      </trkpt>
      <trkpt lat="43.6548" lon="3.7996">
        <ele>197</ele>
        <time>2017-10-12T10:59:41Z</time>
      </trkpt>
      <trkpt lat="43.65486" lon="3.79968">
        <ele>196.4</ele>
        <time>2017-10-12T10:59:43Z</time>
      </trkpt>
      <trkpt lat="43.65491" lon="3.79976">
        <ele>196.3</ele>
        <time>2017-10-12T10:59:45Z</time>
      </trkpt>
      <trkpt lat="43.65498" lon="3.79984">
        <ele>195.9</ele>
        <time>2017-10-12T10:59:48Z</time>
      </trkpt>
      <trkpt lat="43.65503" lon="3.79992">
        <ele>195.3</ele>
        <time>2017-10-12T10:59:50Z</time>
      </trkpt>
      <trkpt lat="43.65509" lon="3.80002">
        <ele>194.6</ele>
        <time>2017-10-12T10:59:52Z</time>
      </trkpt>
      <trkpt lat="43.65515" lon="3.80013">
        <ele>193.8</ele>
        <time>2017-10-12T10:59:54Z</time>
      </trkpt>
      <trkpt lat="43.65521" lon="3.80021">
        <ele>193.3</ele>
        <time>2017-10-12T10:59:56Z</time>
      </trkpt>
      <trkpt lat="43.65526" lon="3.80031">
        <ele>193.2</ele>
        <time>2017-10-12T10:59:58Z</time>
      </trkpt>
      <trkpt lat="43.65533" lon="3.80041">
        <ele>193.2</ele>
        <time>2017-10-12T11:00:00Z</time>
      </trkpt>
      <trkpt lat="43.65538" lon="3.80049">
        <ele>193.2</ele>
        <time>2017-10-12T11:00:02Z</time>
      </trkpt>
      <trkpt lat="43.65543" lon="3.80058">
        <ele>193</ele>
        <time>2017-10-12T11:00:04Z</time>
      </trkpt>
      <trkpt lat="43.6555" lon="3.80068">
        <ele>192.5</ele>
        <time>2017-10-12T11:00:06Z</time>
      </trkpt>
      <trkpt lat="43.65556" lon="3.80077">
        <ele>192.3</ele>
        <time>2017-10-12T11:00:08Z</time>
      </trkpt>
      <trkpt lat="43.65561" lon="3.80087">
        <ele>193</ele>
        <time>2017-10-12T11:00:10Z</time>
      </trkpt>
      <trkpt lat="43.65567" lon="3.80097">
        <ele>193.4</ele>
        <time>2017-10-12T11:00:12Z</time>
      </trkpt>
      <trkpt lat="43.65572" lon="3.80106">
        <ele>193.6</ele>
        <time>2017-10-12T11:00:14Z</time>
      </trkpt>
      <trkpt lat="43.65579" lon="3.8011">
        <ele>194.9</ele>
        <time>2017-10-12T11:00:16Z</time>
      </trkpt>
      <trkpt lat="43.65585" lon="3.80121">
        <ele>195.5</ele>
        <time>2017-10-12T11:00:18Z</time>
      </trkpt>
      <trkpt lat="43.6559" lon="3.80131">
        <ele>195.5</ele>
        <time>2017-10-12T11:00:20Z</time>
      </trkpt>
      <trkpt lat="43.65599" lon="3.80143">
        <ele>195.7</ele>
        <time>2017-10-12T11:00:22Z</time>
      </trkpt>
      <trkpt lat="43.65606" lon="3.8015">
        <ele>195.7</ele>
        <time>2017-10-12T11:00:24Z</time>
      </trkpt>
      <trkpt lat="43.6561" lon="3.80162">
        <ele>195.6</ele>
        <time>2017-10-12T11:00:26Z</time>
      </trkpt>
      <trkpt lat="43.65605" lon="3.80174">
        <ele>195.6</ele>
        <time>2017-10-12T11:00:29Z</time>
      </trkpt>
      <trkpt lat="43.65599" lon="3.80181">
        <ele>194.9</ele>
        <time>2017-10-12T11:00:31Z</time>
      </trkpt>
      <trkpt lat="43.65592" lon="3.80189">
        <ele>193.5</ele>
        <time>2017-10-12T11:00:33Z</time>
      </trkpt>
      <trkpt lat="43.65586" lon="3.80196">
        <ele>193.3</ele>
        <time>2017-10-12T11:00:35Z</time>
      </trkpt>
      <trkpt lat="43.65581" lon="3.80204">
        <ele>192.4</ele>
        <time>2017-10-12T11:00:37Z</time>
      </trkpt>
      <trkpt lat="43.65574" lon="3.80211">
        <ele>192.2</ele>
        <time>2017-10-12T11:00:39Z</time>
      </trkpt>
      <trkpt lat="43.65565" lon="3.80219">
        <ele>192</ele>
        <time>2017-10-12T11:00:42Z</time>
      </trkpt>
      <trkpt lat="43.65556" lon="3.80224">
        <ele>191.8</ele>
        <time>2017-10-12T11:00:45Z</time>
      </trkpt>
      <trkpt lat="43.65549" lon="3.80227">
        <ele>191.6</ele>
        <time>2017-10-12T11:00:47Z</time>
      </trkpt>
      <trkpt lat="43.65542" lon="3.80231">
        <ele>190.9</ele>
        <time>2017-10-12T11:00:49Z</time>
      </trkpt>
      <trkpt lat="43.65534" lon="3.80236">
        <ele>190.8</ele>
        <time>2017-10-12T11:00:51Z</time>
      </trkpt>
      <trkpt lat="43.65526" lon="3.80239">
        <ele>190.6</ele>
        <time>2017-10-12T11:00:53Z</time>
      </trkpt>
      <trkpt lat="43.65518" lon="3.8024">
        <ele>190.4</ele>
        <time>2017-10-12T11:00:55Z</time>
      </trkpt>
      <trkpt lat="43.65509" lon="3.80247">
        <ele>188.3</ele>
        <time>2017-10-12T11:00:57Z</time>
      </trkpt>
      <trkpt lat="43.65498" lon="3.80256">
        <ele>187.6</ele>
        <time>2017-10-12T11:00:59Z</time>
      </trkpt>
      <trkpt lat="43.65492" lon="3.80262">
        <ele>187.1</ele>
        <time>2017-10-12T11:01:01Z</time>
      </trkpt>
      <trkpt lat="43.65484" lon="3.8027">
        <ele>186.7</ele>
        <time>2017-10-12T11:01:03Z</time>
      </trkpt>
      <trkpt lat="43.65481" lon="3.80283">
        <ele>186.1</ele>
        <time>2017-10-12T11:01:05Z</time>
      </trkpt>
      <trkpt lat="43.65482" lon="3.80301">
        <ele>186.2</ele>
        <time>2017-10-12T11:01:07Z</time>
      </trkpt>
      <trkpt lat="43.65485" lon="3.80311">
        <ele>186.5</ele>
        <time>2017-10-12T11:01:09Z</time>
      </trkpt>
      <trkpt lat="43.65493" lon="3.80315">
        <ele>186.4</ele>
        <time>2017-10-12T11:01:11Z</time>
      </trkpt>
      <trkpt lat="43.655" lon="3.8032">
        <ele>186.5</ele>
        <time>2017-10-12T11:01:13Z</time>
      </trkpt>
      <trkpt lat="43.65504" lon="3.80331">
        <ele>186.7</ele>
        <time>2017-10-12T11:01:18Z</time>
      </trkpt>
      <trkpt lat="43.65506" lon="3.80342">
        <ele>186.8</ele>
        <time>2017-10-12T11:01:23Z</time>
      </trkpt>
      <trkpt lat="43.65513" lon="3.80349">
        <ele>186.8</ele>
        <time>2017-10-12T11:01:26Z</time>
      </trkpt>
      <trkpt lat="43.6552" lon="3.80359">
        <ele>186.7</ele>
        <time>2017-10-12T11:01:29Z</time>
      </trkpt>
      <trkpt lat="43.65525" lon="3.80367">
        <ele>186.5</ele>
        <time>2017-10-12T11:01:31Z</time>
      </trkpt>
      <trkpt lat="43.65532" lon="3.80371">
        <ele>186.5</ele>
        <time>2017-10-12T11:01:33Z</time>
      </trkpt>
      <trkpt lat="43.65541" lon="3.80376">
        <ele>186.5</ele>
        <time>2017-10-12T11:01:35Z</time>
      </trkpt>
      <trkpt lat="43.65553" lon="3.80379">
        <ele>185.7</ele>
        <time>2017-10-12T11:01:37Z</time>
      </trkpt>
      <trkpt lat="43.65566" lon="3.80382">
        <ele>184.8</ele>
        <time>2017-10-12T11:01:39Z</time>
      </trkpt>
      <trkpt lat="43.65578" lon="3.80386">
        <ele>183.9</ele>
        <time>2017-10-12T11:01:41Z</time>
      </trkpt>
      <trkpt lat="43.65591" lon="3.80388">
        <ele>183.6</ele>
        <time>2017-10-12T11:01:43Z</time>
      </trkpt>
      <trkpt lat="43.65599" lon="3.80391">
        <ele>183.6</ele>
        <time>2017-10-12T11:01:45Z</time>
      </trkpt>
      <trkpt lat="43.65608" lon="3.80395">
        <ele>183.9</ele>
        <time>2017-10-12T11:01:47Z</time>
      </trkpt>
      <trkpt lat="43.65614" lon="3.80403">
        <ele>184.4</ele>
        <time>2017-10-12T11:01:49Z</time>
      </trkpt>
      <trkpt lat="43.65628" lon="3.80411">
        <ele>184.4</ele>
        <time>2017-10-12T11:01:51Z</time>
      </trkpt>
      <trkpt lat="43.6564" lon="3.80415">
        <ele>184.7</ele>
        <time>2017-10-12T11:01:53Z</time>
      </trkpt>
      <trkpt lat="43.65648" lon="3.80417">
        <ele>185.4</ele>
        <time>2017-10-12T11:01:55Z</time>
      </trkpt>
      <trkpt lat="43.6566" lon="3.80417">
        <ele>186.3</ele>
        <time>2017-10-12T11:01:57Z</time>
      </trkpt>
      <trkpt lat="43.65671" lon="3.80423">
        <ele>186.7</ele>
        <time>2017-10-12T11:01:59Z</time>
      </trkpt>
      <trkpt lat="43.65679" lon="3.80425">
        <ele>187.1</ele>
        <time>2017-10-12T11:02:01Z</time>
      </trkpt>
      <trkpt lat="43.65687" lon="3.80431">
        <ele>186.9</ele>
        <time>2017-10-12T11:02:03Z</time>
      </trkpt>
      <trkpt lat="43.65697" lon="3.80433">
        <ele>186.4</ele>
        <time>2017-10-12T11:02:05Z</time>
      </trkpt>
      <trkpt lat="43.65705" lon="3.80439">
        <ele>186.1</ele>
        <time>2017-10-12T11:02:07Z</time>
      </trkpt>
      <trkpt lat="43.65714" lon="3.80446">
        <ele>185.8</ele>
        <time>2017-10-12T11:02:09Z</time>
      </trkpt>
      <trkpt lat="43.65723" lon="3.80451">
        <ele>185.9</ele>
        <time>2017-10-12T11:02:12Z</time>
      </trkpt>
      <trkpt lat="43.6573" lon="3.80454">
        <ele>186.4</ele>
        <time>2017-10-12T11:02:14Z</time>
      </trkpt>
      <trkpt lat="43.65738" lon="3.80453">
        <ele>186.5</ele>
        <time>2017-10-12T11:02:16Z</time>
      </trkpt>
      <trkpt lat="43.65747" lon="3.80458">
        <ele>186.9</ele>
        <time>2017-10-12T11:02:19Z</time>
      </trkpt>
      <trkpt lat="43.65755" lon="3.80461">
        <ele>187.2</ele>
        <time>2017-10-12T11:02:21Z</time>
      </trkpt>
      <trkpt lat="43.65764" lon="3.80465">
        <ele>189.2</ele>
        <time>2017-10-12T11:02:23Z</time>
      </trkpt>
      <trkpt lat="43.65773" lon="3.80467">
        <ele>189.5</ele>
        <time>2017-10-12T11:02:25Z</time>
      </trkpt>
      <trkpt lat="43.65781" lon="3.80474">
        <ele>192.6</ele>
        <time>2017-10-12T11:02:27Z</time>
      </trkpt>
      <trkpt lat="43.65793" lon="3.80478">
        <ele>194.2</ele>
        <time>2017-10-12T11:02:29Z</time>
      </trkpt>
      <trkpt lat="43.65805" lon="3.8048">
        <ele>194.4</ele>
        <time>2017-10-12T11:02:31Z</time>
      </trkpt>
      <trkpt lat="43.65813" lon="3.80481">
        <ele>194.4</ele>
        <time>2017-10-12T11:02:33Z</time>
      </trkpt>
      <trkpt lat="43.65822" lon="3.80486">
        <ele>195</ele>
        <time>2017-10-12T11:02:35Z</time>
      </trkpt>
      <trkpt lat="43.65831" lon="3.80491">
        <ele>195.4</ele>
        <time>2017-10-12T11:02:37Z</time>
      </trkpt>
      <trkpt lat="43.6584" lon="3.80501">
        <ele>195.2</ele>
        <time>2017-10-12T11:02:39Z</time>
      </trkpt>
      <trkpt lat="43.65851" lon="3.80505">
        <ele>195.2</ele>
        <time>2017-10-12T11:02:41Z</time>
      </trkpt>
      <trkpt lat="43.65859" lon="3.80511">
        <ele>195.2</ele>
        <time>2017-10-12T11:02:43Z</time>
      </trkpt>
      <trkpt lat="43.65866" lon="3.8052">
        <ele>194.7</ele>
        <time>2017-10-12T11:02:45Z</time>
      </trkpt>
      <trkpt lat="43.65875" lon="3.80526">
        <ele>194.5</ele>
        <time>2017-10-12T11:02:47Z</time>
      </trkpt>
      <trkpt lat="43.65884" lon="3.80529">
        <ele>194.4</ele>
        <time>2017-10-12T11:02:50Z</time>
      </trkpt>
      <trkpt lat="43.65892" lon="3.80532">
        <ele>194.3</ele>
        <time>2017-10-12T11:02:53Z</time>
      </trkpt>
      <trkpt lat="43.65899" lon="3.80536">
        <ele>194.1</ele>
        <time>2017-10-12T11:02:56Z</time>
      </trkpt>
      <trkpt lat="43.65906" lon="3.80545">
        <ele>194</ele>
        <time>2017-10-12T11:02:59Z</time>
      </trkpt>
      <trkpt lat="43.65916" lon="3.80549">
        <ele>194.1</ele>
        <time>2017-10-12T11:03:02Z</time>
      </trkpt>
      <trkpt lat="43.65923" lon="3.80558">
        <ele>194.2</ele>
        <time>2017-10-12T11:03:05Z</time>
      </trkpt>
      <trkpt lat="43.65923" lon="3.80571">
        <ele>194.1</ele>
        <time>2017-10-12T11:03:09Z</time>
      </trkpt>
      <trkpt lat="43.65925" lon="3.80582">
        <ele>193.9</ele>
        <time>2017-10-12T11:03:13Z</time>
      </trkpt>
      <trkpt lat="43.6593" lon="3.80594">
        <ele>193.7</ele>
        <time>2017-10-12T11:03:16Z</time>
      </trkpt>
      <trkpt lat="43.6593" lon="3.80605">
        <ele>193.4</ele>
        <time>2017-10-12T11:03:18Z</time>
      </trkpt>
      <trkpt lat="43.65928" lon="3.80615">
        <ele>193</ele>
        <time>2017-10-12T11:03:20Z</time>
      </trkpt>
      <trkpt lat="43.65928" lon="3.80626">
        <ele>192.3</ele>
        <time>2017-10-12T11:03:23Z</time>
      </trkpt>
      <trkpt lat="43.65925" lon="3.80637">
        <ele>191.5</ele>
        <time>2017-10-12T11:03:26Z</time>
      </trkpt>
      <trkpt lat="43.65916" lon="3.80644">
        <ele>188.3</ele>
        <time>2017-10-12T11:03:28Z</time>
      </trkpt>
      <trkpt lat="43.6591" lon="3.8065">
        <ele>184.9</ele>
        <time>2017-10-12T11:03:30Z</time>
      </trkpt>
      <trkpt lat="43.65909" lon="3.80666">
        <ele>179.4</ele>
        <time>2017-10-12T11:03:33Z</time>
      </trkpt>
      <trkpt lat="43.65913" lon="3.80676">
        <ele>174.1</ele>
        <time>2017-10-12T11:03:35Z</time>
      </trkpt>
      <trkpt lat="43.6592" lon="3.80688">
        <ele>169</ele>
        <time>2017-10-12T11:03:37Z</time>
      </trkpt>
      <trkpt lat="43.65926" lon="3.80702">
        <ele>164.3</ele>
        <time>2017-10-12T11:03:39Z</time>
      </trkpt>
      <trkpt lat="43.65926" lon="3.80714">
        <ele>160.4</ele>
        <time>2017-10-12T11:03:41Z</time>
      </trkpt>
      <trkpt lat="43.65918" lon="3.80726">
        <ele>157.1</ele>
        <time>2017-10-12T11:03:43Z</time>
      </trkpt>
      <trkpt lat="43.6591" lon="3.8074">
        <ele>154.1</ele>
        <time>2017-10-12T11:03:45Z</time>
      </trkpt>
      <trkpt lat="43.6591" lon="3.80751">
        <ele>153.9</ele>
        <time>2017-10-12T11:03:47Z</time>
      </trkpt>
      <trkpt lat="43.65917" lon="3.80756">
        <ele>152.9</ele>
        <time>2017-10-12T11:03:49Z</time>
      </trkpt>
      <trkpt lat="43.65924" lon="3.8076">
        <ele>151.3</ele>
        <time>2017-10-12T11:03:51Z</time>
      </trkpt>
      <trkpt lat="43.65932" lon="3.80766">
        <ele>149.8</ele>
        <time>2017-10-12T11:03:53Z</time>
      </trkpt>
      <trkpt lat="43.65941" lon="3.80774">
        <ele>148.9</ele>
        <time>2017-10-12T11:03:55Z</time>
      </trkpt>
      <trkpt lat="43.65951" lon="3.80782">
        <ele>148.2</ele>
        <time>2017-10-12T11:03:57Z</time>
      </trkpt>
      <trkpt lat="43.6596" lon="3.80789">
        <ele>147.4</ele>
        <time>2017-10-12T11:03:59Z</time>
      </trkpt>
      <trkpt lat="43.6597" lon="3.80794">
        <ele>146.9</ele>
        <time>2017-10-12T11:04:01Z</time>
      </trkpt>
      <trkpt lat="43.6598" lon="3.80801">
        <ele>146.6</ele>
        <time>2017-10-12T11:04:03Z</time>
      </trkpt>
      <trkpt lat="43.65986" lon="3.80811">
        <ele>147.1</ele>
        <time>2017-10-12T11:04:05Z</time>
      </trkpt>
      <trkpt lat="43.65988" lon="3.80821">
        <ele>146.7</ele>
        <time>2017-10-12T11:04:06Z</time>
      </trkpt>
      <trkpt lat="43.65992" lon="3.80829">
        <ele>146.6</ele>
        <time>2017-10-12T11:04:07Z</time>
      </trkpt>
      <trkpt lat="43.65999" lon="3.80836">
        <ele>146.3</ele>
        <time>2017-10-12T11:04:08Z</time>
      </trkpt>
      <trkpt lat="43.66004" lon="3.80845">
        <ele>145.6</ele>
        <time>2017-10-12T11:04:09Z</time>
      </trkpt>
      <trkpt lat="43.66007" lon="3.80855">
        <ele>144.8</ele>
        <time>2017-10-12T11:04:10Z</time>
      </trkpt>
      <trkpt lat="43.66009" lon="3.80872">
        <ele>143.2</ele>
        <time>2017-10-12T11:04:12Z</time>
      </trkpt>
      <trkpt lat="43.6601" lon="3.80883">
        <ele>142.3</ele>
        <time>2017-10-12T11:04:13Z</time>
      </trkpt>
      <trkpt lat="43.66011" lon="3.80894">
        <ele>141.6</ele>
        <time>2017-10-12T11:04:14Z</time>
      </trkpt>
      <trkpt lat="43.6601" lon="3.80904">
        <ele>141</ele>
        <time>2017-10-12T11:04:15Z</time>
      </trkpt>
      <trkpt lat="43.66011" lon="3.80915">
        <ele>140.3</ele>
        <time>2017-10-12T11:04:16Z</time>
      </trkpt>
      <trkpt lat="43.6601" lon="3.80926">
        <ele>139.2</ele>
        <time>2017-10-12T11:04:17Z</time>
      </trkpt>
      <trkpt lat="43.66009" lon="3.80937">
        <ele>138.3</ele>
        <time>2017-10-12T11:04:18Z</time>
      </trkpt>
      <trkpt lat="43.66007" lon="3.80948">
        <ele>137.3</ele>
        <time>2017-10-12T11:04:19Z</time>
      </trkpt>
      <trkpt lat="43.66006" lon="3.80958">
        <ele>136.5</ele>
        <time>2017-10-12T11:04:20Z</time>
      </trkpt>
      <trkpt lat="43.66005" lon="3.80968">
        <ele>136</ele>
        <time>2017-10-12T11:04:21Z</time>
      </trkpt>
      <trkpt lat="43.66004" lon="3.8098">
        <ele>135.5</ele>
        <time>2017-10-12T11:04:22Z</time>
      </trkpt>
      <trkpt lat="43.66003" lon="3.8099">
        <ele>135.1</ele>
        <time>2017-10-12T11:04:23Z</time>
      </trkpt>
      <trkpt lat="43.65999" lon="3.81009">
        <ele>134.3</ele>
        <time>2017-10-12T11:04:25Z</time>
      </trkpt>
      <trkpt lat="43.65996" lon="3.81027">
        <ele>133.3</ele>
        <time>2017-10-12T11:04:27Z</time>
      </trkpt>
      <trkpt lat="43.65994" lon="3.81043">
        <ele>132.1</ele>
        <time>2017-10-12T11:04:29Z</time>
      </trkpt>
      <trkpt lat="43.65992" lon="3.81058">
        <ele>130.9</ele>
        <time>2017-10-12T11:04:31Z</time>
      </trkpt>
      <trkpt lat="43.6599" lon="3.81072">
        <ele>129.7</ele>
        <time>2017-10-12T11:04:33Z</time>
      </trkpt>
      <trkpt lat="43.65988" lon="3.81086">
        <ele>129.1</ele>
        <time>2017-10-12T11:04:35Z</time>
      </trkpt>
      <trkpt lat="43.65984" lon="3.81102">
        <ele>129.1</ele>
        <time>2017-10-12T11:04:37Z</time>
      </trkpt>
      <trkpt lat="43.65979" lon="3.81117">
        <ele>129.2</ele>
        <time>2017-10-12T11:04:39Z</time>
      </trkpt>
      <trkpt lat="43.65975" lon="3.81131">
        <ele>129.4</ele>
        <time>2017-10-12T11:04:41Z</time>
      </trkpt>
      <trkpt lat="43.65969" lon="3.81144">
        <ele>129</ele>
        <time>2017-10-12T11:04:43Z</time>
      </trkpt>
      <trkpt lat="43.6596" lon="3.81155">
        <ele>129</ele>
        <time>2017-10-12T11:04:45Z</time>
      </trkpt>
      <trkpt lat="43.6595" lon="3.81162">
        <ele>128.9</ele>
        <time>2017-10-12T11:04:47Z</time>
      </trkpt>
      <trkpt lat="43.65939" lon="3.8117">
        <ele>129</ele>
        <time>2017-10-12T11:04:49Z</time>
      </trkpt>
      <trkpt lat="43.65931" lon="3.81183">
        <ele>129.1</ele>
        <time>2017-10-12T11:04:51Z</time>
      </trkpt>
      <trkpt lat="43.65925" lon="3.81197">
        <ele>129.1</ele>
        <time>2017-10-12T11:04:53Z</time>
      </trkpt>
      <trkpt lat="43.65923" lon="3.81215">
        <ele>128.7</ele>
        <time>2017-10-12T11:04:55Z</time>
      </trkpt>
      <trkpt lat="43.65925" lon="3.8123">
        <ele>128.6</ele>
        <time>2017-10-12T11:04:57Z</time>
      </trkpt>
      <trkpt lat="43.65923" lon="3.81242">
        <ele>128.1</ele>
        <time>2017-10-12T11:04:59Z</time>
      </trkpt>
      <trkpt lat="43.65921" lon="3.81252">
        <ele>128</ele>
        <time>2017-10-12T11:05:01Z</time>
      </trkpt>
      <trkpt lat="43.65919" lon="3.81263">
        <ele>127.2</ele>
        <time>2017-10-12T11:05:03Z</time>
      </trkpt>
      <trkpt lat="43.65917" lon="3.81275">
        <ele>127</ele>
        <time>2017-10-12T11:05:05Z</time>
      </trkpt>
      <trkpt lat="43.65916" lon="3.81287">
        <ele>126.9</ele>
        <time>2017-10-12T11:05:07Z</time>
      </trkpt>
      <trkpt lat="43.65915" lon="3.81297">
        <ele>126.2</ele>
        <time>2017-10-12T11:05:09Z</time>
      </trkpt>
      <trkpt lat="43.65917" lon="3.81308">
        <ele>126.1</ele>
        <time>2017-10-12T11:05:11Z</time>
      </trkpt>
      <trkpt lat="43.65921" lon="3.8132">
        <ele>125.9</ele>
        <time>2017-10-12T11:05:14Z</time>
      </trkpt>
      <trkpt lat="43.65925" lon="3.8133">
        <ele>125.8</ele>
        <time>2017-10-12T11:05:16Z</time>
      </trkpt>
      <trkpt lat="43.6593" lon="3.81342">
        <ele>125.6</ele>
        <time>2017-10-12T11:05:19Z</time>
      </trkpt>
      <trkpt lat="43.65934" lon="3.81351">
        <ele>124.9</ele>
        <time>2017-10-12T11:05:21Z</time>
      </trkpt>
      <trkpt lat="43.65937" lon="3.81364">
        <ele>124</ele>
        <time>2017-10-12T11:05:23Z</time>
      </trkpt>
      <trkpt lat="43.65941" lon="3.81374">
        <ele>123.9</ele>
        <time>2017-10-12T11:05:25Z</time>
      </trkpt>
      <trkpt lat="43.65944" lon="3.81383">
        <ele>123.8</ele>
        <time>2017-10-12T11:05:27Z</time>
      </trkpt>
      <trkpt lat="43.65946" lon="3.81393">
        <ele>123.7</ele>
        <time>2017-10-12T11:05:29Z</time>
      </trkpt>
      <trkpt lat="43.65952" lon="3.81404">
        <ele>123.7</ele>
        <time>2017-10-12T11:05:32Z</time>
      </trkpt>
      <trkpt lat="43.65959" lon="3.81406">
        <ele>123.7</ele>
        <time>2017-10-12T11:05:35Z</time>
      </trkpt>
      <trkpt lat="43.65967" lon="3.81403">
        <ele>123.8</ele>
        <time>2017-10-12T11:05:38Z</time>
      </trkpt>
      <trkpt lat="43.65975" lon="3.814">
        <ele>123.8</ele>
        <time>2017-10-12T11:05:41Z</time>
      </trkpt>
      <trkpt lat="43.65982" lon="3.81397">
        <ele>123.9</ele>
        <time>2017-10-12T11:05:44Z</time>
      </trkpt>
      <trkpt lat="43.65992" lon="3.81392">
        <ele>124</ele>
        <time>2017-10-12T11:05:47Z</time>
      </trkpt>
      <trkpt lat="43.65999" lon="3.81389">
        <ele>124.1</ele>
        <time>2017-10-12T11:05:49Z</time>
      </trkpt>
      <trkpt lat="43.66009" lon="3.81386">
        <ele>124.3</ele>
        <time>2017-10-12T11:05:52Z</time>
      </trkpt>
      <trkpt lat="43.66018" lon="3.81385">
        <ele>124.6</ele>
        <time>2017-10-12T11:05:55Z</time>
      </trkpt>
      <trkpt lat="43.66025" lon="3.81382">
        <ele>124.8</ele>
        <time>2017-10-12T11:05:57Z</time>
      </trkpt>
      <trkpt lat="43.66033" lon="3.81379">
        <ele>125.1</ele>
        <time>2017-10-12T11:05:59Z</time>
      </trkpt>
      <trkpt lat="43.66041" lon="3.81376">
        <ele>125.3</ele>
        <time>2017-10-12T11:06:01Z</time>
      </trkpt>
      <trkpt lat="43.66048" lon="3.81373">
        <ele>125.5</ele>
        <time>2017-10-12T11:06:03Z</time>
      </trkpt>
      <trkpt lat="43.66055" lon="3.81369">
        <ele>125.7</ele>
        <time>2017-10-12T11:06:05Z</time>
      </trkpt>
      <trkpt lat="43.66064" lon="3.81364">
        <ele>126</ele>
        <time>2017-10-12T11:06:08Z</time>
      </trkpt>
      <trkpt lat="43.66075" lon="3.81359">
        <ele>126.2</ele>
        <time>2017-10-12T11:06:11Z</time>
      </trkpt>
      <trkpt lat="43.66082" lon="3.81357">
        <ele>126.4</ele>
        <time>2017-10-12T11:06:13Z</time>
      </trkpt>
      <trkpt lat="43.66089" lon="3.81353">
        <ele>126.5</ele>
        <time>2017-10-12T11:06:15Z</time>
      </trkpt>
      <trkpt lat="43.66098" lon="3.81349">
        <ele>126.6</ele>
        <time>2017-10-12T11:06:18Z</time>
      </trkpt>
      <trkpt lat="43.66107" lon="3.81345">
        <ele>126.8</ele>
        <time>2017-10-12T11:06:21Z</time>
      </trkpt>
      <trkpt lat="43.66116" lon="3.81341">
        <ele>126.9</ele>
        <time>2017-10-12T11:06:24Z</time>
      </trkpt>
      <trkpt lat="43.66125" lon="3.81335">
        <ele>127.2</ele>
        <time>2017-10-12T11:06:27Z</time>
      </trkpt>
      <trkpt lat="43.66134" lon="3.8133">
        <ele>127.5</ele>
        <time>2017-10-12T11:06:30Z</time>
      </trkpt>
      <trkpt lat="43.6614" lon="3.81336">
        <ele>127.8</ele>
        <time>2017-10-12T11:06:33Z</time>
      </trkpt>
      <trkpt lat="43.66144" lon="3.81346">
        <ele>128.5</ele>
        <time>2017-10-12T11:06:38Z</time>
      </trkpt>
      <trkpt lat="43.66147" lon="3.81357">
        <ele>129.1</ele>
        <time>2017-10-12T11:06:43Z</time>
      </trkpt>
      <trkpt lat="43.6615" lon="3.81368">
        <ele>129.7</ele>
        <time>2017-10-12T11:06:47Z</time>
      </trkpt>
      <trkpt lat="43.66156" lon="3.81378">
        <ele>130.2</ele>
        <time>2017-10-12T11:06:52Z</time>
      </trkpt>
      <trkpt lat="43.6616" lon="3.81386">
        <ele>130.4</ele>
        <time>2017-10-12T11:06:55Z</time>
      </trkpt>
      <trkpt lat="43.66164" lon="3.81395">
        <ele>130.5</ele>
        <time>2017-10-12T11:07:01Z</time>
      </trkpt>
      <trkpt lat="43.66169" lon="3.81404">
        <ele>130.6</ele>
        <time>2017-10-12T11:07:05Z</time>
      </trkpt>
      <trkpt lat="43.66172" lon="3.81414">
        <ele>130.7</ele>
        <time>2017-10-12T11:07:10Z</time>
      </trkpt>
      <trkpt lat="43.66172" lon="3.81427">
        <ele>130.6</ele>
        <time>2017-10-12T11:07:14Z</time>
      </trkpt>
      <trkpt lat="43.66172" lon="3.81438">
        <ele>130.4</ele>
        <time>2017-10-12T11:07:20Z</time>
      </trkpt>
      <trkpt lat="43.66175" lon="3.81446">
        <ele>130.3</ele>
        <time>2017-10-12T11:07:27Z</time>
      </trkpt>
      <trkpt lat="43.66179" lon="3.81456">
        <ele>130.6</ele>
        <time>2017-10-12T11:07:31Z</time>
      </trkpt>
      <trkpt lat="43.66184" lon="3.81466">
        <ele>131.2</ele>
        <time>2017-10-12T11:07:37Z</time>
      </trkpt>
      <trkpt lat="43.66189" lon="3.81475">
        <ele>131.9</ele>
        <time>2017-10-12T11:07:42Z</time>
      </trkpt>
      <trkpt lat="43.66192" lon="3.81486">
        <ele>132.6</ele>
        <time>2017-10-12T11:07:46Z</time>
      </trkpt>
      <trkpt lat="43.66194" lon="3.81498">
        <ele>133.9</ele>
        <time>2017-10-12T11:07:52Z</time>
      </trkpt>
      <trkpt lat="43.66199" lon="3.81506">
        <ele>135.7</ele>
        <time>2017-10-12T11:07:59Z</time>
      </trkpt>
      <trkpt lat="43.66204" lon="3.81515">
        <ele>137</ele>
        <time>2017-10-12T11:08:04Z</time>
      </trkpt>
      <trkpt lat="43.66208" lon="3.81522">
        <ele>138.4</ele>
        <time>2017-10-12T11:08:11Z</time>
      </trkpt>
      <trkpt lat="43.66211" lon="3.8153">
        <ele>139.4</ele>
        <time>2017-10-12T11:08:15Z</time>
      </trkpt>
      <trkpt lat="43.66212" lon="3.81541">
        <ele>140.3</ele>
        <time>2017-10-12T11:08:19Z</time>
      </trkpt>
      <trkpt lat="43.6621" lon="3.81551">
        <ele>140.8</ele>
        <time>2017-10-12T11:08:22Z</time>
      </trkpt>
      <trkpt lat="43.66215" lon="3.81562">
        <ele>141.8</ele>
        <time>2017-10-12T11:08:28Z</time>
      </trkpt>
      <trkpt lat="43.6622" lon="3.81571">
        <ele>142.7</ele>
        <time>2017-10-12T11:08:33Z</time>
      </trkpt>
      <trkpt lat="43.66221" lon="3.81582">
        <ele>143.3</ele>
        <time>2017-10-12T11:08:37Z</time>
      </trkpt>
      <trkpt lat="43.66222" lon="3.81593">
        <ele>143.7</ele>
        <time>2017-10-12T11:08:41Z</time>
      </trkpt>
      <trkpt lat="43.66224" lon="3.81603">
        <ele>143.9</ele>
        <time>2017-10-12T11:08:44Z</time>
      </trkpt>
      <trkpt lat="43.66228" lon="3.81612">
        <ele>144.2</ele>
        <time>2017-10-12T11:08:49Z</time>
      </trkpt>
      <trkpt lat="43.6623" lon="3.81625">
        <ele>144.6</ele>
        <time>2017-10-12T11:08:54Z</time>
      </trkpt>
      <trkpt lat="43.66231" lon="3.81637">
        <ele>145</ele>
        <time>2017-10-12T11:08:58Z</time>
      </trkpt>
      <trkpt lat="43.66231" lon="3.81647">
        <ele>145.4</ele>
        <time>2017-10-12T11:09:01Z</time>
      </trkpt>
      <trkpt lat="43.66233" lon="3.81656">
        <ele>146.1</ele>
        <time>2017-10-12T11:09:06Z</time>
      </trkpt>
      <trkpt lat="43.66233" lon="3.81668">
        <ele>146.8</ele>
        <time>2017-10-12T11:09:10Z</time>
      </trkpt>
      <trkpt lat="43.66234" lon="3.8168">
        <ele>147.6</ele>
        <time>2017-10-12T11:09:14Z</time>
      </trkpt>
      <trkpt lat="43.66236" lon="3.8169">
        <ele>148.2</ele>
        <time>2017-10-12T11:09:17Z</time>
      </trkpt>
      <trkpt lat="43.66239" lon="3.81701">
        <ele>148.8</ele>
        <time>2017-10-12T11:09:20Z</time>
      </trkpt>
      <trkpt lat="43.6624" lon="3.81711">
        <ele>149.3</ele>
        <time>2017-10-12T11:09:23Z</time>
      </trkpt>
      <trkpt lat="43.66237" lon="3.81726">
        <ele>149.8</ele>
        <time>2017-10-12T11:09:27Z</time>
      </trkpt>
      <trkpt lat="43.66234" lon="3.81737">
        <ele>150.2</ele>
        <time>2017-10-12T11:09:30Z</time>
      </trkpt>
      <trkpt lat="43.66234" lon="3.81748">
        <ele>150.4</ele>
        <time>2017-10-12T11:09:32Z</time>
      </trkpt>
      <trkpt lat="43.66235" lon="3.81758">
        <ele>150.7</ele>
        <time>2017-10-12T11:09:35Z</time>
      </trkpt>
      <trkpt lat="43.66233" lon="3.81773">
        <ele>151.5</ele>
        <time>2017-10-12T11:09:38Z</time>
      </trkpt>
      <trkpt lat="43.6623" lon="3.81784">
        <ele>151.7</ele>
        <time>2017-10-12T11:09:40Z</time>
      </trkpt>
      <trkpt lat="43.66229" lon="3.81797">
        <ele>152.9</ele>
        <time>2017-10-12T11:09:42Z</time>
      </trkpt>
      <trkpt lat="43.66232" lon="3.81808">
        <ele>153</ele>
        <time>2017-10-12T11:09:44Z</time>
      </trkpt>
      <trkpt lat="43.66233" lon="3.81821">
        <ele>153.1</ele>
        <time>2017-10-12T11:09:46Z</time>
      </trkpt>
      <trkpt lat="43.6623" lon="3.8183">
        <ele>153.1</ele>
        <time>2017-10-12T11:09:49Z</time>
      </trkpt>
      <trkpt lat="43.66229" lon="3.81844">
        <ele>153.1</ele>
        <time>2017-10-12T11:09:52Z</time>
      </trkpt>
      <trkpt lat="43.66231" lon="3.81857">
        <ele>152.5</ele>
        <time>2017-10-12T11:09:54Z</time>
      </trkpt>
      <trkpt lat="43.66231" lon="3.81869">
        <ele>152.1</ele>
        <time>2017-10-12T11:09:56Z</time>
      </trkpt>
      <trkpt lat="43.6623" lon="3.81883">
        <ele>152</ele>
        <time>2017-10-12T11:09:58Z</time>
      </trkpt>
      <trkpt lat="43.66227" lon="3.819">
        <ele>151</ele>
        <time>2017-10-12T11:10:00Z</time>
      </trkpt>
      <trkpt lat="43.66226" lon="3.81916">
        <ele>150.2</ele>
        <time>2017-10-12T11:10:02Z</time>
      </trkpt>
      <trkpt lat="43.66224" lon="3.81934">
        <ele>149.8</ele>
        <time>2017-10-12T11:10:04Z</time>
      </trkpt>
      <trkpt lat="43.66222" lon="3.81946">
        <ele>150.2</ele>
        <time>2017-10-12T11:10:06Z</time>
      </trkpt>
      <trkpt lat="43.66218" lon="3.8196">
        <ele>150.6</ele>
        <time>2017-10-12T11:10:08Z</time>
      </trkpt>
      <trkpt lat="43.66215" lon="3.8197">
        <ele>150.6</ele>
        <time>2017-10-12T11:10:09Z</time>
      </trkpt>
      <trkpt lat="43.66216" lon="3.81981">
        <ele>150.6</ele>
        <time>2017-10-12T11:10:11Z</time>
      </trkpt>
      <trkpt lat="43.66223" lon="3.81986">
        <ele>150.7</ele>
        <time>2017-10-12T11:10:14Z</time>
      </trkpt>
      <trkpt lat="43.6623" lon="3.8199">
        <ele>151</ele>
        <time>2017-10-12T11:10:17Z</time>
      </trkpt>
      <trkpt lat="43.66237" lon="3.81998">
        <ele>151.2</ele>
        <time>2017-10-12T11:10:20Z</time>
      </trkpt>
      <trkpt lat="43.66242" lon="3.82009">
        <ele>151.4</ele>
        <time>2017-10-12T11:10:24Z</time>
      </trkpt>
      <trkpt lat="43.66248" lon="3.82016">
        <ele>151.7</ele>
        <time>2017-10-12T11:10:27Z</time>
      </trkpt>
      <trkpt lat="43.66253" lon="3.82028">
        <ele>152.3</ele>
        <time>2017-10-12T11:10:30Z</time>
      </trkpt>
      <trkpt lat="43.66257" lon="3.82041">
        <ele>152.2</ele>
        <time>2017-10-12T11:10:32Z</time>
      </trkpt>
      <trkpt lat="43.66266" lon="3.82052">
        <ele>152.8</ele>
        <time>2017-10-12T11:10:34Z</time>
      </trkpt>
      <trkpt lat="43.66271" lon="3.82065">
        <ele>153.1</ele>
        <time>2017-10-12T11:10:36Z</time>
      </trkpt>
      <trkpt lat="43.66275" lon="3.82074">
        <ele>153.3</ele>
        <time>2017-10-12T11:10:39Z</time>
      </trkpt>
      <trkpt lat="43.66279" lon="3.82083">
        <ele>153.9</ele>
        <time>2017-10-12T11:10:43Z</time>
      </trkpt>
      <trkpt lat="43.66283" lon="3.82095">
        <ele>155.4</ele>
        <time>2017-10-12T11:10:46Z</time>
      </trkpt>
      <trkpt lat="43.66286" lon="3.82105">
        <ele>156.8</ele>
        <time>2017-10-12T11:10:48Z</time>
      </trkpt>
      <trkpt lat="43.66292" lon="3.82117">
        <ele>157.5</ele>
        <time>2017-10-12T11:10:50Z</time>
      </trkpt>
      <trkpt lat="43.66296" lon="3.82126">
        <ele>157.7</ele>
        <time>2017-10-12T11:10:52Z</time>
      </trkpt>
      <trkpt lat="43.663" lon="3.82135">
        <ele>157.9</ele>
        <time>2017-10-12T11:10:54Z</time>
      </trkpt>
      <trkpt lat="43.66308" lon="3.82143">
        <ele>158.2</ele>
        <time>2017-10-12T11:10:57Z</time>
      </trkpt>
      <trkpt lat="43.66313" lon="3.82155">
        <ele>158.3</ele>
        <time>2017-10-12T11:11:01Z</time>
      </trkpt>
      <trkpt lat="43.66317" lon="3.82166">
        <ele>158.3</ele>
        <time>2017-10-12T11:11:04Z</time>
      </trkpt>
      <trkpt lat="43.66318" lon="3.82176">
        <ele>158.2</ele>
        <time>2017-10-12T11:11:06Z</time>
      </trkpt>
      <trkpt lat="43.66322" lon="3.82191">
        <ele>158</ele>
        <time>2017-10-12T11:11:09Z</time>
      </trkpt>
      <trkpt lat="43.66324" lon="3.82203">
        <ele>157.3</ele>
        <time>2017-10-12T11:11:11Z</time>
      </trkpt>
      <trkpt lat="43.66326" lon="3.82219">
        <ele>156.7</ele>
        <time>2017-10-12T11:11:13Z</time>
      </trkpt>
      <trkpt lat="43.66328" lon="3.82232">
        <ele>156.3</ele>
        <time>2017-10-12T11:11:15Z</time>
      </trkpt>
      <trkpt lat="43.66329" lon="3.82248">
        <ele>155.4</ele>
        <time>2017-10-12T11:11:17Z</time>
      </trkpt>
      <trkpt lat="43.66331" lon="3.82264">
        <ele>154.6</ele>
        <time>2017-10-12T11:11:19Z</time>
      </trkpt>
      <trkpt lat="43.66335" lon="3.82281">
        <ele>152.3</ele>
        <time>2017-10-12T11:11:21Z</time>
      </trkpt>
      <trkpt lat="43.66339" lon="3.8229">
        <ele>151.4</ele>
        <time>2017-10-12T11:11:22Z</time>
      </trkpt>
      <trkpt lat="43.66344" lon="3.82305">
        <ele>150</ele>
        <time>2017-10-12T11:11:24Z</time>
      </trkpt>
      <trkpt lat="43.66349" lon="3.82313">
        <ele>149.8</ele>
        <time>2017-10-12T11:11:26Z</time>
      </trkpt>
      <trkpt lat="43.66355" lon="3.82319">
        <ele>149.8</ele>
        <time>2017-10-12T11:11:29Z</time>
      </trkpt>
      <trkpt lat="43.6636" lon="3.82329">
        <ele>149.7</ele>
        <time>2017-10-12T11:11:32Z</time>
      </trkpt>
      <trkpt lat="43.66368" lon="3.82338">
        <ele>149.7</ele>
        <time>2017-10-12T11:11:35Z</time>
      </trkpt>
      <trkpt lat="43.6637" lon="3.82349">
        <ele>149.9</ele>
        <time>2017-10-12T11:11:37Z</time>
      </trkpt>
      <trkpt lat="43.66374" lon="3.82359">
        <ele>149.8</ele>
        <time>2017-10-12T11:11:39Z</time>
      </trkpt>
      <trkpt lat="43.66379" lon="3.82369">
        <ele>149.8</ele>
        <time>2017-10-12T11:11:42Z</time>
      </trkpt>
      <trkpt lat="43.66374" lon="3.82381">
        <ele>149.7</ele>
        <time>2017-10-12T11:11:44Z</time>
      </trkpt>
      <trkpt lat="43.66369" lon="3.82392">
        <ele>148.6</ele>
        <time>2017-10-12T11:11:46Z</time>
      </trkpt>
      <trkpt lat="43.66359" lon="3.82404">
        <ele>146.4</ele>
        <time>2017-10-12T11:11:48Z</time>
      </trkpt>
      <trkpt lat="43.66347" lon="3.82417">
        <ele>144.6</ele>
        <time>2017-10-12T11:11:50Z</time>
      </trkpt>
      <trkpt lat="43.66338" lon="3.82422">
        <ele>143.4</ele>
        <time>2017-10-12T11:11:51Z</time>
      </trkpt>
      <trkpt lat="43.6633" lon="3.82431">
        <ele>142.6</ele>
        <time>2017-10-12T11:11:52Z</time>
      </trkpt>
      <trkpt lat="43.66324" lon="3.82441">
        <ele>142.1</ele>
        <time>2017-10-12T11:11:53Z</time>
      </trkpt>
      <trkpt lat="43.66318" lon="3.82448">
        <ele>141.6</ele>
        <time>2017-10-12T11:11:54Z</time>
      </trkpt>
      <trkpt lat="43.66312" lon="3.8246">
        <ele>141.7</ele>
        <time>2017-10-12T11:11:56Z</time>
      </trkpt>
      <trkpt lat="43.6631" lon="3.82475">
        <ele>142.6</ele>
        <time>2017-10-12T11:11:58Z</time>
      </trkpt>
      <trkpt lat="43.6631" lon="3.82487">
        <ele>143</ele>
        <time>2017-10-12T11:12:00Z</time>
      </trkpt>
      <trkpt lat="43.66308" lon="3.82498">
        <ele>143.3</ele>
        <time>2017-10-12T11:12:02Z</time>
      </trkpt>
      <trkpt lat="43.6631" lon="3.82509">
        <ele>143.5</ele>
        <time>2017-10-12T11:12:05Z</time>
      </trkpt>
      <trkpt lat="43.6631" lon="3.82522">
        <ele>143.7</ele>
        <time>2017-10-12T11:12:08Z</time>
      </trkpt>
      <trkpt lat="43.66312" lon="3.82533">
        <ele>143.7</ele>
        <time>2017-10-12T11:12:15Z</time>
      </trkpt>
      <trkpt lat="43.66313" lon="3.82544">
        <ele>144.1</ele>
        <time>2017-10-12T11:12:20Z</time>
      </trkpt>
      <trkpt lat="43.6631" lon="3.82555">
        <ele>144.4</ele>
        <time>2017-10-12T11:12:24Z</time>
      </trkpt>
      <trkpt lat="43.66303" lon="3.82564">
        <ele>144.7</ele>
        <time>2017-10-12T11:12:27Z</time>
      </trkpt>
      <trkpt lat="43.66296" lon="3.82571">
        <ele>145.2</ele>
        <time>2017-10-12T11:12:29Z</time>
      </trkpt>
      <trkpt lat="43.66288" lon="3.82578">
        <ele>145.8</ele>
        <time>2017-10-12T11:12:31Z</time>
      </trkpt>
      <trkpt lat="43.66278" lon="3.82583">
        <ele>146.2</ele>
        <time>2017-10-12T11:12:33Z</time>
      </trkpt>
      <trkpt lat="43.66266" lon="3.82588">
        <ele>146.1</ele>
        <time>2017-10-12T11:12:35Z</time>
      </trkpt>
      <trkpt lat="43.66254" lon="3.82594">
        <ele>146</ele>
        <time>2017-10-12T11:12:37Z</time>
      </trkpt>
      <trkpt lat="43.66241" lon="3.82603">
        <ele>145.7</ele>
        <time>2017-10-12T11:12:39Z</time>
      </trkpt>
      <trkpt lat="43.66234" lon="3.82608">
        <ele>145.9</ele>
        <time>2017-10-12T11:12:40Z</time>
      </trkpt>
      <trkpt lat="43.66229" lon="3.82616">
        <ele>146.1</ele>
        <time>2017-10-12T11:12:41Z</time>
      </trkpt>
      <trkpt lat="43.66224" lon="3.82623">
        <ele>146.2</ele>
        <time>2017-10-12T11:12:42Z</time>
      </trkpt>
      <trkpt lat="43.6622" lon="3.82632">
        <ele>146.1</ele>
        <time>2017-10-12T11:12:43Z</time>
      </trkpt>
      <trkpt lat="43.66214" lon="3.82648">
        <ele>146.3</ele>
        <time>2017-10-12T11:12:45Z</time>
      </trkpt>
      <trkpt lat="43.66209" lon="3.82659">
        <ele>146</ele>
        <time>2017-10-12T11:12:47Z</time>
      </trkpt>
      <trkpt lat="43.66204" lon="3.8267">
        <ele>145.8</ele>
        <time>2017-10-12T11:12:49Z</time>
      </trkpt>
      <trkpt lat="43.662" lon="3.8268">
        <ele>145.8</ele>
        <time>2017-10-12T11:12:51Z</time>
      </trkpt>
      <trkpt lat="43.66194" lon="3.82693">
        <ele>145.8</ele>
        <time>2017-10-12T11:12:54Z</time>
      </trkpt>
      <trkpt lat="43.6619" lon="3.82703">
        <ele>145.8</ele>
        <time>2017-10-12T11:12:57Z</time>
      </trkpt>
      <trkpt lat="43.66182" lon="3.82708">
        <ele>145.8</ele>
        <time>2017-10-12T11:13:02Z</time>
      </trkpt>
      <trkpt lat="43.66175" lon="3.82706">
        <ele>145.7</ele>
        <time>2017-10-12T11:13:04Z</time>
      </trkpt>
      <trkpt lat="43.66168" lon="3.827">
        <ele>145.2</ele>
        <time>2017-10-12T11:13:06Z</time>
      </trkpt>
      <trkpt lat="43.66158" lon="3.82693">
        <ele>144.2</ele>
        <time>2017-10-12T11:13:08Z</time>
      </trkpt>
      <trkpt lat="43.66144" lon="3.8269">
        <ele>143.2</ele>
        <time>2017-10-12T11:13:10Z</time>
      </trkpt>
      <trkpt lat="43.66137" lon="3.82691">
        <ele>142.4</ele>
        <time>2017-10-12T11:13:11Z</time>
      </trkpt>
      <trkpt lat="43.66129" lon="3.82691">
        <ele>141.7</ele>
        <time>2017-10-12T11:13:12Z</time>
      </trkpt>
      <trkpt lat="43.66122" lon="3.82692">
        <ele>141.2</ele>
        <time>2017-10-12T11:13:13Z</time>
      </trkpt>
      <trkpt lat="43.66114" lon="3.82691">
        <ele>141.5</ele>
        <time>2017-10-12T11:13:14Z</time>
      </trkpt>
      <trkpt lat="43.66108" lon="3.82687">
        <ele>141.6</ele>
        <time>2017-10-12T11:13:15Z</time>
      </trkpt>
      <trkpt lat="43.66101" lon="3.82681">
        <ele>141.7</ele>
        <time>2017-10-12T11:13:16Z</time>
      </trkpt>
      <trkpt lat="43.66093" lon="3.82681">
        <ele>141.8</ele>
        <time>2017-10-12T11:13:17Z</time>
      </trkpt>
      <trkpt lat="43.66082" lon="3.82694">
        <ele>142.8</ele>
        <time>2017-10-12T11:13:19Z</time>
      </trkpt>
      <trkpt lat="43.6607" lon="3.82696">
        <ele>143</ele>
        <time>2017-10-12T11:13:21Z</time>
      </trkpt>
      <trkpt lat="43.66065" lon="3.82689">
        <ele>142.9</ele>
        <time>2017-10-12T11:13:22Z</time>
      </trkpt>
      <trkpt lat="43.66058" lon="3.82683">
        <ele>142.6</ele>
        <time>2017-10-12T11:13:23Z</time>
      </trkpt>
      <trkpt lat="43.66051" lon="3.82678">
        <ele>142.1</ele>
        <time>2017-10-12T11:13:24Z</time>
      </trkpt>
      <trkpt lat="43.66039" lon="3.82671">
        <ele>141.2</ele>
        <time>2017-10-12T11:13:26Z</time>
      </trkpt>
      <trkpt lat="43.66028" lon="3.82672">
        <ele>140.1</ele>
        <time>2017-10-12T11:13:28Z</time>
      </trkpt>
      <trkpt lat="43.66023" lon="3.82684">
        <ele>139.2</ele>
        <time>2017-10-12T11:13:30Z</time>
      </trkpt>
      <trkpt lat="43.6602" lon="3.82696">
        <ele>138.7</ele>
        <time>2017-10-12T11:13:32Z</time>
      </trkpt>
      <trkpt lat="43.66015" lon="3.82708">
        <ele>138.5</ele>
        <time>2017-10-12T11:13:34Z</time>
      </trkpt>
      <trkpt lat="43.66012" lon="3.82718">
        <ele>138.6</ele>
        <time>2017-10-12T11:13:36Z</time>
      </trkpt>
      <trkpt lat="43.66007" lon="3.82728">
        <ele>138.4</ele>
        <time>2017-10-12T11:13:38Z</time>
      </trkpt>
      <trkpt lat="43.66002" lon="3.82737">
        <ele>138.1</ele>
        <time>2017-10-12T11:13:40Z</time>
      </trkpt>
      <trkpt lat="43.65997" lon="3.82746">
        <ele>137.9</ele>
        <time>2017-10-12T11:13:42Z</time>
      </trkpt>
      <trkpt lat="43.65992" lon="3.82756">
        <ele>137.7</ele>
        <time>2017-10-12T11:13:44Z</time>
      </trkpt>
      <trkpt lat="43.65988" lon="3.82765">
        <ele>137.7</ele>
        <time>2017-10-12T11:13:46Z</time>
      </trkpt>
      <trkpt lat="43.65984" lon="3.82775">
        <ele>137.7</ele>
        <time>2017-10-12T11:13:48Z</time>
      </trkpt>
      <trkpt lat="43.65979" lon="3.82783">
        <ele>137.8</ele>
        <time>2017-10-12T11:13:50Z</time>
      </trkpt>
      <trkpt lat="43.65975" lon="3.82793">
        <ele>138.3</ele>
        <time>2017-10-12T11:13:52Z</time>
      </trkpt>
      <trkpt lat="43.65973" lon="3.82802">
        <ele>138.7</ele>
        <time>2017-10-12T11:13:54Z</time>
      </trkpt>
      <trkpt lat="43.6597" lon="3.82812">
        <ele>139.2</ele>
        <time>2017-10-12T11:13:56Z</time>
      </trkpt>
      <trkpt lat="43.65965" lon="3.82824">
        <ele>140.4</ele>
        <time>2017-10-12T11:13:59Z</time>
      </trkpt>
      <trkpt lat="43.6596" lon="3.82835">
        <ele>140.7</ele>
        <time>2017-10-12T11:14:01Z</time>
      </trkpt>
      <trkpt lat="43.65955" lon="3.82845">
        <ele>140.7</ele>
        <time>2017-10-12T11:14:03Z</time>
      </trkpt>
      <trkpt lat="43.65951" lon="3.82856">
        <ele>140.9</ele>
        <time>2017-10-12T11:14:05Z</time>
      </trkpt>
      <trkpt lat="43.65947" lon="3.82867">
        <ele>140.8</ele>
        <time>2017-10-12T11:14:07Z</time>
      </trkpt>
      <trkpt lat="43.6594" lon="3.82877">
        <ele>140.6</ele>
        <time>2017-10-12T11:14:09Z</time>
      </trkpt>
      <trkpt lat="43.65929" lon="3.82882">
        <ele>140.9</ele>
        <time>2017-10-12T11:14:11Z</time>
      </trkpt>
      <trkpt lat="43.65916" lon="3.82886">
        <ele>141.5</ele>
        <time>2017-10-12T11:14:13Z</time>
      </trkpt>
      <trkpt lat="43.65902" lon="3.82889">
        <ele>141.5</ele>
        <time>2017-10-12T11:14:15Z</time>
      </trkpt>
      <trkpt lat="43.65889" lon="3.82896">
        <ele>141.1</ele>
        <time>2017-10-12T11:14:17Z</time>
      </trkpt>
      <trkpt lat="43.65881" lon="3.82899">
        <ele>140.8</ele>
        <time>2017-10-12T11:14:18Z</time>
      </trkpt>
      <trkpt lat="43.65873" lon="3.82902">
        <ele>140.6</ele>
        <time>2017-10-12T11:14:19Z</time>
      </trkpt>
      <trkpt lat="43.65865" lon="3.82905">
        <ele>140.4</ele>
        <time>2017-10-12T11:14:20Z</time>
      </trkpt>
      <trkpt lat="43.65854" lon="3.82915">
        <ele>140.1</ele>
        <time>2017-10-12T11:14:22Z</time>
      </trkpt>
      <trkpt lat="43.65845" lon="3.8293">
        <ele>139.7</ele>
        <time>2017-10-12T11:14:24Z</time>
      </trkpt>
      <trkpt lat="43.65841" lon="3.82947">
        <ele>139.7</ele>
        <time>2017-10-12T11:14:26Z</time>
      </trkpt>
      <trkpt lat="43.6584" lon="3.82965">
        <ele>139.5</ele>
        <time>2017-10-12T11:14:28Z</time>
      </trkpt>
      <trkpt lat="43.65841" lon="3.82982">
        <ele>140</ele>
        <time>2017-10-12T11:14:30Z</time>
      </trkpt>
      <trkpt lat="43.65838" lon="3.82992">
        <ele>140</ele>
        <time>2017-10-12T11:14:32Z</time>
      </trkpt>
      <trkpt lat="43.65834" lon="3.83">
        <ele>140.1</ele>
        <time>2017-10-12T11:14:35Z</time>
      </trkpt>
      <trkpt lat="43.65827" lon="3.83007">
        <ele>140.2</ele>
        <time>2017-10-12T11:14:38Z</time>
      </trkpt>
      <trkpt lat="43.65823" lon="3.83017">
        <ele>140.3</ele>
        <time>2017-10-12T11:14:40Z</time>
      </trkpt>
      <trkpt lat="43.65816" lon="3.83024">
        <ele>141</ele>
        <time>2017-10-12T11:14:42Z</time>
      </trkpt>
      <trkpt lat="43.65808" lon="3.83031">
        <ele>141.8</ele>
        <time>2017-10-12T11:14:44Z</time>
      </trkpt>
      <trkpt lat="43.65801" lon="3.83038">
        <ele>143</ele>
        <time>2017-10-12T11:14:46Z</time>
      </trkpt>
      <trkpt lat="43.65793" lon="3.83045">
        <ele>143.3</ele>
        <time>2017-10-12T11:14:48Z</time>
      </trkpt>
      <trkpt lat="43.65785" lon="3.83042">
        <ele>143.2</ele>
        <time>2017-10-12T11:14:50Z</time>
      </trkpt>
      <trkpt lat="43.65779" lon="3.83035">
        <ele>143.2</ele>
        <time>2017-10-12T11:14:52Z</time>
      </trkpt>
      <trkpt lat="43.65776" lon="3.83022">
        <ele>143.1</ele>
        <time>2017-10-12T11:14:54Z</time>
      </trkpt>
      <trkpt lat="43.65771" lon="3.8301">
        <ele>143.1</ele>
        <time>2017-10-12T11:14:56Z</time>
      </trkpt>
      <trkpt lat="43.65768" lon="3.82999">
        <ele>142.2</ele>
        <time>2017-10-12T11:14:58Z</time>
      </trkpt>
      <trkpt lat="43.65764" lon="3.82988">
        <ele>140.8</ele>
        <time>2017-10-12T11:15:00Z</time>
      </trkpt>
      <trkpt lat="43.6576" lon="3.82978">
        <ele>140.7</ele>
        <time>2017-10-12T11:15:02Z</time>
      </trkpt>
      <trkpt lat="43.65757" lon="3.82969">
        <ele>140.5</ele>
        <time>2017-10-12T11:15:04Z</time>
      </trkpt>
      <trkpt lat="43.65754" lon="3.82959">
        <ele>139.3</ele>
        <time>2017-10-12T11:15:06Z</time>
      </trkpt>
      <trkpt lat="43.65752" lon="3.8295">
        <ele>139.1</ele>
        <time>2017-10-12T11:15:08Z</time>
      </trkpt>
      <trkpt lat="43.65745" lon="3.8294">
        <ele>138.8</ele>
        <time>2017-10-12T11:15:11Z</time>
      </trkpt>
      <trkpt lat="43.65738" lon="3.82932">
        <ele>138.5</ele>
        <time>2017-10-12T11:15:14Z</time>
      </trkpt>
      <trkpt lat="43.65732" lon="3.82926">
        <ele>138.3</ele>
        <time>2017-10-12T11:15:17Z</time>
      </trkpt>
      <trkpt lat="43.65729" lon="3.82927">
        <ele>137.9</ele>
        <time>2017-10-12T11:15:24Z</time>
      </trkpt>
      <trkpt lat="43.6572" lon="3.82928">
        <ele>138.2</ele>
        <time>2017-10-12T11:15:29Z</time>
      </trkpt>
      <trkpt lat="43.65712" lon="3.82928">
        <ele>138.7</ele>
        <time>2017-10-12T11:15:34Z</time>
      </trkpt>
      <trkpt lat="43.65704" lon="3.82928">
        <ele>139.6</ele>
        <time>2017-10-12T11:15:39Z</time>
      </trkpt>
      <trkpt lat="43.65696" lon="3.82926">
        <ele>140.3</ele>
        <time>2017-10-12T11:15:42Z</time>
      </trkpt>
      <trkpt lat="43.65688" lon="3.82922">
        <ele>141.7</ele>
        <time>2017-10-12T11:15:47Z</time>
      </trkpt>
      <trkpt lat="43.65681" lon="3.82924">
        <ele>143.1</ele>
        <time>2017-10-12T11:15:51Z</time>
      </trkpt>
      <trkpt lat="43.65673" lon="3.82927">
        <ele>144.9</ele>
        <time>2017-10-12T11:15:55Z</time>
      </trkpt>
      <trkpt lat="43.65664" lon="3.82923">
        <ele>146.6</ele>
        <time>2017-10-12T11:15:59Z</time>
      </trkpt>
      <trkpt lat="43.65657" lon="3.82922">
        <ele>147.7</ele>
        <time>2017-10-12T11:16:02Z</time>
      </trkpt>
      <trkpt lat="43.65648" lon="3.82918">
        <ele>149</ele>
        <time>2017-10-12T11:16:06Z</time>
      </trkpt>
      <trkpt lat="43.6564" lon="3.82912">
        <ele>150</ele>
        <time>2017-10-12T11:16:10Z</time>
      </trkpt>
      <trkpt lat="43.65634" lon="3.82908">
        <ele>150.5</ele>
        <time>2017-10-12T11:16:13Z</time>
      </trkpt>
      <trkpt lat="43.65624" lon="3.82905">
        <ele>151.1</ele>
        <time>2017-10-12T11:16:17Z</time>
      </trkpt>
      <trkpt lat="43.65617" lon="3.82901">
        <ele>151.4</ele>
        <time>2017-10-12T11:16:20Z</time>
      </trkpt>
      <trkpt lat="43.6561" lon="3.82893">
        <ele>152.5</ele>
        <time>2017-10-12T11:16:26Z</time>
      </trkpt>
      <trkpt lat="43.65604" lon="3.82887">
        <ele>153.5</ele>
        <time>2017-10-12T11:16:31Z</time>
      </trkpt>
      <trkpt lat="43.65596" lon="3.82883">
        <ele>154.3</ele>
        <time>2017-10-12T11:16:36Z</time>
      </trkpt>
      <trkpt lat="43.65588" lon="3.82877">
        <ele>155.1</ele>
        <time>2017-10-12T11:16:45Z</time>
      </trkpt>
      <trkpt lat="43.65581" lon="3.82874">
        <ele>155.5</ele>
        <time>2017-10-12T11:16:49Z</time>
      </trkpt>
      <trkpt lat="43.65571" lon="3.82868">
        <ele>155.8</ele>
        <time>2017-10-12T11:16:53Z</time>
      </trkpt>
      <trkpt lat="43.65565" lon="3.82863">
        <ele>155.7</ele>
        <time>2017-10-12T11:16:56Z</time>
      </trkpt>
      <trkpt lat="43.65559" lon="3.82856">
        <ele>155.3</ele>
        <time>2017-10-12T11:16:59Z</time>
      </trkpt>
      <trkpt lat="43.65558" lon="3.82854">
        <ele>155</ele>
        <time>2017-10-12T11:17:06Z</time>
      </trkpt>
      <trkpt lat="43.65552" lon="3.82847">
        <ele>155.4</ele>
        <time>2017-10-12T11:17:12Z</time>
      </trkpt>
      <trkpt lat="43.65546" lon="3.8284">
        <ele>155.1</ele>
        <time>2017-10-12T11:17:18Z</time>
      </trkpt>
      <trkpt lat="43.65538" lon="3.82839">
        <ele>154.1</ele>
        <time>2017-10-12T11:17:25Z</time>
      </trkpt>
      <trkpt lat="43.6553" lon="3.82844">
        <ele>153.5</ele>
        <time>2017-10-12T11:17:32Z</time>
      </trkpt>
      <trkpt lat="43.65514" lon="3.82844">
        <ele>154.2</ele>
        <time>2017-10-12T11:17:36Z</time>
      </trkpt>
      <trkpt lat="43.65507" lon="3.82839">
        <ele>155.6</ele>
        <time>2017-10-12T11:17:41Z</time>
      </trkpt>
      <trkpt lat="43.65501" lon="3.8283">
        <ele>156.5</ele>
        <time>2017-10-12T11:17:44Z</time>
      </trkpt>
      <trkpt lat="43.65496" lon="3.82821">
        <ele>157.5</ele>
        <time>2017-10-12T11:17:48Z</time>
      </trkpt>
      <trkpt lat="43.65488" lon="3.82817">
        <ele>158.5</ele>
        <time>2017-10-12T11:17:53Z</time>
      </trkpt>
      <trkpt lat="43.65479" lon="3.82812">
        <ele>159.6</ele>
        <time>2017-10-12T11:17:58Z</time>
      </trkpt>
      <trkpt lat="43.65473" lon="3.82805">
        <ele>160.4</ele>
        <time>2017-10-12T11:18:02Z</time>
      </trkpt>
      <trkpt lat="43.65467" lon="3.82804">
        <ele>161.4</ele>
        <time>2017-10-12T11:18:09Z</time>
      </trkpt>
      <trkpt lat="43.65461" lon="3.82796">
        <ele>162.7</ele>
        <time>2017-10-12T11:18:15Z</time>
      </trkpt>
      <trkpt lat="43.65453" lon="3.82793">
        <ele>163.4</ele>
        <time>2017-10-12T11:18:19Z</time>
      </trkpt>
      <trkpt lat="43.65446" lon="3.82789">
        <ele>164.7</ele>
        <time>2017-10-12T11:18:24Z</time>
      </trkpt>
      <trkpt lat="43.65435" lon="3.82787">
        <ele>165.7</ele>
        <time>2017-10-12T11:18:27Z</time>
      </trkpt>
      <trkpt lat="43.6543" lon="3.82779">
        <ele>166.3</ele>
        <time>2017-10-12T11:18:29Z</time>
      </trkpt>
      <trkpt lat="43.65422" lon="3.82771">
        <ele>167.2</ele>
        <time>2017-10-12T11:18:32Z</time>
      </trkpt>
      <trkpt lat="43.65415" lon="3.82768">
        <ele>167.9</ele>
        <time>2017-10-12T11:18:35Z</time>
      </trkpt>
      <trkpt lat="43.65406" lon="3.82766">
        <ele>169.2</ele>
        <time>2017-10-12T11:18:40Z</time>
      </trkpt>
      <trkpt lat="43.65401" lon="3.82753">
        <ele>170</ele>
        <time>2017-10-12T11:18:43Z</time>
      </trkpt>
      <trkpt lat="43.65393" lon="3.82748">
        <ele>171.2</ele>
        <time>2017-10-12T11:18:47Z</time>
      </trkpt>
      <trkpt lat="43.65385" lon="3.82746">
        <ele>171.7</ele>
        <time>2017-10-12T11:18:49Z</time>
      </trkpt>
      <trkpt lat="43.65378" lon="3.82743">
        <ele>172.3</ele>
        <time>2017-10-12T11:18:51Z</time>
      </trkpt>
      <trkpt lat="43.6537" lon="3.82744">
        <ele>173.3</ele>
        <time>2017-10-12T11:18:55Z</time>
      </trkpt>
      <trkpt lat="43.6536" lon="3.82738">
        <ele>173.8</ele>
        <time>2017-10-12T11:18:57Z</time>
      </trkpt>
      <trkpt lat="43.6535" lon="3.82734">
        <ele>174.1</ele>
        <time>2017-10-12T11:18:59Z</time>
      </trkpt>
      <trkpt lat="43.65341" lon="3.8273">
        <ele>174.2</ele>
        <time>2017-10-12T11:19:01Z</time>
      </trkpt>
      <trkpt lat="43.65334" lon="3.82726">
        <ele>174.4</ele>
        <time>2017-10-12T11:19:03Z</time>
      </trkpt>
      <trkpt lat="43.65325" lon="3.82722">
        <ele>175.2</ele>
        <time>2017-10-12T11:19:05Z</time>
      </trkpt>
      <trkpt lat="43.65315" lon="3.82718">
        <ele>175.7</ele>
        <time>2017-10-12T11:19:08Z</time>
      </trkpt>
      <trkpt lat="43.65306" lon="3.82712">
        <ele>180.9</ele>
        <time>2017-10-12T11:19:11Z</time>
      </trkpt>
      <trkpt lat="43.65297" lon="3.82705">
        <ele>182.7</ele>
        <time>2017-10-12T11:19:13Z</time>
      </trkpt>
      <trkpt lat="43.65285" lon="3.82703">
        <ele>185.4</ele>
        <time>2017-10-12T11:19:15Z</time>
      </trkpt>
      <trkpt lat="43.65274" lon="3.82699">
        <ele>187</ele>
        <time>2017-10-12T11:19:17Z</time>
      </trkpt>
      <trkpt lat="43.65265" lon="3.82695">
        <ele>188.4</ele>
        <time>2017-10-12T11:19:19Z</time>
      </trkpt>
      <trkpt lat="43.65257" lon="3.8269">
        <ele>186.6</ele>
        <time>2017-10-12T11:19:21Z</time>
      </trkpt>
      <trkpt lat="43.65251" lon="3.82675">
        <ele>184.7</ele>
        <time>2017-10-12T11:19:23Z</time>
      </trkpt>
      <trkpt lat="43.65245" lon="3.82662">
        <ele>182.5</ele>
        <time>2017-10-12T11:19:25Z</time>
      </trkpt>
      <trkpt lat="43.65239" lon="3.82651">
        <ele>181.8</ele>
        <time>2017-10-12T11:19:27Z</time>
      </trkpt>
      <trkpt lat="43.65231" lon="3.82642">
        <ele>181.5</ele>
        <time>2017-10-12T11:19:29Z</time>
      </trkpt>
      <trkpt lat="43.65222" lon="3.82632">
        <ele>181.4</ele>
        <time>2017-10-12T11:19:31Z</time>
      </trkpt>
      <trkpt lat="43.65211" lon="3.82621">
        <ele>181.6</ele>
        <time>2017-10-12T11:19:33Z</time>
      </trkpt>
      <trkpt lat="43.65206" lon="3.82614">
        <ele>181.5</ele>
        <time>2017-10-12T11:19:34Z</time>
      </trkpt>
      <trkpt lat="43.65201" lon="3.82606">
        <ele>181.2</ele>
        <time>2017-10-12T11:19:35Z</time>
      </trkpt>
      <trkpt lat="43.65198" lon="3.82597">
        <ele>181</ele>
        <time>2017-10-12T11:19:36Z</time>
      </trkpt>
      <trkpt lat="43.65191" lon="3.82583">
        <ele>180.2</ele>
        <time>2017-10-12T11:19:38Z</time>
      </trkpt>
      <trkpt lat="43.65185" lon="3.82572">
        <ele>179</ele>
        <time>2017-10-12T11:19:40Z</time>
      </trkpt>
      <trkpt lat="43.65176" lon="3.82561">
        <ele>178.5</ele>
        <time>2017-10-12T11:19:42Z</time>
      </trkpt>
      <trkpt lat="43.65171" lon="3.82553">
        <ele>178.3</ele>
        <time>2017-10-12T11:19:43Z</time>
      </trkpt>
      <trkpt lat="43.65163" lon="3.82542">
        <ele>178.3</ele>
        <time>2017-10-12T11:19:45Z</time>
      </trkpt>
      <trkpt lat="43.65155" lon="3.8253">
        <ele>178.2</ele>
        <time>2017-10-12T11:19:47Z</time>
      </trkpt>
      <trkpt lat="43.65149" lon="3.8252">
        <ele>178.1</ele>
        <time>2017-10-12T11:19:48Z</time>
      </trkpt>
      <trkpt lat="43.65146" lon="3.82509">
        <ele>177.7</ele>
        <time>2017-10-12T11:19:50Z</time>
      </trkpt>
      <trkpt lat="43.65143" lon="3.82497">
        <ele>177.5</ele>
        <time>2017-10-12T11:19:52Z</time>
      </trkpt>
      <trkpt lat="43.65142" lon="3.82486">
        <ele>177.2</ele>
        <time>2017-10-12T11:19:54Z</time>
      </trkpt>
      <trkpt lat="43.65144" lon="3.82471">
        <ele>175.2</ele>
        <time>2017-10-12T11:19:57Z</time>
      </trkpt>
      <trkpt lat="43.65145" lon="3.82457">
        <ele>174.6</ele>
        <time>2017-10-12T11:20:00Z</time>
      </trkpt>
      <trkpt lat="43.65146" lon="3.82447">
        <ele>174.2</ele>
        <time>2017-10-12T11:20:02Z</time>
      </trkpt>
      <trkpt lat="43.65145" lon="3.82435">
        <ele>173.8</ele>
        <time>2017-10-12T11:20:04Z</time>
      </trkpt>
      <trkpt lat="43.65145" lon="3.82424">
        <ele>173.3</ele>
        <time>2017-10-12T11:20:07Z</time>
      </trkpt>
      <trkpt lat="43.65143" lon="3.82414">
        <ele>172.7</ele>
        <time>2017-10-12T11:20:10Z</time>
      </trkpt>
      <trkpt lat="43.65138" lon="3.82406">
        <ele>172.2</ele>
        <time>2017-10-12T11:20:13Z</time>
      </trkpt>
      <trkpt lat="43.65134" lon="3.82396">
        <ele>171.9</ele>
        <time>2017-10-12T11:20:16Z</time>
      </trkpt>
      <trkpt lat="43.65129" lon="3.82384">
        <ele>171.6</ele>
        <time>2017-10-12T11:20:20Z</time>
      </trkpt>
      <trkpt lat="43.65124" lon="3.82375">
        <ele>171.3</ele>
        <time>2017-10-12T11:20:23Z</time>
      </trkpt>
      <trkpt lat="43.65118" lon="3.82367">
        <ele>171</ele>
        <time>2017-10-12T11:20:27Z</time>
      </trkpt>
      <trkpt lat="43.65111" lon="3.82362">
        <ele>170.8</ele>
        <time>2017-10-12T11:20:30Z</time>
      </trkpt>
      <trkpt lat="43.65101" lon="3.82356">
        <ele>170.6</ele>
        <time>2017-10-12T11:20:33Z</time>
      </trkpt>
      <trkpt lat="43.65092" lon="3.82353">
        <ele>170.2</ele>
        <time>2017-10-12T11:20:35Z</time>
      </trkpt>
      <trkpt lat="43.65083" lon="3.82351">
        <ele>170.2</ele>
        <time>2017-10-12T11:20:38Z</time>
      </trkpt>
      <trkpt lat="43.65082" lon="3.8234">
        <ele>170.1</ele>
        <time>2017-10-12T11:20:42Z</time>
      </trkpt>
      <trkpt lat="43.6508" lon="3.8233">
        <ele>170</ele>
        <time>2017-10-12T11:20:44Z</time>
      </trkpt>
      <trkpt lat="43.65081" lon="3.82319">
        <ele>169.8</ele>
        <time>2017-10-12T11:20:46Z</time>
      </trkpt>
      <trkpt lat="43.65082" lon="3.82307">
        <ele>169.5</ele>
        <time>2017-10-12T11:20:49Z</time>
      </trkpt>
      <trkpt lat="43.65084" lon="3.82293">
        <ele>169</ele>
        <time>2017-10-12T11:20:53Z</time>
      </trkpt>
      <trkpt lat="43.65089" lon="3.82282">
        <ele>168.5</ele>
        <time>2017-10-12T11:20:56Z</time>
      </trkpt>
      <trkpt lat="43.65093" lon="3.82273">
        <ele>166.4</ele>
        <time>2017-10-12T11:20:58Z</time>
      </trkpt>
      <trkpt lat="43.65096" lon="3.82261">
        <ele>165.7</ele>
        <time>2017-10-12T11:21:01Z</time>
      </trkpt>
      <trkpt lat="43.65092" lon="3.82253">
        <ele>164.6</ele>
        <time>2017-10-12T11:21:05Z</time>
      </trkpt>
      <trkpt lat="43.65083" lon="3.82253">
        <ele>163.4</ele>
        <time>2017-10-12T11:21:09Z</time>
      </trkpt>
      <trkpt lat="43.65075" lon="3.8225">
        <ele>159.7</ele>
        <time>2017-10-12T11:21:12Z</time>
      </trkpt>
      <trkpt lat="43.65066" lon="3.82248">
        <ele>154.4</ele>
        <time>2017-10-12T11:21:14Z</time>
      </trkpt>
      <trkpt lat="43.65059" lon="3.82248">
        <ele>152.3</ele>
        <time>2017-10-12T11:21:16Z</time>
      </trkpt>
      <trkpt lat="43.65051" lon="3.82251">
        <ele>152</ele>
        <time>2017-10-12T11:21:18Z</time>
      </trkpt>
      <trkpt lat="43.65042" lon="3.82254">
        <ele>151.5</ele>
        <time>2017-10-12T11:21:21Z</time>
      </trkpt>
      <trkpt lat="43.65034" lon="3.82255">
        <ele>151</ele>
        <time>2017-10-12T11:21:24Z</time>
      </trkpt>
      <trkpt lat="43.65026" lon="3.82255">
        <ele>150.6</ele>
        <time>2017-10-12T11:21:27Z</time>
      </trkpt>
      <trkpt lat="43.65018" lon="3.82255">
        <ele>150.2</ele>
        <time>2017-10-12T11:21:31Z</time>
      </trkpt>
      <trkpt lat="43.6501" lon="3.82245">
        <ele>148.8</ele>
        <time>2017-10-12T11:21:34Z</time>
      </trkpt>
      <trkpt lat="43.65005" lon="3.82227">
        <ele>146.3</ele>
        <time>2017-10-12T11:21:36Z</time>
      </trkpt>
      <trkpt lat="43.65" lon="3.82212">
        <ele>144.6</ele>
        <time>2017-10-12T11:21:38Z</time>
      </trkpt>
      <trkpt lat="43.64988" lon="3.82202">
        <ele>143.3</ele>
        <time>2017-10-12T11:21:40Z</time>
      </trkpt>
      <trkpt lat="43.64978" lon="3.82194">
        <ele>141</ele>
        <time>2017-10-12T11:21:42Z</time>
      </trkpt>
      <trkpt lat="43.64972" lon="3.82185">
        <ele>140.5</ele>
        <time>2017-10-12T11:21:45Z</time>
      </trkpt>
      <trkpt lat="43.64967" lon="3.82194">
        <ele>139.6</ele>
        <time>2017-10-12T11:21:52Z</time>
      </trkpt>
      <trkpt lat="43.64963" lon="3.82206">
        <ele>139</ele>
        <time>2017-10-12T11:21:56Z</time>
      </trkpt>
      <trkpt lat="43.64959" lon="3.82216">
        <ele>138.4</ele>
        <time>2017-10-12T11:22:00Z</time>
      </trkpt>
      <trkpt lat="43.64951" lon="3.82226">
        <ele>137.8</ele>
        <time>2017-10-12T11:22:03Z</time>
      </trkpt>
      <trkpt lat="43.64943" lon="3.82235">
        <ele>137.3</ele>
        <time>2017-10-12T11:22:06Z</time>
      </trkpt>
      <trkpt lat="43.64938" lon="3.82245">
        <ele>136.9</ele>
        <time>2017-10-12T11:22:09Z</time>
      </trkpt>
      <trkpt lat="43.64939" lon="3.82257">
        <ele>136.2</ele>
        <time>2017-10-12T11:22:13Z</time>
      </trkpt>
      <trkpt lat="43.64939" lon="3.82268">
        <ele>135.6</ele>
        <time>2017-10-12T11:22:17Z</time>
      </trkpt>
      <trkpt lat="43.64936" lon="3.82277">
        <ele>135.2</ele>
        <time>2017-10-12T11:22:20Z</time>
      </trkpt>
      <trkpt lat="43.64931" lon="3.82286">
        <ele>134.7</ele>
        <time>2017-10-12T11:22:24Z</time>
      </trkpt>
      <trkpt lat="43.64925" lon="3.82295">
        <ele>134.3</ele>
        <time>2017-10-12T11:22:27Z</time>
      </trkpt>
      <trkpt lat="43.64921" lon="3.82305">
        <ele>133.8</ele>
        <time>2017-10-12T11:22:31Z</time>
      </trkpt>
      <trkpt lat="43.64918" lon="3.82318">
        <ele>133.5</ele>
        <time>2017-10-12T11:22:35Z</time>
      </trkpt>
      <trkpt lat="43.6492" lon="3.82329">
        <ele>133.3</ele>
        <time>2017-10-12T11:22:39Z</time>
      </trkpt>
      <trkpt lat="43.6492" lon="3.82339">
        <ele>133.2</ele>
        <time>2017-10-12T11:22:44Z</time>
      </trkpt>
      <trkpt lat="43.64919" lon="3.82352">
        <ele>133.3</ele>
        <time>2017-10-12T11:22:51Z</time>
      </trkpt>
      <trkpt lat="43.64917" lon="3.82362">
        <ele>133.7</ele>
        <time>2017-10-12T11:22:57Z</time>
      </trkpt>
      <trkpt lat="43.64918" lon="3.82372">
        <ele>134.3</ele>
        <time>2017-10-12T11:23:03Z</time>
      </trkpt>
      <trkpt lat="43.64921" lon="3.82382">
        <ele>134.7</ele>
        <time>2017-10-12T11:23:08Z</time>
      </trkpt>
      <trkpt lat="43.64924" lon="3.82393">
        <ele>135.3</ele>
        <time>2017-10-12T11:23:14Z</time>
      </trkpt>
      <trkpt lat="43.64926" lon="3.82404">
        <ele>136.1</ele>
        <time>2017-10-12T11:23:20Z</time>
      </trkpt>
      <trkpt lat="43.64931" lon="3.82414">
        <ele>136.7</ele>
        <time>2017-10-12T11:23:25Z</time>
      </trkpt>
      <trkpt lat="43.64934" lon="3.82424">
        <ele>137.9</ele>
        <time>2017-10-12T11:23:30Z</time>
      </trkpt>
      <trkpt lat="43.64938" lon="3.82433">
        <ele>139.1</ele>
        <time>2017-10-12T11:23:35Z</time>
      </trkpt>
      <trkpt lat="43.64938" lon="3.82444">
        <ele>140.7</ele>
        <time>2017-10-12T11:23:41Z</time>
      </trkpt>
      <trkpt lat="43.64932" lon="3.82451">
        <ele>142</ele>
        <time>2017-10-12T11:23:46Z</time>
      </trkpt>
      <trkpt lat="43.64926" lon="3.82458">
        <ele>142.8</ele>
        <time>2017-10-12T11:23:50Z</time>
      </trkpt>
      <trkpt lat="43.64917" lon="3.82462">
        <ele>143.6</ele>
        <time>2017-10-12T11:23:55Z</time>
      </trkpt>
      <trkpt lat="43.64909" lon="3.82462">
        <ele>144.2</ele>
        <time>2017-10-12T11:23:58Z</time>
      </trkpt>
      <trkpt lat="43.64899" lon="3.82459">
        <ele>144.9</ele>
        <time>2017-10-12T11:24:01Z</time>
      </trkpt>
      <trkpt lat="43.64888" lon="3.82459">
        <ele>145.5</ele>
        <time>2017-10-12T11:24:04Z</time>
      </trkpt>
      <trkpt lat="43.64881" lon="3.8246">
        <ele>145.8</ele>
        <time>2017-10-12T11:24:06Z</time>
      </trkpt>
      <trkpt lat="43.64873" lon="3.8246">
        <ele>147.8</ele>
        <time>2017-10-12T11:24:08Z</time>
      </trkpt>
      <trkpt lat="43.64865" lon="3.82461">
        <ele>150.5</ele>
        <time>2017-10-12T11:24:10Z</time>
      </trkpt>
      <trkpt lat="43.64855" lon="3.82461">
        <ele>152.3</ele>
        <time>2017-10-12T11:24:12Z</time>
      </trkpt>
      <trkpt lat="43.64845" lon="3.82459">
        <ele>153.4</ele>
        <time>2017-10-12T11:24:14Z</time>
      </trkpt>
      <trkpt lat="43.64834" lon="3.82457">
        <ele>153.5</ele>
        <time>2017-10-12T11:24:16Z</time>
      </trkpt>
      <trkpt lat="43.64824" lon="3.82453">
        <ele>153.1</ele>
        <time>2017-10-12T11:24:18Z</time>
      </trkpt>
      <trkpt lat="43.64815" lon="3.82447">
        <ele>153.2</ele>
        <time>2017-10-12T11:24:20Z</time>
      </trkpt>
      <trkpt lat="43.64804" lon="3.82441">
        <ele>153.4</ele>
        <time>2017-10-12T11:24:22Z</time>
      </trkpt>
      <trkpt lat="43.64793" lon="3.82435">
        <ele>153.3</ele>
        <time>2017-10-12T11:24:24Z</time>
      </trkpt>
      <trkpt lat="43.64782" lon="3.82431">
        <ele>153.1</ele>
        <time>2017-10-12T11:24:26Z</time>
      </trkpt>
      <trkpt lat="43.6477" lon="3.82426">
        <ele>152.1</ele>
        <time>2017-10-12T11:24:28Z</time>
      </trkpt>
      <trkpt lat="43.64758" lon="3.82428">
        <ele>151.5</ele>
        <time>2017-10-12T11:24:30Z</time>
      </trkpt>
      <trkpt lat="43.64746" lon="3.8243">
        <ele>151.2</ele>
        <time>2017-10-12T11:24:32Z</time>
      </trkpt>
      <trkpt lat="43.64733" lon="3.82428">
        <ele>150.8</ele>
        <time>2017-10-12T11:24:34Z</time>
      </trkpt>
      <trkpt lat="43.64722" lon="3.82426">
        <ele>150.3</ele>
        <time>2017-10-12T11:24:36Z</time>
      </trkpt>
      <trkpt lat="43.6471" lon="3.82422">
        <ele>149.8</ele>
        <time>2017-10-12T11:24:38Z</time>
      </trkpt>
      <trkpt lat="43.647" lon="3.82417">
        <ele>149.4</ele>
        <time>2017-10-12T11:24:40Z</time>
      </trkpt>
      <trkpt lat="43.64689" lon="3.82412">
        <ele>149.2</ele>
        <time>2017-10-12T11:24:42Z</time>
      </trkpt>
      <trkpt lat="43.64678" lon="3.82405">
        <ele>148.6</ele>
        <time>2017-10-12T11:24:44Z</time>
      </trkpt>
      <trkpt lat="43.64668" lon="3.82398">
        <ele>147.7</ele>
        <time>2017-10-12T11:24:46Z</time>
      </trkpt>
      <trkpt lat="43.64658" lon="3.8239">
        <ele>146.5</ele>
        <time>2017-10-12T11:24:48Z</time>
      </trkpt>
      <trkpt lat="43.64649" lon="3.82384">
        <ele>145.6</ele>
        <time>2017-10-12T11:24:50Z</time>
      </trkpt>
      <trkpt lat="43.64639" lon="3.82378">
        <ele>145.2</ele>
        <time>2017-10-12T11:24:52Z</time>
      </trkpt>
      <trkpt lat="43.64629" lon="3.82371">
        <ele>145</ele>
        <time>2017-10-12T11:24:54Z</time>
      </trkpt>
      <trkpt lat="43.64618" lon="3.82363">
        <ele>144.7</ele>
        <time>2017-10-12T11:24:56Z</time>
      </trkpt>
      <trkpt lat="43.64608" lon="3.82354">
        <ele>144.5</ele>
        <time>2017-10-12T11:24:58Z</time>
      </trkpt>
      <trkpt lat="43.64598" lon="3.82346">
        <ele>144.6</ele>
        <time>2017-10-12T11:25:00Z</time>
      </trkpt>
      <trkpt lat="43.64589" lon="3.82337">
        <ele>144.8</ele>
        <time>2017-10-12T11:25:02Z</time>
      </trkpt>
      <trkpt lat="43.64579" lon="3.82329">
        <ele>144.9</ele>
        <time>2017-10-12T11:25:04Z</time>
      </trkpt>
      <trkpt lat="43.64569" lon="3.8232">
        <ele>144.9</ele>
        <time>2017-10-12T11:25:06Z</time>
      </trkpt>
      <trkpt lat="43.64558" lon="3.82314">
        <ele>145.2</ele>
        <time>2017-10-12T11:25:08Z</time>
      </trkpt>
      <trkpt lat="43.64549" lon="3.82311">
        <ele>145.4</ele>
        <time>2017-10-12T11:25:10Z</time>
      </trkpt>
      <trkpt lat="43.64538" lon="3.82308">
        <ele>145.6</ele>
        <time>2017-10-12T11:25:12Z</time>
      </trkpt>
      <trkpt lat="43.64527" lon="3.82305">
        <ele>145.7</ele>
        <time>2017-10-12T11:25:14Z</time>
      </trkpt>
      <trkpt lat="43.64517" lon="3.823">
        <ele>145.6</ele>
        <time>2017-10-12T11:25:16Z</time>
      </trkpt>
      <trkpt lat="43.64505" lon="3.82297">
        <ele>145.9</ele>
        <time>2017-10-12T11:25:18Z</time>
      </trkpt>
      <trkpt lat="43.64495" lon="3.82288">
        <ele>145.3</ele>
        <time>2017-10-12T11:25:20Z</time>
      </trkpt>
      <trkpt lat="43.64484" lon="3.82283">
        <ele>145.1</ele>
        <time>2017-10-12T11:25:22Z</time>
      </trkpt>
      <trkpt lat="43.64474" lon="3.82291">
        <ele>144.7</ele>
        <time>2017-10-12T11:25:24Z</time>
      </trkpt>
      <trkpt lat="43.64466" lon="3.82289">
        <ele>144.7</ele>
        <time>2017-10-12T11:25:28Z</time>
      </trkpt>
      <trkpt lat="43.64461" lon="3.82279">
        <ele>144.8</ele>
        <time>2017-10-12T11:25:31Z</time>
      </trkpt>
      <trkpt lat="43.6445" lon="3.82277">
        <ele>144.9</ele>
        <time>2017-10-12T11:25:34Z</time>
      </trkpt>
      <trkpt lat="43.64444" lon="3.82272">
        <ele>145</ele>
        <time>2017-10-12T11:25:36Z</time>
      </trkpt>
      <trkpt lat="43.64437" lon="3.82266">
        <ele>145.1</ele>
        <time>2017-10-12T11:25:38Z</time>
      </trkpt>
      <trkpt lat="43.64431" lon="3.82261">
        <ele>145.2</ele>
        <time>2017-10-12T11:25:40Z</time>
      </trkpt>
      <trkpt lat="43.64426" lon="3.82255">
        <ele>146</ele>
        <time>2017-10-12T11:25:42Z</time>
      </trkpt>
      <trkpt lat="43.64421" lon="3.82245">
        <ele>147</ele>
        <time>2017-10-12T11:25:44Z</time>
      </trkpt>
      <trkpt lat="43.64413" lon="3.82244">
        <ele>147.9</ele>
        <time>2017-10-12T11:25:46Z</time>
      </trkpt>
      <trkpt lat="43.64406" lon="3.82251">
        <ele>148.4</ele>
        <time>2017-10-12T11:25:48Z</time>
      </trkpt>
      <trkpt lat="43.64401" lon="3.82258">
        <ele>148.4</ele>
        <time>2017-10-12T11:25:50Z</time>
      </trkpt>
      <trkpt lat="43.64394" lon="3.82262">
        <ele>148.7</ele>
        <time>2017-10-12T11:25:52Z</time>
      </trkpt>
      <trkpt lat="43.64385" lon="3.82265">
        <ele>149.3</ele>
        <time>2017-10-12T11:25:54Z</time>
      </trkpt>
      <trkpt lat="43.64376" lon="3.82266">
        <ele>149.5</ele>
        <time>2017-10-12T11:25:56Z</time>
      </trkpt>
      <trkpt lat="43.64369" lon="3.82266">
        <ele>150.1</ele>
        <time>2017-10-12T11:25:58Z</time>
      </trkpt>
      <trkpt lat="43.64362" lon="3.82273">
        <ele>150.2</ele>
        <time>2017-10-12T11:26:00Z</time>
      </trkpt>
      <trkpt lat="43.64353" lon="3.82273">
        <ele>150.8</ele>
        <time>2017-10-12T11:26:03Z</time>
      </trkpt>
      <trkpt lat="43.64348" lon="3.82284">
        <ele>151</ele>
        <time>2017-10-12T11:26:06Z</time>
      </trkpt>
      <trkpt lat="43.64342" lon="3.82291">
        <ele>151.2</ele>
        <time>2017-10-12T11:26:08Z</time>
      </trkpt>
      <trkpt lat="43.64335" lon="3.82294">
        <ele>151.5</ele>
        <time>2017-10-12T11:26:10Z</time>
      </trkpt>
      <trkpt lat="43.64326" lon="3.82298">
        <ele>151.5</ele>
        <time>2017-10-12T11:26:12Z</time>
      </trkpt>
      <trkpt lat="43.64317" lon="3.82303">
        <ele>151.3</ele>
        <time>2017-10-12T11:26:14Z</time>
      </trkpt>
      <trkpt lat="43.64307" lon="3.82306">
        <ele>150.7</ele>
        <time>2017-10-12T11:26:16Z</time>
      </trkpt>
      <trkpt lat="43.64299" lon="3.82302">
        <ele>150.7</ele>
        <time>2017-10-12T11:26:18Z</time>
      </trkpt>
      <trkpt lat="43.64291" lon="3.82315">
        <ele>150.7</ele>
        <time>2017-10-12T11:26:21Z</time>
      </trkpt>
      <trkpt lat="43.64281" lon="3.82317">
        <ele>151.7</ele>
        <time>2017-10-12T11:26:23Z</time>
      </trkpt>
      <trkpt lat="43.64273" lon="3.82318">
        <ele>151.9</ele>
        <time>2017-10-12T11:26:25Z</time>
      </trkpt>
      <trkpt lat="43.64266" lon="3.82312">
        <ele>152.1</ele>
        <time>2017-10-12T11:26:27Z</time>
      </trkpt>
      <trkpt lat="43.64256" lon="3.82309">
        <ele>152.4</ele>
        <time>2017-10-12T11:26:30Z</time>
      </trkpt>
      <trkpt lat="43.64248" lon="3.82309">
        <ele>152.7</ele>
        <time>2017-10-12T11:26:33Z</time>
      </trkpt>
      <trkpt lat="43.6424" lon="3.8231">
        <ele>153.2</ele>
        <time>2017-10-12T11:26:36Z</time>
      </trkpt>
      <trkpt lat="43.64231" lon="3.82309">
        <ele>153.5</ele>
        <time>2017-10-12T11:26:39Z</time>
      </trkpt>
      <trkpt lat="43.64223" lon="3.82311">
        <ele>153.7</ele>
        <time>2017-10-12T11:26:42Z</time>
      </trkpt>
      <trkpt lat="43.64215" lon="3.82316">
        <ele>153.7</ele>
        <time>2017-10-12T11:26:45Z</time>
      </trkpt>
      <trkpt lat="43.64207" lon="3.82321">
        <ele>153.7</ele>
        <time>2017-10-12T11:26:48Z</time>
      </trkpt>
      <trkpt lat="43.642" lon="3.82327">
        <ele>153.6</ele>
        <time>2017-10-12T11:26:51Z</time>
      </trkpt>
      <trkpt lat="43.64196" lon="3.82336">
        <ele>153.5</ele>
        <time>2017-10-12T11:26:54Z</time>
      </trkpt>
      <trkpt lat="43.64195" lon="3.82347">
        <ele>153.4</ele>
        <time>2017-10-12T11:26:57Z</time>
      </trkpt>
      <trkpt lat="43.64193" lon="3.82359">
        <ele>153</ele>
        <time>2017-10-12T11:27:00Z</time>
      </trkpt>
      <trkpt lat="43.64187" lon="3.8237">
        <ele>152.3</ele>
        <time>2017-10-12T11:27:04Z</time>
      </trkpt>
      <trkpt lat="43.64183" lon="3.8238">
        <ele>151.5</ele>
        <time>2017-10-12T11:27:07Z</time>
      </trkpt>
      <trkpt lat="43.64178" lon="3.82393">
        <ele>146</ele>
        <time>2017-10-12T11:27:10Z</time>
      </trkpt>
      <trkpt lat="43.64172" lon="3.82405">
        <ele>143.5</ele>
        <time>2017-10-12T11:27:12Z</time>
      </trkpt>
      <trkpt lat="43.64172" lon="3.82417">
        <ele>142.9</ele>
        <time>2017-10-12T11:27:15Z</time>
      </trkpt>
      <trkpt lat="43.64168" lon="3.82425">
        <ele>142.2</ele>
        <time>2017-10-12T11:27:18Z</time>
      </trkpt>
      <trkpt lat="43.64168" lon="3.82438">
        <ele>141.5</ele>
        <time>2017-10-12T11:27:21Z</time>
      </trkpt>
      <trkpt lat="43.64162" lon="3.8245">
        <ele>137.5</ele>
        <time>2017-10-12T11:27:23Z</time>
      </trkpt>
      <trkpt lat="43.64157" lon="3.82463">
        <ele>135.5</ele>
        <time>2017-10-12T11:27:25Z</time>
      </trkpt>
      <trkpt lat="43.64155" lon="3.82476">
        <ele>133.7</ele>
        <time>2017-10-12T11:27:27Z</time>
      </trkpt>
      <trkpt lat="43.64146" lon="3.82489">
        <ele>132.4</ele>
        <time>2017-10-12T11:27:29Z</time>
      </trkpt>
      <trkpt lat="43.64142" lon="3.82503">
        <ele>131.6</ele>
        <time>2017-10-12T11:27:31Z</time>
      </trkpt>
      <trkpt lat="43.64137" lon="3.82511">
        <ele>131.8</ele>
        <time>2017-10-12T11:27:32Z</time>
      </trkpt>
      <trkpt lat="43.64132" lon="3.82521">
        <ele>132.1</ele>
        <time>2017-10-12T11:27:33Z</time>
      </trkpt>
      <trkpt lat="43.64129" lon="3.82532">
        <ele>131.7</ele>
        <time>2017-10-12T11:27:34Z</time>
      </trkpt>
      <trkpt lat="43.64128" lon="3.82542">
        <ele>131.3</ele>
        <time>2017-10-12T11:27:35Z</time>
      </trkpt>
      <trkpt lat="43.64124" lon="3.82552">
        <ele>130.9</ele>
        <time>2017-10-12T11:27:36Z</time>
      </trkpt>
      <trkpt lat="43.64121" lon="3.82561">
        <ele>130.3</ele>
        <time>2017-10-12T11:27:37Z</time>
      </trkpt>
      <trkpt lat="43.64117" lon="3.8257">
        <ele>129.5</ele>
        <time>2017-10-12T11:27:38Z</time>
      </trkpt>
      <trkpt lat="43.64113" lon="3.82579">
        <ele>128.9</ele>
        <time>2017-10-12T11:27:39Z</time>
      </trkpt>
      <trkpt lat="43.6411" lon="3.82589">
        <ele>128.3</ele>
        <time>2017-10-12T11:27:40Z</time>
      </trkpt>
      <trkpt lat="43.64106" lon="3.826">
        <ele>127.7</ele>
        <time>2017-10-12T11:27:41Z</time>
      </trkpt>
      <trkpt lat="43.64103" lon="3.82611">
        <ele>127.2</ele>
        <time>2017-10-12T11:27:42Z</time>
      </trkpt>
      <trkpt lat="43.641" lon="3.82621">
        <ele>126.8</ele>
        <time>2017-10-12T11:27:43Z</time>
      </trkpt>
      <trkpt lat="43.64099" lon="3.82632">
        <ele>126.1</ele>
        <time>2017-10-12T11:27:44Z</time>
      </trkpt>
      <trkpt lat="43.64096" lon="3.82642">
        <ele>125.3</ele>
        <time>2017-10-12T11:27:45Z</time>
      </trkpt>
      <trkpt lat="43.6409" lon="3.82652">
        <ele>124.5</ele>
        <time>2017-10-12T11:27:46Z</time>
      </trkpt>
      <trkpt lat="43.64084" lon="3.82663">
        <ele>123.8</ele>
        <time>2017-10-12T11:27:47Z</time>
      </trkpt>
      <trkpt lat="43.64079" lon="3.82675">
        <ele>123.5</ele>
        <time>2017-10-12T11:27:48Z</time>
      </trkpt>
      <trkpt lat="43.64075" lon="3.82687">
        <ele>123.6</ele>
        <time>2017-10-12T11:27:49Z</time>
      </trkpt>
      <trkpt lat="43.64071" lon="3.82699">
        <ele>123.9</ele>
        <time>2017-10-12T11:27:50Z</time>
      </trkpt>
      <trkpt lat="43.64064" lon="3.8271">
        <ele>124.3</ele>
        <time>2017-10-12T11:27:51Z</time>
      </trkpt>
      <trkpt lat="43.64057" lon="3.82722">
        <ele>124.5</ele>
        <time>2017-10-12T11:27:52Z</time>
      </trkpt>
      <trkpt lat="43.6405" lon="3.82733">
        <ele>124.9</ele>
        <time>2017-10-12T11:27:53Z</time>
      </trkpt>
      <trkpt lat="43.64043" lon="3.82742">
        <ele>125.3</ele>
        <time>2017-10-12T11:27:54Z</time>
      </trkpt>
      <trkpt lat="43.64038" lon="3.8275">
        <ele>125.5</ele>
        <time>2017-10-12T11:27:55Z</time>
      </trkpt>
      <trkpt lat="43.64036" lon="3.8276">
        <ele>125.6</ele>
        <time>2017-10-12T11:27:56Z</time>
      </trkpt>
      <trkpt lat="43.64027" lon="3.82775">
        <ele>125.8</ele>
        <time>2017-10-12T11:27:58Z</time>
      </trkpt>
      <trkpt lat="43.64022" lon="3.82788">
        <ele>125.7</ele>
        <time>2017-10-12T11:28:00Z</time>
      </trkpt>
      <trkpt lat="43.64014" lon="3.82798">
        <ele>125.7</ele>
        <time>2017-10-12T11:28:02Z</time>
      </trkpt>
      <trkpt lat="43.64001" lon="3.82799">
        <ele>125</ele>
        <time>2017-10-12T11:28:04Z</time>
      </trkpt>
      <trkpt lat="43.63987" lon="3.82798">
        <ele>124.9</ele>
        <time>2017-10-12T11:28:06Z</time>
      </trkpt>
      <trkpt lat="43.63974" lon="3.82802">
        <ele>124.6</ele>
        <time>2017-10-12T11:28:08Z</time>
      </trkpt>
      <trkpt lat="43.63965" lon="3.8281">
        <ele>124.2</ele>
        <time>2017-10-12T11:28:10Z</time>
      </trkpt>
      <trkpt lat="43.63955" lon="3.82818">
        <ele>124</ele>
        <time>2017-10-12T11:28:12Z</time>
      </trkpt>
      <trkpt lat="43.63944" lon="3.82825">
        <ele>124.2</ele>
        <time>2017-10-12T11:28:14Z</time>
      </trkpt>
      <trkpt lat="43.6393" lon="3.8283">
        <ele>124.6</ele>
        <time>2017-10-12T11:28:16Z</time>
      </trkpt>
      <trkpt lat="43.63919" lon="3.82827">
        <ele>125.2</ele>
        <time>2017-10-12T11:28:18Z</time>
      </trkpt>
      <trkpt lat="43.63912" lon="3.82822">
        <ele>125.2</ele>
        <time>2017-10-12T11:28:20Z</time>
      </trkpt>
      <trkpt lat="43.63907" lon="3.82816">
        <ele>125.1</ele>
        <time>2017-10-12T11:28:22Z</time>
      </trkpt>
      <trkpt lat="43.63897" lon="3.82812">
        <ele>125.1</ele>
        <time>2017-10-12T11:28:24Z</time>
      </trkpt>
      <trkpt lat="43.63891" lon="3.828">
        <ele>125.9</ele>
        <time>2017-10-12T11:28:26Z</time>
      </trkpt>
      <trkpt lat="43.63886" lon="3.82786">
        <ele>127.2</ele>
        <time>2017-10-12T11:28:28Z</time>
      </trkpt>
      <trkpt lat="43.63877" lon="3.82781">
        <ele>128.1</ele>
        <time>2017-10-12T11:28:30Z</time>
      </trkpt>
      <trkpt lat="43.63869" lon="3.82788">
        <ele>128.7</ele>
        <time>2017-10-12T11:28:32Z</time>
      </trkpt>
      <trkpt lat="43.63862" lon="3.82794">
        <ele>128.9</ele>
        <time>2017-10-12T11:28:34Z</time>
      </trkpt>
      <trkpt lat="43.63853" lon="3.82801">
        <ele>128.8</ele>
        <time>2017-10-12T11:28:36Z</time>
      </trkpt>
      <trkpt lat="43.63845" lon="3.82806">
        <ele>128.4</ele>
        <time>2017-10-12T11:28:38Z</time>
      </trkpt>
      <trkpt lat="43.63835" lon="3.82803">
        <ele>128.8</ele>
        <time>2017-10-12T11:28:40Z</time>
      </trkpt>
      <trkpt lat="43.63826" lon="3.82803">
        <ele>128.9</ele>
        <time>2017-10-12T11:28:42Z</time>
      </trkpt>
      <trkpt lat="43.63816" lon="3.82809">
        <ele>128.2</ele>
        <time>2017-10-12T11:28:44Z</time>
      </trkpt>
      <trkpt lat="43.63806" lon="3.82814">
        <ele>127.1</ele>
        <time>2017-10-12T11:28:46Z</time>
      </trkpt>
      <trkpt lat="43.63797" lon="3.82819">
        <ele>126.3</ele>
        <time>2017-10-12T11:28:48Z</time>
      </trkpt>
      <trkpt lat="43.63788" lon="3.82822">
        <ele>125.5</ele>
        <time>2017-10-12T11:28:50Z</time>
      </trkpt>
      <trkpt lat="43.63781" lon="3.82826">
        <ele>125.3</ele>
        <time>2017-10-12T11:28:52Z</time>
      </trkpt>
      <trkpt lat="43.6378" lon="3.82837">
        <ele>124.9</ele>
        <time>2017-10-12T11:28:56Z</time>
      </trkpt>
      <trkpt lat="43.63783" lon="3.82847">
        <ele>124.3</ele>
        <time>2017-10-12T11:28:59Z</time>
      </trkpt>
      <trkpt lat="43.63775" lon="3.82849">
        <ele>123.9</ele>
        <time>2017-10-12T11:29:03Z</time>
      </trkpt>
      <trkpt lat="43.63773" lon="3.8285">
        <ele>123.4</ele>
        <time>2017-10-12T11:29:10Z</time>
      </trkpt>
    </trkseg>
  </trk>
</gpx>